
Distance (Route):
Temperature : 21.5°C
Humidity : 66.4%
Pressure : 865.2hPa| Receiver | Frames | First received | Last received |
|---|---|---|---|
| PU1XMG-16 | 921 | 2026-08-30 11:32:08 | 2026-08-30 13:25:20 |
| Receiver | Date | Latitude | Longitude | Direction | Speed | Altitude | Climb | Temperature | Humidity | Pressure | Voltage | Killtimer | Uptime | BKT | XDATA |
|---|---|---|---|---|---|---|---|---|---|---|---|---|---|---|---|
| PU1XMG-16 | 2026-08-30 13:25:20 | -22.62700 | -42.65527 | 145° | 16km/h | 1387m | -12.1m/s | 21.5°C | 66.4% | 865.2hPa | 0V | 00:00:00 | 00:00:00 | 00:00:00 | |
| PU1XMG-16 | 2026-08-30 13:25:15 | -22.62681 | -42.65540 | 138° | 18km/h | 1445m | -13.3m/s | 22.4°C | 58.8% | 859.7hPa | 0V | 00:00:00 | 00:00:00 | 00:00:00 | |
| PU1XMG-16 | 2026-08-30 13:25:07 | -22.62652 | -42.65567 | 143° | 20km/h | 1526m | -10.9m/s | 22.3°C | 56.0% | 851.5hPa | 0V | 00:00:00 | 00:00:00 | 00:00:00 | |
| PU1XMG-16 | 2026-08-30 13:24:59 | -22.62622 | -42.65604 | 130° | 24km/h | 1609m | -12.3m/s | 21.9°C | 55.7% | 843.5hPa | 0V | 00:00:00 | 00:00:00 | 00:00:00 | |
| PU1XMG-16 | 2026-08-30 13:24:49 | -22.62586 | -42.65650 | 133° | 22km/h | 1728m | -12.5m/s | 21.3°C | 55.1% | 832.3hPa | 0V | 07:59:00 | 00:00:00 | 00:00:00 | |
| PU1XMG-16 | 2026-08-30 13:24:44 | -22.62568 | -42.65672 | 140° | 20km/h | 1788m | -12.3m/s | 20.9°C | 57.2% | 826.4hPa | 0V | 07:59:00 | 00:00:00 | 00:00:00 | |
| PU1XMG-16 | 2026-08-30 13:24:39 | -22.62548 | -42.65699 | 128° | 22km/h | 1858m | -12.6m/s | 20.5°C | 57.1% | 819.8hPa | 0V | 07:59:00 | 00:00:00 | 00:00:00 | |
| PU1XMG-16 | 2026-08-30 13:24:32 | -22.62531 | -42.65725 | 121° | 20km/h | 1928m | -12.1m/s | 20.0°C | 55.6% | 813.0hPa | 0V | 07:59:00 | 00:00:00 | 00:00:00 | |
| PU1XMG-16 | 2026-08-30 13:24:26 | -22.62518 | -42.65753 | 122° | 18km/h | 1998m | -11.8m/s | 19.5°C | 57.8% | 806.5hPa | 0V | 07:59:00 | 00:00:00 | 00:00:00 | |
| PU1XMG-16 | 2026-08-30 13:24:21 | -22.62511 | -42.65774 | 116° | 15km/h | 2056m | -12.4m/s | 19.0°C | 59.0% | 801.2hPa | 0V | 07:59:00 | 00:00:00 | 00:00:00 | |
| PU1XMG-16 | 2026-08-30 13:24:16 | -22.62507 | -42.65795 | 90° | 16km/h | 2114m | -12.4m/s | 18.5°C | 60.7% | 795.6hPa | 0V | 07:59:00 | 00:00:00 | 00:00:00 | |
| PU1XMG-16 | 2026-08-30 13:24:11 | -22.62505 | -42.65820 | 90° | 18km/h | 2174m | -12.6m/s | 17.9°C | 62.7% | 790.2hPa | 0V | 07:59:00 | 00:00:00 | 00:00:00 | |
| PU1XMG-16 | 2026-08-30 13:24:05 | -22.62503 | -42.65853 | 99° | 20km/h | 2245m | -12.4m/s | 17.3°C | 64.2% | 783.7hPa | 0V | 07:59:00 | 00:00:00 | 00:00:00 | |
| PU1XMG-16 | 2026-08-30 13:23:59 | -22.62504 | -42.65885 | 85° | 22km/h | 2318m | -12.9m/s | 16.7°C | 65.8% | 777.1hPa | 0V | 08:00:00 | 00:00:00 | 00:00:00 | |
| PU1XMG-16 | 2026-08-30 13:23:54 | -22.62505 | -42.65913 | 89° | 22km/h | 2376m | -11.9m/s | 16.1°C | 67.6% | 771.7hPa | 0V | 08:00:00 | 00:00:00 | 00:00:00 | |
| PU1XMG-16 | 2026-08-30 13:23:49 | -22.62508 | -42.65940 | 81° | 16km/h | 2438m | -13.6m/s | 15.6°C | 69.6% | 766.2hPa | 0V | 08:00:00 | 00:00:00 | 00:00:00 | |
| PU1XMG-16 | 2026-08-30 13:23:43 | -22.62513 | -42.65970 | 77° | 20km/h | 2518m | -13.5m/s | 14.9°C | 72.6% | 759.1hPa | 0V | 08:00:00 | 00:00:00 | 00:00:00 | |
| PU1XMG-16 | 2026-08-30 13:23:37 | -22.62518 | -42.65996 | 70° | 16km/h | 2598m | -13.8m/s | 14.1°C | 75.0% | 752.1hPa | 0V | 08:00:00 | 00:00:00 | 00:00:00 | |
| PU1XMG-16 | 2026-08-30 13:23:32 | -22.62523 | -42.66018 | 76° | 13km/h | 2664m | -13.0m/s | 13.5°C | 77.3% | 746.2hPa | 0V | 08:00:00 | 00:00:00 | 00:00:00 | |
| PU1XMG-16 | 2026-08-30 13:23:27 | -22.62529 | -42.66038 | 80° | 13km/h | 2730m | -14.4m/s | 12.9°C | 79.8% | 740.3hPa | 0V | 08:00:00 | 00:00:00 | 00:00:00 | |
| PU1XMG-16 | 2026-08-30 13:23:22 | -22.62536 | -42.66060 | 62° | 15km/h | 2812m | -13.7m/s | 12.1°C | 82.6% | 733.3hPa | 0V | 08:00:00 | 00:00:00 | 00:00:00 | |
| PU1XMG-16 | 2026-08-30 13:23:17 | -22.62541 | -42.66079 | 77° | 11km/h | 2878m | -15.0m/s | 11.5°C | 84.1% | 727.4hPa | 0V | 08:00:00 | 00:00:00 | 00:00:00 | |
| PU1XMG-16 | 2026-08-30 13:23:10 | -22.62546 | -42.66101 | 68° | 16km/h | 2961m | -14.1m/s | 10.8°C | 86.0% | 720.3hPa | 0V | 08:01:00 | 00:00:00 | 00:00:00 | |
| PU1XMG-16 | 2026-08-30 13:23:02 | -22.62556 | -42.66135 | 74° | 13km/h | 3082m | -13.7m/s | 9.8°C | 91.0% | 710.0hPa | 0V | 08:01:00 | 00:00:00 | 00:00:00 | |
| PU1XMG-16 | 2026-08-30 13:22:56 | -22.62564 | -42.66153 | 64° | 16km/h | 3147m | -13.9m/s | 9.3°C | 90.3% | 704.2hPa | 0V | 08:01:00 | 00:00:00 | 00:00:00 | |
| PU1XMG-16 | 2026-08-30 13:22:51 | -22.62574 | -42.66171 | 59° | 13km/h | 3215m | -14.8m/s | 8.7°C | 92.6% | 698.7hPa | 0V | 08:01:00 | 00:00:00 | 00:00:00 | |
| PU1XMG-16 | 2026-08-30 13:22:46 | -22.62584 | -42.66191 | 67° | 15km/h | 3283m | -14.6m/s | 8.1°C | 95.3% | 693.0hPa | 0V | 08:01:00 | 00:00:00 | 00:00:00 | |
| PU1XMG-16 | 2026-08-30 13:22:41 | -22.62595 | -42.66210 | 66° | 18km/h | 3352m | -14.2m/s | 7.6°C | 91.4% | 687.3hPa | 0V | 08:01:00 | 00:00:00 | 00:00:00 | |
| PU1XMG-16 | 2026-08-30 13:22:29 | -22.62622 | -42.66269 | 65° | 22km/h | 3518m | -13.7m/s | 6.3°C | 84.5% | 673.6hPa | 0V | 08:01:00 | 00:00:00 | 00:00:00 | |
| PU1XMG-16 | 2026-08-30 13:22:23 | -22.62637 | -42.66304 | 72° | 22km/h | 3601m | -14.2m/s | 5.9°C | 73.5% | 667.0hPa | 0V | 08:01:00 | 00:00:00 | 00:00:00 | |
| PU1XMG-16 | 2026-08-30 13:22:18 | -22.62651 | -42.66342 | 75° | 27km/h | 3683m | -14.1m/s | 5.5°C | 62.2% | 660.3hPa | 0V | 08:02:00 | 00:00:00 | 00:00:00 | |
| PU1XMG-16 | 2026-08-30 13:22:12 | -22.62662 | -42.66377 | 71° | 29km/h | 3752m | -14.0m/s | 5.1°C | 60.1% | 654.8hPa | 0V | 08:02:00 | 00:00:00 | 00:00:00 | |
| PU1XMG-16 | 2026-08-30 13:22:08 | -22.62672 | -42.66414 | 71° | 26km/h | 3819m | -13.8m/s | 4.6°C | 62.5% | 649.5hPa | 0V | 08:02:00 | 00:00:00 | 00:00:00 | |
| PU1XMG-16 | 2026-08-30 13:22:02 | -22.62686 | -42.66462 | 77° | 31km/h | 3899m | -14.3m/s | 4.1°C | 65.1% | 643.0hPa | 0V | 08:02:00 | 00:00:00 | 00:00:00 | |
| PU1XMG-16 | 2026-08-30 13:21:57 | -22.62698 | -42.66502 | 69° | 31km/h | 3968m | -14.6m/s | 3.5°C | 67.7% | 637.7hPa | 0V | 08:02:00 | 00:00:00 | 00:00:00 | |
| PU1XMG-16 | 2026-08-30 13:21:51 | -22.62710 | -42.66545 | 75° | 33km/h | 4036m | -14.2m/s | 2.9°C | 71.5% | 632.3hPa | 0V | 08:02:00 | 00:00:00 | 00:00:00 | |
| PU1XMG-16 | 2026-08-30 13:21:46 | -22.62724 | -42.66594 | 69° | 33km/h | 4114m | -13.6m/s | 2.2°C | 75.4% | 626.3hPa | 0V | 08:02:00 | 00:00:00 | 00:00:00 | |
| PU1XMG-16 | 2026-08-30 13:21:39 | -22.62737 | -42.66642 | 79° | 31km/h | 4194m | -14.4m/s | 1.9°C | 68.7% | 620.0hPa | 0V | 08:02:00 | 00:00:00 | 00:00:00 | |
| PU1XMG-16 | 2026-08-30 13:21:34 | -22.62742 | -42.66679 | 82° | 22km/h | 4264m | -13.5m/s | 1.3°C | 75.2% | 614.7hPa | 0V | 08:02:00 | 00:00:00 | 00:00:00 | |
| PU1XMG-16 | 2026-08-30 13:21:28 | -22.62743 | -42.66718 | 93° | 22km/h | 4341m | -14.1m/s | 0.9°C | 77.8% | 608.8hPa | 0V | 08:02:00 | 00:00:00 | 00:00:00 | |
| PU1XMG-16 | 2026-08-30 13:21:22 | -22.62743 | -42.66753 | 82° | 20km/h | 4424m | -14.6m/s | 0.5°C | 70.6% | 602.7hPa | 0V | 08:02:00 | 00:00:00 | 00:00:00 | |
| PU1XMG-16 | 2026-08-30 13:21:16 | -22.62746 | -42.66785 | 95° | 16km/h | 4506m | -14.4m/s | 0.2°C | 66.6% | 596.6hPa | 0V | 08:02:00 | 00:00:00 | 00:00:00 | |
| PU1XMG-16 | 2026-08-30 13:21:10 | -22.62747 | -42.66811 | 79° | 16km/h | 4587m | -13.8m/s | -0.2°C | 66.8% | 590.8hPa | 0V | 08:02:00 | 00:00:00 | 00:00:00 | |
| PU1XMG-16 | 2026-08-30 13:21:04 | -22.62751 | -42.66838 | 89° | 15km/h | 4668m | -14.2m/s | -0.5°C | 59.9% | 584.7hPa | 0V | 08:02:00 | 00:00:00 | 00:00:00 | |
| PU1XMG-16 | 2026-08-30 13:20:59 | -22.62753 | -42.66865 | 77° | 16km/h | 4749m | -14.2m/s | -0.5°C | 50.5% | 578.9hPa | 0V | 08:02:00 | 00:00:00 | 00:00:00 | |
| PU1XMG-16 | 2026-08-30 13:20:52 | -22.62757 | -42.66892 | 88° | 16km/h | 4830m | -13.6m/s | -1.3°C | 55.2% | 573.1hPa | 0V | 08:02:00 | 00:00:00 | 00:00:00 | |
| PU1XMG-16 | 2026-08-30 13:20:47 | -22.62761 | -42.66920 | 79° | 16km/h | 4909m | -14.0m/s | -2.0°C | 57.8% | 567.5hPa | 0V | 08:02:00 | 00:00:00 | 00:00:00 | |
| PU1XMG-16 | 2026-08-30 13:20:42 | -22.62763 | -42.66945 | 83° | 20km/h | 4976m | -13.7m/s | -2.6°C | 59.8% | 562.7hPa | 0V | 08:02:00 | 00:00:00 | 00:00:00 | |
| PU1XMG-16 | 2026-08-30 13:20:36 | -22.62762 | -42.66979 | 100° | 20km/h | 5054m | -11.4m/s | -2.7°C | 50.2% | 557.2hPa | 0V | 08:03:00 | 00:00:00 | 00:00:00 | |
| PU1XMG-16 | 2026-08-30 13:20:30 | -22.62758 | -42.67009 | 99° | 26km/h | 5118m | -13.3m/s | -2.3°C | 28.0% | 552.7hPa | 0V | 08:03:00 | 00:00:00 | 00:00:00 | |
| PU1XMG-16 | 2026-08-30 13:20:17 | -22.62756 | -42.67101 | 84° | 24km/h | 5275m | -12.4m/s | -2.9°C | 20.8% | 541.8hPa | 0V | 08:03:00 | 00:00:00 | 00:00:00 | |
| PU1XMG-16 | 2026-08-30 13:20:07 | -22.62762 | -42.67173 | 84° | 27km/h | 5397m | -13.3m/s | -3.9°C | 26.9% | 533.5hPa | 0V | 08:03:00 | 00:00:00 | 00:00:00 | |
| PU1XMG-16 | 2026-08-30 13:20:02 | -22.62763 | -42.67216 | 86° | 29km/h | 5470m | -12.7m/s | -4.1°C | 12.4% | 528.6hPa | 0V | 08:03:00 | 00:00:00 | 00:00:00 | |
| PU1XMG-16 | 2026-08-30 13:19:55 | -22.62764 | -42.67259 | 81° | 26km/h | 5539m | -12.1m/s | -4.5°C | 12.2% | 523.9hPa | 0V | 08:03:00 | 00:00:00 | 00:00:00 | |
| PU1XMG-16 | 2026-08-30 13:19:49 | -22.62773 | -42.67298 | 70° | 26km/h | 5606m | -11.4m/s | -5.1°C | 24.9% | 519.4hPa | 0V | 08:03:00 | 00:00:00 | 00:00:00 | |
| PU1XMG-16 | 2026-08-30 13:19:44 | -22.62786 | -42.67332 | 63° | 22km/h | 5667m | -12.4m/s | -5.6°C | 24.9% | 515.5hPa | 0V | 08:04:00 | 00:00:00 | 00:00:00 | |
| PU1XMG-16 | 2026-08-30 13:19:39 | -22.62803 | -42.67360 | 60° | 26km/h | 5730m | -12.6m/s | -6.0°C | 21.1% | 511.4hPa | 0V | 08:04:00 | 00:00:00 | 00:00:00 | |
| PU1XMG-16 | 2026-08-30 13:19:34 | -22.62820 | -42.67388 | 55° | 27km/h | 5792m | -13.0m/s | -6.3°C | 22.5% | 507.4hPa | 0V | 08:04:00 | 00:00:00 | 00:00:00 | |
| PU1XMG-16 | 2026-08-30 13:19:28 | -22.62843 | -42.67424 | 53° | 24km/h | 5870m | -12.9m/s | -6.9°C | 20.5% | 502.4hPa | 0V | 08:04:00 | 00:00:00 | 00:00:00 | |
| PU1XMG-16 | 2026-08-30 13:19:22 | -22.62867 | -42.67459 | 54° | 24km/h | 5943m | -13.1m/s | -7.0°C | 21.6% | 497.7hPa | 0V | 08:04:00 | 00:00:00 | 00:00:00 | |
| PU1XMG-16 | 2026-08-30 13:19:17 | -22.62888 | -42.67485 | 51° | 29km/h | 6005m | -12.4m/s | -7.3°C | 24.4% | 493.8hPa | 0V | 08:04:00 | 00:00:00 | 00:00:00 | |
| PU1XMG-16 | 2026-08-30 13:19:11 | -22.62919 | -42.67522 | 41° | 29km/h | 6080m | -12.8m/s | -7.7°C | 13.8% | 489.0hPa | 0V | 08:04:00 | 00:00:00 | 00:00:00 | |
| PU1XMG-16 | 2026-08-30 13:19:07 | -22.62951 | -42.67551 | 45° | 35km/h | 6141m | -12.8m/s | -8.1°C | 5.4% | 485.2hPa | 0V | 08:04:00 | 00:00:00 | 00:00:00 | |
| PU1XMG-16 | 2026-08-30 13:19:00 | -22.62987 | -42.67587 | 36° | 31km/h | 6218m | -12.3m/s | -8.6°C | 5.9% | 480.6hPa | 0V | 08:04:00 | 00:00:00 | 00:00:00 | |
| PU1XMG-16 | 2026-08-30 13:18:54 | -22.63026 | -42.67623 | 45° | 33km/h | 6290m | -13.3m/s | -9.2°C | 12.7% | 475.9hPa | 0V | 08:05:00 | 00:00:00 | 00:00:00 | |
| PU1XMG-16 | 2026-08-30 13:18:42 | -22.63088 | -42.67699 | 52° | 29km/h | 6445m | -13.3m/s | -10.0°C | 10.7% | 466.6hPa | 0V | 08:05:00 | 00:00:00 | 00:00:00 | |
| PU1XMG-16 | 2026-08-30 13:18:37 | -22.63114 | -42.67735 | 55° | 35km/h | 6508m | -12.6m/s | -10.5°C | 12.5% | 462.7hPa | 0V | 08:05:00 | 00:00:00 | 00:00:00 | |
| PU1XMG-16 | 2026-08-30 13:18:32 | -22.63140 | -42.67769 | 42° | 33km/h | 6572m | -12.7m/s | -11.0°C | 18.4% | 458.9hPa | 0V | 08:05:00 | 00:00:00 | 00:00:00 | |
| PU1XMG-16 | 2026-08-30 13:18:26 | -22.63183 | -42.67812 | 43° | 38km/h | 6648m | -13.2m/s | -11.0°C | 3.5% | 454.4hPa | 0V | 08:05:00 | 00:00:00 | 00:00:00 | |
| PU1XMG-16 | 2026-08-30 13:18:21 | -22.63220 | -42.67847 | 41° | 44km/h | 6712m | -13.4m/s | -11.3°C | 5.9% | 450.6hPa | 0V | 08:05:00 | 00:00:00 | 00:00:00 | |
| PU1XMG-16 | 2026-08-30 13:18:16 | -22.63262 | -42.67891 | 45° | 47km/h | 6775m | -13.2m/s | -11.5°C | 4.1% | 446.9hPa | 0V | 08:05:00 | 00:00:00 | 00:00:00 | |
| PU1XMG-16 | 2026-08-30 13:18:10 | -22.63315 | -42.67947 | 47° | 53km/h | 6853m | -13.3m/s | -11.9°C | 3.3% | 442.4hPa | 0V | 08:05:00 | 00:00:00 | 00:00:00 | |
| PU1XMG-16 | 2026-08-30 13:18:05 | -22.63371 | -42.68010 | 41° | 53km/h | 6934m | -13.7m/s | -12.4°C | 3.7% | 437.9hPa | 0V | 08:06:00 | 00:00:00 | 00:00:00 | |
| PU1XMG-16 | 2026-08-30 13:17:59 | -22.63424 | -42.68064 | 46° | 58km/h | 7001m | -13.9m/s | -13.0°C | 4.3% | 434.1hPa | 0V | 08:06:00 | 00:00:00 | 00:00:00 | |
| PU1XMG-16 | 2026-08-30 13:17:55 | -22.63475 | -42.68117 | 42° | 57km/h | 7067m | -13.1m/s | -13.7°C | 4.5% | 430.3hPa | 0V | 08:06:00 | 00:00:00 | 00:00:00 | |
| PU1XMG-16 | 2026-08-30 13:17:48 | -22.63542 | -42.68186 | 46° | 64km/h | 7144m | -13.4m/s | -14.4°C | 5.1% | 425.9hPa | 0V | 08:06:00 | 00:00:00 | 00:00:00 | |
| PU1XMG-16 | 2026-08-30 13:17:42 | -22.63609 | -42.68257 | 43° | 60km/h | 7224m | -12.9m/s | -15.1°C | 6.1% | 421.5hPa | 0V | 08:06:00 | 00:00:00 | 00:00:00 | |
| PU1XMG-16 | 2026-08-30 13:17:37 | -22.63665 | -42.68318 | 48° | 62km/h | 7290m | -13.6m/s | -15.6°C | 5.9% | 417.7hPa | 0V | 08:06:00 | 00:00:00 | 00:00:00 | |
| PU1XMG-16 | 2026-08-30 13:17:31 | -22.63727 | -42.68387 | 48° | 60km/h | 7367m | -12.7m/s | -16.1°C | 5.0% | 413.6hPa | 0V | 08:06:00 | 00:00:00 | 00:00:00 | |
| PU1XMG-16 | 2026-08-30 13:17:26 | -22.63785 | -42.68456 | 47° | 53km/h | 7444m | -12.8m/s | -16.8°C | 4.9% | 409.5hPa | 0V | 08:06:00 | 00:00:00 | 00:00:00 | |
| PU1XMG-16 | 2026-08-30 13:17:20 | -22.63831 | -42.68513 | 54° | 57km/h | 7508m | -12.5m/s | -17.2°C | 4.5% | 405.9hPa | 0V | 08:06:00 | 00:00:00 | 00:00:00 | |
| PU1XMG-16 | 2026-08-30 13:17:15 | -22.63872 | -42.68574 | 55° | 53km/h | 7569m | -11.8m/s | -17.6°C | 4.9% | 402.6hPa | 0V | 08:07:00 | 00:00:00 | 00:00:00 | |
| PU1XMG-16 | 2026-08-30 13:17:09 | -22.63919 | -42.68649 | 58° | 57km/h | 7642m | -12.6m/s | -18.1°C | 5.1% | 398.7hPa | 0V | 08:07:00 | 00:00:00 | 00:00:00 | |
| PU1XMG-16 | 2026-08-30 13:17:03 | -22.63964 | -42.68725 | 59° | 49km/h | 7717m | -12.8m/s | -18.7°C | 5.2% | 394.7hPa | 0V | 08:07:00 | 00:00:00 | 00:00:00 | |
| PU1XMG-16 | 2026-08-30 13:16:55 | -22.64021 | -42.68820 | 58° | 53km/h | 7816m | -13.3m/s | -19.4°C | 5.7% | 389.5hPa | 0V | 08:07:00 | 00:00:00 | 00:00:00 | |
| PU1XMG-16 | 2026-08-30 13:16:48 | -22.64068 | -42.68904 | 60° | 47km/h | 7905m | -13.7m/s | -19.0°C | 4.8% | 384.9hPa | 0V | 08:07:00 | 00:00:00 | 00:00:00 | |
| PU1XMG-16 | 2026-08-30 13:16:42 | -22.64107 | -42.68969 | 59° | 49km/h | 7984m | -13.6m/s | -19.5°C | 4.8% | 380.9hPa | 0V | 08:07:00 | 00:00:00 | 00:00:00 | |
| PU1XMG-16 | 2026-08-30 13:16:36 | -22.64146 | -42.69035 | 54° | 44km/h | 8061m | -12.9m/s | -20.1°C | 4.6% | 376.9hPa | 0V | 08:07:00 | 00:00:00 | 00:00:00 | |
| PU1XMG-16 | 2026-08-30 13:16:30 | -22.64189 | -42.69095 | 54° | 47km/h | 8138m | -13.0m/s | -20.6°C | 4.7% | 373.1hPa | 0V | 08:07:00 | 00:00:00 | 00:00:00 | |
| PU1XMG-16 | 2026-08-30 13:16:25 | -22.64232 | -42.69155 | 52° | 44km/h | 8216m | -13.2m/s | -21.2°C | 4.9% | 369.4hPa | 0V | 08:07:00 | 00:00:00 | 00:00:00 | |
| PU1XMG-16 | 2026-08-30 13:16:20 | -22.64271 | -42.69201 | 48° | 47km/h | 8280m | -13.1m/s | -21.6°C | 4.6% | 366.2hPa | 0V | 08:07:00 | 00:00:00 | 00:00:00 | |
| PU1XMG-16 | 2026-08-30 13:16:14 | -22.64311 | -42.69247 | 48° | 46km/h | 8343m | -13.4m/s | -21.8°C | 4.5% | 362.9hPa | 0V | 08:07:00 | 00:00:00 | 00:00:00 | |
| PU1XMG-16 | 2026-08-30 13:16:08 | -22.64362 | -42.69299 | 44° | 47km/h | 8419m | -13.3m/s | -22.2°C | 4.2% | 359.1hPa | 0V | 08:07:00 | 00:00:00 | 00:00:00 | |
| PU1XMG-16 | 2026-08-30 13:16:02 | -22.64413 | -42.69358 | 50° | 49km/h | 8499m | -13.5m/s | -22.6°C | 5.3% | 355.3hPa | 0V | 08:07:00 | 00:00:00 | 00:00:00 | |
| PU1XMG-16 | 2026-08-30 13:15:58 | -22.64453 | -42.69409 | 52° | 49km/h | 8564m | -12.8m/s | -22.9°C | 5.4% | 352.2hPa | 0V | 08:07:00 | 00:00:00 | 00:00:00 | |
| PU1XMG-16 | 2026-08-30 13:15:52 | -22.64493 | -42.69463 | 54° | 55km/h | 8629m | -12.9m/s | -23.5°C | 5.6% | 349.1hPa | 0V | 08:07:00 | 00:00:00 | 00:00:00 | |
| PU1XMG-16 | 2026-08-30 13:15:46 | -22.64541 | -42.69539 | 60° | 58km/h | 8707m | -13.2m/s | -24.2°C | 5.8% | 345.4hPa | 0V | 08:07:00 | 00:00:00 | 00:00:00 | |
| PU1XMG-16 | 2026-08-30 13:15:42 | -22.64577 | -42.69606 | 62° | 55km/h | 8773m | -13.3m/s | -24.7°C | 6.2% | 342.4hPa | 0V | 08:07:00 | 00:00:00 | 00:00:00 | |
| PU1XMG-16 | 2026-08-30 13:15:35 | -22.64621 | -42.69688 | 62° | 60km/h | 8854m | -13.5m/s | -25.4°C | 6.4% | 338.6hPa | 0V | 08:07:00 | 00:00:00 | 00:00:00 | |
| PU1XMG-16 | 2026-08-30 13:15:31 | -22.64657 | -42.69762 | 64° | 60km/h | 8920m | -13.2m/s | -26.0°C | 6.6% | 335.5hPa | 0V | 08:08:00 | 00:00:00 | 00:00:00 | |
| PU1XMG-16 | 2026-08-30 13:15:24 | -22.64698 | -42.69844 | 59° | 55km/h | 8999m | -13.7m/s | -26.6°C | 6.6% | 331.9hPa | 0V | 08:08:00 | 00:00:00 | 00:00:00 | |
| PU1XMG-16 | 2026-08-30 13:15:19 | -22.64734 | -42.69913 | 61° | 60km/h | 9067m | -13.4m/s | -27.2°C | 7.0% | 328.8hPa | 0V | 08:08:00 | 00:00:00 | 00:00:00 | |
| PU1XMG-16 | 2026-08-30 13:15:13 | -22.64779 | -42.69998 | 62° | 60km/h | 9149m | -13.6m/s | -27.9°C | 7.3% | 325.0hPa | 0V | 08:08:00 | 00:00:00 | 00:00:00 | |
| PU1XMG-16 | 2026-08-30 13:15:08 | -22.64814 | -42.70068 | 61° | 57km/h | 9221m | -13.7m/s | -28.5°C | 7.7% | 322.0hPa | 0V | 08:08:00 | 00:00:00 | 00:00:00 | |
| PU1XMG-16 | 2026-08-30 13:14:58 | -22.64894 | -42.70229 | 62° | 57km/h | 9370m | -13.3m/s | -29.8°C | 8.4% | 315.2hPa | 0V | 08:08:00 | 00:00:00 | 00:00:00 | |
| PU1XMG-16 | 2026-08-30 13:14:52 | -22.64929 | -42.70301 | 62° | 64km/h | 9438m | -13.8m/s | -30.5°C | 8.7% | 312.2hPa | 0V | 08:08:00 | 00:00:00 | 00:00:00 | |
| PU1XMG-16 | 2026-08-30 13:14:47 | -22.64964 | -42.70377 | 66° | 58km/h | 9508m | -14.2m/s | -31.1°C | 8.8% | 309.2hPa | 0V | 08:08:00 | 00:00:00 | 00:00:00 | |
| PU1XMG-16 | 2026-08-30 13:14:41 | -22.65003 | -42.70467 | 65° | 66km/h | 9593m | -14.3m/s | -31.9°C | 9.1% | 305.6hPa | 0V | 08:09:00 | 00:00:00 | 00:00:00 | |
| PU1XMG-16 | 2026-08-30 13:14:36 | -22.65038 | -42.70547 | 64° | 64km/h | 9659m | -13.2m/s | -32.3°C | 9.4% | 302.6hPa | 0V | 08:09:00 | 00:00:00 | 00:00:00 | |
| PU1XMG-16 | 2026-08-30 13:14:31 | -22.65074 | -42.70629 | 66° | 68km/h | 9721m | -13.1m/s | -32.9°C | 9.6% | 299.9hPa | 0V | 08:09:00 | 00:00:00 | 00:00:00 | |
| PU1XMG-16 | 2026-08-30 13:14:26 | -22.65108 | -42.70710 | 67° | 62km/h | 9789m | -14.9m/s | -33.4°C | 9.8% | 297.1hPa | 0V | 08:09:00 | 00:00:00 | 00:00:00 | |
| PU1XMG-16 | 2026-08-30 13:14:20 | -22.65152 | -42.70802 | 64° | 64km/h | 9875m | -12.5m/s | -34.1°C | 10.2% | 293.4hPa | 0V | 08:09:00 | 00:00:00 | 00:00:00 | |
| PU1XMG-16 | 2026-08-30 13:14:15 | -22.65190 | -42.70879 | 61° | 64km/h | 9940m | -11.7m/s | -34.6°C | 10.5% | 290.8hPa | 0V | 08:09:00 | 00:00:00 | 00:00:00 | |
| PU1XMG-16 | 2026-08-30 13:14:09 | -22.65237 | -42.70970 | 63° | 64km/h | 10021m | -13.6m/s | -35.4°C | 11.1% | 287.5hPa | 0V | 08:09:00 | 00:00:00 | 00:00:00 | |
| PU1XMG-16 | 2026-08-30 13:14:04 | -22.65274 | -42.71047 | 64° | 60km/h | 10088m | -13.3m/s | -36.1°C | 11.6% | 284.7hPa | 0V | 08:09:00 | 00:00:00 | 00:00:00 | |
| PU1XMG-16 | 2026-08-30 13:13:58 | -22.65319 | -42.71137 | 61° | 64km/h | 10168m | -12.6m/s | -36.8°C | 12.5% | 281.4hPa | 0V | 08:09:00 | 00:00:00 | 00:00:00 | |
| PU1XMG-16 | 2026-08-30 13:13:53 | -22.65358 | -42.71214 | 63° | 66km/h | 10235m | -14.4m/s | -37.5°C | 13.1% | 278.8hPa | 0V | 08:09:00 | 00:00:00 | 00:00:00 | |
| PU1XMG-16 | 2026-08-30 13:13:47 | -22.65404 | -42.71306 | 61° | 62km/h | 10320m | -14.0m/s | -38.3°C | 13.9% | 275.3hPa | 0V | 08:10:00 | 00:00:00 | 00:00:00 | |
| PU1XMG-16 | 2026-08-30 13:13:42 | -22.65451 | -42.71400 | 63° | 66km/h | 10399m | -13.9m/s | -39.1°C | 15.0% | 272.2hPa | 0V | 08:10:00 | 00:00:00 | 00:00:00 | |
| PU1XMG-16 | 2026-08-30 13:13:35 | -22.65496 | -42.71493 | 64° | 62km/h | 10484m | -14.5m/s | -39.9°C | 16.0% | 268.8hPa | 0V | 08:10:00 | 00:00:00 | 00:00:00 | |
| PU1XMG-16 | 2026-08-30 13:13:29 | -22.65542 | -42.71586 | 62° | 68km/h | 10568m | -14.2m/s | -40.7°C | 17.5% | 265.6hPa | 0V | 08:10:00 | 00:00:00 | 00:00:00 | |
| PU1XMG-16 | 2026-08-30 13:13:23 | -22.65590 | -42.71684 | 62° | 68km/h | 10640m | -14.0m/s | -41.4°C | 18.4% | 262.8hPa | 0V | 08:10:00 | 00:00:00 | 00:00:00 | |
| PU1XMG-16 | 2026-08-30 13:13:06 | -22.65729 | -42.71961 | 60° | 66km/h | 10859m | -14.6m/s | -43.5°C | 23.0% | 254.3hPa | 0V | 08:10:00 | 00:00:00 | 00:00:00 | |
| PU1XMG-16 | 2026-08-30 13:13:00 | -22.65779 | -42.72058 | 62° | 71km/h | 10947m | -13.8m/s | -44.3°C | 24.8% | 251.1hPa | 0V | 08:11:00 | 00:00:00 | 00:00:00 | |
| PU1XMG-16 | 2026-08-30 13:12:55 | -22.65821 | -42.72143 | 63° | 69km/h | 11019m | -14.7m/s | -45.0°C | 26.4% | 248.5hPa | 0V | 08:11:00 | 00:00:00 | 00:00:00 | |
| PU1XMG-16 | 2026-08-30 13:12:49 | -22.65870 | -42.72242 | 62° | 71km/h | 11104m | -15.0m/s | -45.9°C | 28.3% | 245.3hPa | 0V | 08:11:00 | 00:00:00 | 00:00:00 | |
| PU1XMG-16 | 2026-08-30 13:12:43 | -22.65921 | -42.72346 | 64° | 73km/h | 11195m | -15.0m/s | -46.7°C | 30.3% | 242.0hPa | 0V | 08:11:00 | 00:00:00 | 00:00:00 | |
| PU1XMG-16 | 2026-08-30 13:12:38 | -22.65965 | -42.72431 | 62° | 71km/h | 11267m | -14.3m/s | -47.4°C | 31.8% | 239.4hPa | 0V | 08:11:00 | 00:00:00 | 00:00:00 | |
| PU1XMG-16 | 2026-08-30 13:12:33 | -22.66008 | -42.72517 | 63° | 71km/h | 11339m | -15.3m/s | -48.1°C | 33.9% | 236.7hPa | 0V | 08:11:00 | 00:00:00 | 00:00:00 | |
| PU1XMG-16 | 2026-08-30 13:12:28 | -22.66053 | -42.72606 | 63° | 73km/h | 11410m | -14.4m/s | -48.8°C | 36.1% | 234.1hPa | 0V | 08:11:00 | 00:00:00 | 00:00:00 | |
| PU1XMG-16 | 2026-08-30 13:12:22 | -22.66104 | -42.72708 | 60° | 71km/h | 11498m | -15.7m/s | -49.6°C | 39.8% | 231.1hPa | 0V | 08:11:00 | 00:00:00 | 00:00:00 | |
| PU1XMG-16 | 2026-08-30 13:12:17 | -22.66152 | -42.72795 | 60° | 73km/h | 11571m | -15.2m/s | -50.3°C | 43.8% | 228.6hPa | 0V | 08:11:00 | 00:00:00 | 00:00:00 | |
| PU1XMG-16 | 2026-08-30 13:12:12 | -22.66208 | -42.72884 | 56° | 80km/h | 11640m | -12.5m/s | -49.8°C | 43.8% | 226.0hPa | 0V | 08:11:00 | 00:00:00 | 00:00:00 | |
| PU1XMG-16 | 2026-08-30 13:12:06 | -22.66279 | -42.72991 | 54° | 78km/h | 11729m | -14.3m/s | -48.9°C | 31.1% | 223.1hPa | 0V | 08:12:00 | 00:00:00 | 00:00:00 | |
| PU1XMG-16 | 2026-08-30 13:12:01 | -22.66356 | -42.73097 | 53° | 84km/h | 11818m | -14.3m/s | -48.6°C | 20.4% | 220.1hPa | 0V | 08:12:00 | 00:00:00 | 00:00:00 | |
| PU1XMG-16 | 2026-08-30 13:11:55 | -22.66425 | -42.73190 | 51° | 91km/h | 11888m | -11.4m/s | -48.9°C | 12.0% | 217.7hPa | 0V | 08:12:00 | 00:00:00 | 00:00:00 | |
| PU1XMG-16 | 2026-08-30 13:11:44 | -22.66591 | -42.73401 | 51° | 93km/h | 12041m | -14.8m/s | -49.6°C | 12.7% | 212.8hPa | 0V | 08:12:00 | 00:00:00 | 00:00:00 | |
| PU1XMG-16 | 2026-08-30 13:11:39 | -22.66663 | -42.73493 | 50° | 88km/h | 12116m | -15.9m/s | -50.2°C | 13.2% | 210.4hPa | 0V | 08:12:00 | 00:00:00 | 00:00:00 | |
| PU1XMG-16 | 2026-08-30 13:11:33 | -22.66747 | -42.73605 | 52° | 88km/h | 12206m | -12.2m/s | -50.3°C | 8.0% | 207.4hPa | 0V | 08:12:00 | 00:00:00 | 00:00:00 | |
| PU1XMG-16 | 2026-08-30 13:11:28 | -22.66828 | -42.73714 | 53° | 84km/h | 12288m | -14.3m/s | -50.8°C | 7.0% | 204.8hPa | 0V | 08:12:00 | 00:00:00 | 00:00:00 | |
| PU1XMG-16 | 2026-08-30 13:11:23 | -22.66893 | -42.73800 | 51° | 80km/h | 12358m | -14.1m/s | -50.9°C | 6.7% | 202.6hPa | 0V | 08:12:00 | 00:00:00 | 00:00:00 | |
| PU1XMG-16 | 2026-08-30 13:11:17 | -22.66955 | -42.73884 | 54° | 77km/h | 12434m | -16.2m/s | -51.4°C | 6.8% | 200.4hPa | 0V | 00:00:00 | 00:00:00 | 00:00:00 | |
| PU1XMG-16 | 2026-08-30 13:11:11 | -22.67024 | -42.73978 | 53° | 73km/h | 12518m | -11.4m/s | -52.2°C | 7.2% | 197.6hPa | 0V | 00:00:00 | 00:00:00 | 00:00:00 | |
| PU1XMG-16 | 2026-08-30 13:11:05 | -22.67091 | -42.74076 | 56° | 73km/h | 12602m | -11.5m/s | -52.9°C | 7.7% | 195.1hPa | 0V | 00:00:00 | 00:00:00 | 00:00:00 | |
| PU1XMG-16 | 2026-08-30 13:11:00 | -22.67146 | -42.74161 | 57° | 78km/h | 12671m | -14.4m/s | -53.5°C | 7.4% | 193.1hPa | 0V | 00:00:00 | 00:00:00 | 00:00:00 | |
| PU1XMG-16 | 2026-08-30 13:10:54 | -22.67209 | -42.74270 | 60° | 80km/h | 12760m | -15.1m/s | -54.2°C | 7.8% | 190.4hPa | 0V | 00:00:00 | 00:00:00 | 00:00:00 | |
| PU1XMG-16 | 2026-08-30 13:10:48 | -22.67270 | -42.74385 | 63° | 82km/h | 12836m | -14.4m/s | -54.5°C | 7.8% | 188.2hPa | 0V | 00:00:00 | 00:00:00 | 00:00:00 | |
| PU1XMG-16 | 2026-08-30 13:10:40 | -22.67345 | -42.74541 | 64° | 84km/h | 12949m | -15.3m/s | -55.1°C | 7.6% | 184.9hPa | 0V | 00:00:00 | 00:00:00 | 00:00:00 | |
| PU1XMG-16 | 2026-08-30 13:10:34 | -22.67400 | -42.74662 | 64° | 80km/h | 13032m | -14.2m/s | -55.4°C | 7.7% | 182.5hPa | 0V | 00:00:00 | 00:00:00 | 00:00:00 | |
| PU1XMG-16 | 2026-08-30 13:09:51 | -22.67817 | -42.75558 | 64° | 86km/h | 13582m | -11.6m/s | -59.2°C | 9.9% | 167.3hPa | 0V | 08:13:00 | 00:00:00 | 00:00:00 | |
| PU1XMG-16 | 2026-08-30 13:09:42 | -22.67906 | -42.75747 | 63° | 88km/h | 13661m | -8.3m/s | -59.7°C | 11.0% | 165.0hPa | 0V | 08:13:00 | 00:00:00 | 00:00:00 | |
| PU1XMG-16 | 2026-08-30 13:09:37 | -22.67967 | -42.75873 | 64° | 88km/h | 13727m | -12.6m/s | -60.3°C | 10.6% | 163.4hPa | 0V | 08:14:00 | 00:00:00 | 00:00:00 | |
| PU1XMG-16 | 2026-08-30 13:09:31 | -22.68027 | -42.75999 | 64° | 86km/h | 13790m | -9.3m/s | -60.8°C | 11.2% | 161.7hPa | 0V | 08:14:00 | 00:00:00 | 00:00:00 | |
| PU1XMG-16 | 2026-08-30 13:09:25 | -22.68089 | -42.76124 | 63° | 88km/h | 13847m | -10.2m/s | -61.2°C | 11.2% | 160.2hPa | 0V | 08:14:00 | 00:00:00 | 00:00:00 | |
| PU1XMG-16 | 2026-08-30 13:09:19 | -22.68140 | -42.76230 | 63° | 88km/h | 13893m | -8.9m/s | -61.5°C | 11.3% | 159.1hPa | 0V | 08:14:00 | 00:00:00 | 00:00:00 | |
| PU1XMG-16 | 2026-08-30 13:09:14 | -22.68205 | -42.76358 | 61° | 91km/h | 13945m | -8.3m/s | -61.9°C | 11.5% | 157.7hPa | 0V | 08:14:00 | 00:00:00 | 00:00:00 | |
| PU1XMG-16 | 2026-08-30 13:09:08 | -22.68265 | -42.76467 | 60° | 93km/h | 13987m | -8.6m/s | -62.2°C | 11.4% | 156.7hPa | 0V | 08:14:00 | 00:00:00 | 00:00:00 | |
| PU1XMG-16 | 2026-08-30 13:09:03 | -22.68325 | -42.76575 | 60° | 91km/h | 14031m | -8.5m/s | -62.5°C | 11.8% | 155.5hPa | 0V | 08:14:00 | 00:00:00 | 00:00:00 | |
| PU1XMG-16 | 2026-08-30 13:08:59 | -22.68382 | -42.76680 | 60° | 86km/h | 14068m | -7.6m/s | -62.7°C | 12.1% | 154.5hPa | 0V | 08:14:00 | 00:00:00 | 00:00:00 | |
| PU1XMG-16 | 2026-08-30 13:08:53 | -22.68450 | -42.76801 | 59° | 88km/h | 14120m | -10.4m/s | -63.0°C | 11.9% | 153.3hPa | 0V | 08:14:00 | 00:00:00 | 00:00:00 | |
| PU1XMG-16 | 2026-08-30 13:08:47 | -22.68512 | -42.76903 | 57° | 89km/h | 14159m | -8.3m/s | -63.1°C | 11.8% | 152.3hPa | 0V | 08:14:00 | 00:00:00 | 00:00:00 | |
| PU1XMG-16 | 2026-08-30 13:08:42 | -22.68575 | -42.77002 | 56° | 86km/h | 14203m | -9.0m/s | -63.2°C | 11.6% | 151.2hPa | 0V | 00:00:00 | 00:00:00 | 00:00:00 | |
| PU1XMG-16 | 2026-08-30 13:08:36 | -22.68649 | -42.77117 | 57° | 82km/h | 14254m | -8.2m/s | -63.4°C | 11.6% | 150.0hPa | 0V | 00:00:00 | 00:00:00 | 00:00:00 | |
| PU1XMG-16 | 2026-08-30 13:08:27 | -22.68751 | -42.77284 | 60° | 78km/h | 14327m | -7.4m/s | -63.8°C | 11.7% | 148.2hPa | 0V | 00:00:00 | 00:00:00 | 00:00:00 | |
| PU1XMG-16 | 2026-08-30 13:08:20 | -22.68818 | -42.77409 | 63° | 71km/h | 14380m | -7.5m/s | -64.0°C | 11.5% | 146.9hPa | 0V | 00:00:00 | 00:00:00 | 00:00:00 | |
| PU1XMG-16 | 2026-08-30 13:08:03 | -22.68951 | -42.77682 | 64° | 60km/h | 14510m | -7.6m/s | -64.7°C | 11.8% | 143.8hPa | 0V | 00:00:00 | 00:00:00 | 00:00:00 | |
| PU1XMG-16 | 2026-08-30 13:07:48 | -22.69041 | -42.77906 | 74° | 55km/h | 14635m | -7.4m/s | -65.0°C | 11.5% | 140.9hPa | 0V | 00:00:00 | 00:00:00 | 00:00:00 | |
| PU1XMG-16 | 2026-08-30 13:06:13 | -22.69442 | -42.79180 | 81° | 37km/h | 15377m | -9.0m/s | -67.3°C | 12.7% | 124.7hPa | 0V | 08:17:00 | 00:00:00 | 00:00:00 | |
| PU1XMG-16 | 2026-08-30 13:06:08 | -22.69449 | -42.79229 | 82° | 35km/h | 15421m | -8.2m/s | -67.6°C | 12.8% | 123.8hPa | 0V | 08:18:00 | 00:00:00 | 00:00:00 | |
| PU1XMG-16 | 2026-08-30 13:06:03 | -22.69458 | -42.79282 | 80° | 33km/h | 15474m | -8.9m/s | -68.1°C | 13.0% | 122.7hPa | 0V | 08:18:00 | 00:00:00 | 00:00:00 | |
| PU1XMG-16 | 2026-08-30 13:05:55 | -22.69469 | -42.79342 | 83° | 33km/h | 15536m | -8.9m/s | -68.6°C | 13.2% | 121.5hPa | 0V | 08:18:00 | 00:00:00 | 00:00:00 | |
| PU1XMG-16 | 2026-08-30 13:05:50 | -22.69472 | -42.79384 | 89° | 31km/h | 15581m | -9.5m/s | -69.0°C | 13.3% | 120.6hPa | 0V | 08:18:00 | 00:00:00 | 00:00:00 | |
| PU1XMG-16 | 2026-08-30 13:05:45 | -22.69471 | -42.79435 | 93° | 31km/h | 15635m | -9.6m/s | -69.5°C | 13.2% | 119.5hPa | 0V | 08:18:00 | 00:00:00 | 00:00:00 | |
| PU1XMG-16 | 2026-08-30 13:05:39 | -22.69469 | -42.79477 | 97° | 31km/h | 15683m | -10.1m/s | -69.9°C | 13.0% | 118.5hPa | 0V | 08:18:00 | 00:00:00 | 00:00:00 | |
| PU1XMG-16 | 2026-08-30 13:05:33 | -22.69466 | -42.79525 | 92° | 29km/h | 15748m | -10.2m/s | -70.6°C | 13.8% | 117.2hPa | 0V | 08:18:00 | 00:00:00 | 00:00:00 | |
| PU1XMG-16 | 2026-08-30 13:05:27 | -22.69457 | -42.79576 | 109° | 37km/h | 15804m | -9.2m/s | -71.1°C | 13.6% | 116.1hPa | 0V | 08:18:00 | 00:00:00 | 00:00:00 | |
| PU1XMG-16 | 2026-08-30 13:05:21 | -22.69440 | -42.79632 | 106° | 35km/h | 15861m | -9.9m/s | -71.5°C | 13.9% | 115.0hPa | 0V | 08:19:00 | 00:00:00 | 00:00:00 | |
| PU1XMG-16 | 2026-08-30 13:05:16 | -22.69429 | -42.79681 | 102° | 40km/h | 15910m | -9.7m/s | -71.0°C | 13.1% | 114.1hPa | 0V | 08:19:00 | 00:00:00 | 00:00:00 | |
| PU1XMG-16 | 2026-08-30 13:05:10 | -22.69417 | -42.79748 | 104° | 44km/h | 15967m | -9.9m/s | -71.0°C | 11.8% | 112.9hPa | 0V | 08:19:00 | 00:00:00 | 00:00:00 | |
| PU1XMG-16 | 2026-08-30 13:05:04 | -22.69399 | -42.79819 | 110° | 46km/h | 16026m | -9.8m/s | -71.2°C | 11.3% | 111.9hPa | 0V | 08:19:00 | 00:00:00 | 00:00:00 | |
| PU1XMG-16 | 2026-08-30 13:04:58 | -22.69374 | -42.79894 | 113° | 49km/h | 16084m | -9.5m/s | -71.4°C | 11.1% | 110.7hPa | 0V | 08:19:00 | 00:00:00 | 00:00:00 | |
| PU1XMG-16 | 2026-08-30 13:04:52 | -22.69343 | -42.79969 | 118° | 49km/h | 16142m | -10.0m/s | -71.6°C | 10.7% | 109.7hPa | 0V | 08:19:00 | 00:00:00 | 00:00:00 | |
| PU1XMG-16 | 2026-08-30 13:04:47 | -22.69313 | -42.80027 | 122° | 49km/h | 16191m | -10.0m/s | -71.9°C | 10.6% | 108.8hPa | 0V | 08:19:00 | 00:00:00 | 00:00:00 | |
| PU1XMG-16 | 2026-08-30 13:04:41 | -22.69276 | -42.80098 | 116° | 49km/h | 16249m | -9.7m/s | -72.4°C | 10.5% | 107.7hPa | 0V | 08:19:00 | 00:00:00 | 00:00:00 | |
| PU1XMG-16 | 2026-08-30 13:04:35 | -22.69245 | -42.80165 | 117° | 44km/h | 16309m | -10.1m/s | -72.8°C | 10.4% | 106.6hPa | 0V | 08:19:00 | 00:00:00 | 00:00:00 | |
| PU1XMG-16 | 2026-08-30 13:04:30 | -22.69217 | -42.80222 | 121° | 51km/h | 16358m | -9.7m/s | -73.2°C | 10.3% | 105.7hPa | 0V | 08:19:00 | 00:00:00 | 00:00:00 | |
| PU1XMG-16 | 2026-08-30 13:04:23 | -22.69176 | -42.80308 | 115° | 46km/h | 16426m | -9.4m/s | -73.5°C | 10.5% | 104.5hPa | 0V | 08:19:00 | 00:00:00 | 00:00:00 | |
| PU1XMG-16 | 2026-08-30 13:04:18 | -22.69154 | -42.80361 | 115° | 38km/h | 16475m | -9.8m/s | -73.7°C | 10.2% | 103.6hPa | 0V | 08:19:00 | 00:00:00 | 00:00:00 | |
| PU1XMG-16 | 2026-08-30 13:04:12 | -22.69124 | -42.80413 | 127° | 38km/h | 16533m | -9.3m/s | -73.7°C | 9.7% | 102.6hPa | 0V | 08:19:00 | 00:00:00 | 00:00:00 | |
| PU1XMG-16 | 2026-08-30 13:04:06 | -22.69092 | -42.80460 | 126° | 33km/h | 16591m | -9.5m/s | -73.4°C | 9.2% | 101.6hPa | 0V | 08:19:00 | 00:00:00 | 00:00:00 | |
| PU1XMG-16 | 2026-08-30 13:04:01 | -22.69069 | -42.80498 | 127° | 33km/h | 16638m | -9.7m/s | -73.2°C | 8.5% | 100.8hPa | 0V | 08:19:00 | 00:00:00 | 00:00:00 | |
| PU1XMG-16 | 2026-08-30 13:03:56 | -22.69044 | -42.80531 | 131° | 31km/h | 16687m | -9.7m/s | -73.4°C | 8.2% | 99.9hPa | 0V | 08:19:00 | 00:00:00 | 00:00:00 | |
| PU1XMG-16 | 2026-08-30 13:03:50 | -22.69021 | -42.80571 | 115° | 26km/h | 16745m | -9.6m/s | -73.8°C | 8.2% | 99.0hPa | 0V | 08:19:00 | 00:00:00 | 00:00:00 | |
| PU1XMG-16 | 2026-08-30 13:03:44 | -22.69003 | -42.80608 | 132° | 26km/h | 16802m | -8.9m/s | -74.1°C | 8.6% | 98.0hPa | 0V | 08:19:00 | 00:00:00 | 00:00:00 | |
| PU1XMG-16 | 2026-08-30 13:03:39 | -22.68979 | -42.80633 | 141° | 29km/h | 16850m | -9.4m/s | -74.4°C | 8.1% | 97.2hPa | 0V | 08:20:00 | 00:00:00 | 00:00:00 | |
| PU1XMG-16 | 2026-08-30 13:03:34 | -22.68946 | -42.80658 | 152° | 35km/h | 16898m | -9.6m/s | -73.4°C | 7.2% | 96.4hPa | 0V | 08:20:00 | 00:00:00 | 00:00:00 | |
| PU1XMG-16 | 2026-08-30 13:03:29 | -22.68901 | -42.80681 | 158° | 42km/h | 16947m | -9.5m/s | -72.7°C | 6.3% | 95.6hPa | 0V | 08:20:00 | 00:00:00 | 00:00:00 | |
| PU1XMG-16 | 2026-08-30 13:03:23 | -22.68838 | -42.80704 | 165° | 44km/h | 17004m | -9.7m/s | -72.9°C | 6.3% | 94.7hPa | 0V | 08:20:00 | 00:00:00 | 00:00:00 | |
| PU1XMG-16 | 2026-08-30 13:03:17 | -22.68775 | -42.80732 | 154° | 47km/h | 17060m | -9.5m/s | -73.1°C | 6.2% | 93.8hPa | 0V | 08:20:00 | 00:00:00 | 00:00:00 | |
| PU1XMG-16 | 2026-08-30 13:03:11 | -22.68712 | -42.80773 | 145° | 51km/h | 17118m | -9.8m/s | -73.5°C | 6.2% | 92.8hPa | 0V | 08:20:00 | 00:00:00 | 00:00:00 | |
| PU1XMG-16 | 2026-08-30 13:03:06 | -22.68661 | -42.80820 | 138° | 57km/h | 17167m | -9.2m/s | -73.1°C | 5.8% | 92.1hPa | 0V | 08:20:00 | 00:00:00 | 00:00:00 | |
| PU1XMG-16 | 2026-08-30 13:03:01 | -22.68609 | -42.80874 | 136° | 57km/h | 17215m | -9.7m/s | -73.1°C | 5.7% | 91.3hPa | 0V | 08:20:00 | 00:00:00 | 00:00:00 | |
| PU1XMG-16 | 2026-08-30 13:02:55 | -22.68555 | -42.80947 | 123° | 58km/h | 17273m | -10.1m/s | -73.2°C | 5.9% | 90.4hPa | 0V | 08:20:00 | 00:00:00 | 00:00:00 | |
| PU1XMG-16 | 2026-08-30 13:02:49 | -22.68510 | -42.81034 | 116° | 62km/h | 17332m | -10.0m/s | -73.4°C | 5.9% | 89.5hPa | 0V | 08:20:00 | 00:00:00 | 00:00:00 | |
| PU1XMG-16 | 2026-08-30 13:02:44 | -22.68470 | -42.81129 | 115° | 68km/h | 17391m | -10.0m/s | -72.0°C | 5.3% | 88.6hPa | 0V | 08:21:00 | 00:00:00 | 00:00:00 | |
| PU1XMG-16 | 2026-08-30 13:02:38 | -22.68434 | -42.81219 | 114° | 71km/h | 17441m | -10.2m/s | -71.2°C | 4.8% | 87.8hPa | 0V | 08:21:00 | 00:00:00 | 00:00:00 | |
| PU1XMG-16 | 2026-08-30 13:02:33 | -22.68397 | -42.81323 | 109° | 68km/h | 17502m | -10.2m/s | -70.6°C | 4.8% | 86.9hPa | 0V | 08:21:00 | 00:00:00 | 00:00:00 | |
| PU1XMG-16 | 2026-08-30 13:02:25 | -22.68368 | -42.81469 | 95° | 69km/h | 17585m | -10.5m/s | -70.0°C | 4.4% | 85.7hPa | 0V | 08:21:00 | 00:00:00 | 00:00:00 | |
| PU1XMG-16 | 2026-08-30 13:02:19 | -22.68371 | -42.81559 | 83° | 62km/h | 17637m | -10.3m/s | -69.1°C | 4.1% | 85.0hPa | 0V | 08:21:00 | 00:00:00 | 00:00:00 | |
| PU1XMG-16 | 2026-08-30 13:02:14 | -22.68384 | -42.81653 | 85° | 57km/h | 17699m | -9.9m/s | -68.3°C | 3.8% | 84.1hPa | 0V | 08:21:00 | 00:00:00 | 00:00:00 | |
| PU1XMG-16 | 2026-08-30 13:02:08 | -22.68389 | -42.81727 | 84° | 49km/h | 17752m | -10.2m/s | -67.0°C | 3.4% | 83.4hPa | 0V | 08:21:00 | 00:00:00 | 00:00:00 | |
| PU1XMG-16 | 2026-08-30 13:02:02 | -22.68399 | -42.81799 | 88° | 37km/h | 17815m | -10.4m/s | -66.1°C | 3.2% | 82.5hPa | 0V | 08:21:00 | 00:00:00 | 00:00:00 | |
| PU1XMG-16 | 2026-08-30 13:01:56 | -22.68390 | -42.81857 | 107° | 40km/h | 17871m | -9.3m/s | -66.2°C | 3.3% | 81.7hPa | 0V | 08:22:00 | 00:00:00 | 00:00:00 | |
| PU1XMG-16 | 2026-08-30 13:01:51 | -22.68377 | -42.81914 | 100° | 46km/h | 17918m | -10.0m/s | -65.6°C | 3.1% | 81.1hPa | 0V | 08:22:00 | 00:00:00 | 00:00:00 | |
| PU1XMG-16 | 2026-08-30 13:01:40 | -22.68351 | -42.82053 | 101° | 49km/h | 18032m | -10.9m/s | -64.3°C | 2.6% | 79.6hPa | 0V | 08:22:00 | 00:00:00 | 00:00:00 | |
| PU1XMG-16 | 2026-08-30 13:01:12 | -22.68371 | -42.82388 | 58° | 35km/h | 18409m | -16.1m/s | -64.2°C | 2.6% | 74.8hPa | 0V | 08:22:00 | 00:00:00 | 00:00:00 | |
| PU1XMG-16 | 2026-08-30 13:01:06 | -22.68398 | -42.82428 | 52° | 37km/h | 18481m | -15.4m/s | -64.3°C | 2.7% | 74.0hPa | 0V | 08:23:00 | 00:00:00 | 00:00:00 | |
| PU1XMG-16 | 2026-08-30 13:01:01 | -22.68428 | -42.82473 | 63° | 31km/h | 18582m | -17.2m/s | -63.5°C | 2.4% | 72.8hPa | 0V | 08:23:00 | 00:00:00 | 00:00:00 | |
| PU1XMG-16 | 2026-08-30 13:00:55 | -22.68441 | -42.82508 | 79° | 24km/h | 18665m | -18.9m/s | -63.2°C | 2.2% | 71.8hPa | 0V | 08:23:00 | 00:00:00 | 00:00:00 | |
| PU1XMG-16 | 2026-08-30 13:00:50 | -22.68442 | -42.82534 | 96° | 16km/h | 18749m | -14.8m/s | -63.1°C | 2.4% | 70.8hPa | 0V | 08:23:00 | 00:00:00 | 00:00:00 | |
| PU1XMG-16 | 2026-08-30 13:00:45 | -22.68437 | -42.82558 | 109° | 26km/h | 18817m | -17.4m/s | -63.5°C | 2.4% | 70.0hPa | 0V | 08:23:00 | 00:00:00 | 00:00:00 | |
| PU1XMG-16 | 2026-08-30 13:00:40 | -22.68427 | -42.82599 | 105° | 37km/h | 18890m | -10.6m/s | -63.8°C | 2.7% | 69.2hPa | 0V | 08:23:00 | 00:00:00 | 00:00:00 | |
| PU1XMG-16 | 2026-08-30 13:00:34 | -22.68416 | -42.82656 | 95° | 31km/h | 18968m | -14.9m/s | -63.8°C | 2.6% | 68.3hPa | 0V | 08:23:00 | 00:00:00 | 00:00:00 | |
| PU1XMG-16 | 2026-08-30 13:00:28 | -22.68417 | -42.82700 | 80° | 22km/h | 19043m | -13.0m/s | -62.7°C | 2.5% | 67.5hPa | 0V | 08:23:00 | 00:00:00 | 00:00:00 | |
| PU1XMG-16 | 2026-08-30 13:00:23 | -22.68426 | -42.82731 | 68° | 26km/h | 19121m | -20.0m/s | -61.5°C | 2.0% | 66.7hPa | 0V | 08:23:00 | 00:00:00 | 00:00:00 | |
| PU1XMG-16 | 2026-08-30 13:00:18 | -22.68448 | -42.82768 | 52° | 24km/h | 19242m | -20.1m/s | -62.0°C | 2.1% | 65.5hPa | 0V | 08:23:00 | 00:00:00 | 00:00:00 | |
| PU1XMG-16 | 2026-08-30 13:00:11 | -22.68472 | -42.82797 | 54° | 22km/h | 19359m | -20.2m/s | -62.5°C | 2.2% | 64.2hPa | 0V | 00:00:00 | 00:00:00 | 00:00:00 | |
| PU1XMG-16 | 2026-08-30 13:00:06 | -22.68492 | -42.82827 | 51° | 31km/h | 19457m | -20.1m/s | -62.7°C | 2.2% | 63.2hPa | 0V | 00:00:00 | 00:00:00 | 00:00:00 | |
| PU1XMG-16 | 2026-08-30 13:00:01 | -22.68530 | -42.82864 | 33° | 33km/h | 19572m | -19.8m/s | -63.5°C | 2.3% | 62.0hPa | 0V | 00:00:00 | 00:00:00 | 00:00:00 | |
| PU1XMG-16 | 2026-08-30 12:59:56 | -22.68562 | -42.82883 | 23° | 26km/h | 19671m | -20.0m/s | -62.6°C | 2.1% | 61.0hPa | 0V | 00:00:00 | 00:00:00 | 00:00:00 | |
| PU1XMG-16 | 2026-08-30 12:59:46 | -22.68622 | -42.82887 | 349° | 27km/h | 19870m | -20.3m/s | -62.8°C | 2.0% | 59.1hPa | 0V | 00:00:00 | 00:00:00 | 00:00:00 | |
| PU1XMG-16 | 2026-08-30 12:59:22 | -22.68696 | -42.82799 | 348° | 7km/h | 20323m | -16.8m/s | -64.5°C | 2.4% | 54.8hPa | 0V | 00:00:00 | 00:00:00 | 00:00:00 | |
| PU1XMG-16 | 2026-08-30 12:59:14 | -22.68720 | -42.82791 | 313° | 9km/h | 20480m | -16.6m/s | -63.4°C | 2.2% | 53.5hPa | 0V | 00:00:00 | 00:00:00 | 00:00:00 | |
| PU1XMG-16 | 2026-08-30 12:58:43 | -22.68666 | -42.82729 | 180° | 24km/h | 21098m | -18.8m/s | -62.4°C | 2.0% | 48.4hPa | 0V | 00:00:00 | 00:00:00 | 00:00:00 | |
| PU1XMG-16 | 2026-08-30 12:58:38 | -22.68642 | -42.82737 | 145° | 9km/h | 21211m | -18.2m/s | -62.0°C | 2.1% | 47.4hPa | 0V | 00:00:00 | 00:00:00 | 00:00:00 | |
| PU1XMG-16 | 2026-08-30 12:58:21 | -22.68611 | -42.82762 | 157° | 9km/h | 21509m | -20.7m/s | -61.0°C | 1.8% | 45.2hPa | 0V | 08:25:00 | 00:00:00 | 00:00:00 | |
| PU1XMG-16 | 2026-08-30 12:58:14 | -22.68601 | -42.82773 | 113° | 13km/h | 21616m | -17.3m/s | -61.2°C | 1.9% | 44.4hPa | 0V | 08:25:00 | 00:00:00 | 00:00:00 | |
| PU1XMG-16 | 2026-08-30 12:58:08 | -22.68588 | -42.82789 | 154° | 5km/h | 21748m | -16.9m/s | -61.4°C | 1.9% | 43.4hPa | 0V | 08:25:00 | 00:00:00 | 00:00:00 | |
| PU1XMG-16 | 2026-08-30 12:57:57 | -22.68582 | -42.82795 | 108° | 4km/h | 21980m | -21.5m/s | -61.0°C | 2.0% | 41.9hPa | 0V | 08:25:00 | 00:00:00 | 00:00:00 | |
| PU1XMG-16 | 2026-08-30 12:57:50 | -22.68575 | -42.82801 | 140° | 7km/h | 22101m | -22.3m/s | -60.8°C | 1.8% | 41.1hPa | 0V | 08:25:00 | 00:00:00 | 00:00:00 | |
| PU1XMG-16 | 2026-08-30 12:57:45 | -22.68566 | -42.82806 | 142° | 13km/h | 22173m | -10.5m/s | -60.4°C | 1.8% | 40.5hPa | 0V | 08:25:00 | 00:00:00 | 00:00:00 | |
| PU1XMG-16 | 2026-08-30 12:57:40 | -22.68552 | -42.82817 | 149° | 15km/h | 22223m | -10.7m/s | -60.1°C | 1.8% | 40.2hPa | 0V | 00:00:00 | 00:00:00 | 00:00:00 | |
| PU1XMG-16 | 2026-08-30 12:57:36 | -22.68534 | -42.82831 | 141° | 16km/h | 22277m | -13.3m/s | -59.6°C | 1.7% | 39.8hPa | 0V | 00:00:00 | 00:00:00 | 00:00:00 | |
| PU1XMG-16 | 2026-08-30 12:57:29 | -22.68517 | -42.82852 | 125° | 15km/h | 22398m | -21.2m/s | -59.0°C | 1.6% | 39.2hPa | 0V | 00:00:00 | 00:00:00 | 00:00:00 | |
| PU1XMG-16 | 2026-08-30 12:57:23 | -22.68509 | -42.82867 | 130° | 7km/h | 22530m | -23.5m/s | -59.4°C | 1.6% | 38.3hPa | 0V | 00:00:00 | 00:00:00 | 00:00:00 | |
| PU1XMG-16 | 2026-08-30 12:57:16 | -22.68498 | -42.82875 | 109° | 7km/h | 22707m | -25.5m/s | -59.9°C | 1.6% | 37.3hPa | 0V | 00:00:00 | 00:00:00 | 00:00:00 | |
| PU1XMG-16 | 2026-08-30 12:57:11 | -22.68498 | -42.82880 | 61° | 5km/h | 22814m | -20.3m/s | -59.9°C | 1.7% | 36.6hPa | 0V | 00:00:00 | 00:00:00 | 00:00:00 | |
| PU1XMG-16 | 2026-08-30 12:57:00 | -22.68506 | -42.82869 | 0° | 0km/h | 23056m | -21.9m/s | -58.8°C | 1.5% | 35.2hPa | 0V | 00:00:00 | 00:00:00 | 00:00:00 | |
| PU1XMG-16 | 2026-08-30 12:56:54 | -22.68524 | -42.82876 | 348° | 15km/h | 23209m | -20.3m/s | -59.3°C | 1.7% | 34.3hPa | 0V | 00:00:00 | 00:00:00 | 00:00:00 | |
| PU1XMG-16 | 2026-08-30 12:56:47 | -22.68526 | -42.82862 | 223° | 16km/h | 23336m | -24.3m/s | -59.4°C | 1.7% | 33.7hPa | 0V | 00:00:00 | 00:00:00 | 00:00:00 | |
| PU1XMG-16 | 2026-08-30 12:56:39 | -22.68515 | -42.82858 | 0° | 0km/h | 23536m | -22.5m/s | -58.4°C | 1.6% | 32.6hPa | 0V | 00:00:00 | 00:00:00 | 00:00:00 | |
| PU1XMG-16 | 2026-08-30 12:56:23 | -22.68464 | -42.82856 | 250° | 7km/h | 23852m | -17.1m/s | -57.0°C | 1.5% | 31.0hPa | 0V | 00:00:00 | 00:00:00 | 00:00:00 | |
| PU1XMG-16 | 2026-08-30 12:56:13 | -22.68443 | -42.82799 | 237° | 29km/h | 24041m | -22.2m/s | -57.2°C | 1.5% | 30.0hPa | 0V | 00:00:00 | 00:00:00 | 00:00:00 | |
| PU1XMG-16 | 2026-08-30 12:56:07 | -22.68420 | -42.82772 | 226° | 13km/h | 24183m | -22.4m/s | -57.0°C | 1.5% | 29.4hPa | 0V | 00:00:00 | 00:00:00 | 00:00:00 | |
| PU1XMG-16 | 2026-08-30 12:55:54 | -22.68373 | -42.82760 | 181° | 18km/h | 24452m | -24.7m/s | -56.0°C | 1.4% | 28.2hPa | 0V | 00:00:00 | 00:00:00 | 00:00:00 | |
| PU1XMG-16 | 2026-08-30 12:55:48 | -22.68351 | -42.82759 | 191° | 22km/h | 24589m | -23.4m/s | -56.0°C | 1.4% | 27.5hPa | 0V | 00:00:00 | 00:00:00 | 00:00:00 | |
| PU1XMG-16 | 2026-08-30 12:55:42 | -22.68304 | -42.82763 | 166° | 24km/h | 24743m | -20.3m/s | -55.4°C | 1.4% | 26.9hPa | 0V | 00:00:00 | 00:00:00 | 00:00:00 | |
| PU1XMG-16 | 2026-08-30 12:55:36 | -22.68278 | -42.82779 | 139° | 20km/h | 24854m | -20.6m/s | -54.5°C | 1.4% | 26.4hPa | 0V | 00:00:00 | 00:00:00 | 00:00:00 | |
| PU1XMG-16 | 2026-08-30 12:55:30 | -22.68248 | -42.82810 | 136° | 29km/h | 24976m | -22.8m/s | -53.6°C | 1.4% | 25.9hPa | 0V | 00:00:00 | 00:00:00 | 00:00:00 | |
| PU1XMG-16 | 2026-08-30 12:55:23 | -22.68218 | -42.82838 | 130° | 20km/h | 25137m | -23.5m/s | -53.2°C | 1.3% | 25.3hPa | 0V | 00:00:00 | 00:00:00 | 00:00:00 | |
| PU1XMG-16 | 2026-08-30 12:54:37 | -22.68010 | -42.82923 | 159° | 18km/h | 26177m | -20.3m/s | -52.2°C | 1.1% | 21.5hPa | 0V | 00:00:00 | 00:00:00 | 00:00:00 | |
| PU1XMG-16 | 2026-08-30 12:54:21 | -22.67929 | -42.82914 | 139° | 22km/h | 26520m | -20.4m/s | -52.4°C | 1.2% | 20.3hPa | 0V | 00:00:00 | 00:00:00 | 00:00:00 | |
| PU1XMG-16 | 2026-08-30 12:54:15 | -22.67903 | -42.82942 | 135° | 22km/h | 26636m | -19.6m/s | -52.0°C | 1.2% | 20.0hPa | 0V | 00:00:00 | 00:00:00 | 00:00:00 | |
| PU1XMG-16 | 2026-08-30 12:54:09 | -22.67884 | -42.82973 | 110° | 24km/h | 26755m | -19.3m/s | -51.8°C | 1.2% | 19.6hPa | 0V | 00:00:00 | 00:00:00 | 00:00:00 | |
| PU1XMG-16 | 2026-08-30 12:53:57 | -22.67867 | -42.83018 | 130° | 20km/h | 27002m | -32.5m/s | -50.8°C | 1.2% | 18.9hPa | 0V | 00:00:00 | 00:00:00 | 00:00:00 | |
| PU1XMG-16 | 2026-08-30 12:53:53 | -22.67854 | -42.83041 | 112° | 16km/h | 27182m | -36.2m/s | -50.2°C | 1.1% | 18.4hPa | 0V | 00:00:00 | 00:00:00 | 00:00:00 | |
| PU1XMG-16 | 2026-08-30 12:53:42 | -22.67818 | -42.83079 | 171° | 22km/h | 27482m | -24.0m/s | -49.4°C | 1.1% | 17.5hPa | 0V | 00:00:00 | 00:00:00 | 00:00:00 | |
| PU1XMG-16 | 2026-08-30 12:53:34 | -22.67793 | -42.83089 | 86° | 18km/h | 27642m | -24.8m/s | -48.6°C | 1.1% | 17.0hPa | 0V | 00:00:00 | 00:00:00 | 00:00:00 | |
| PU1XMG-16 | 2026-08-30 12:53:29 | -22.67799 | -42.83123 | 113° | 20km/h | 27793m | -26.5m/s | -47.6°C | 0.9% | 16.7hPa | 0V | 00:00:00 | 00:00:00 | 00:00:00 | |
| PU1XMG-16 | 2026-08-30 12:53:13 | -22.67809 | -42.83199 | 122° | 27km/h | 28127m | -19.4m/s | -46.6°C | 0.9% | 15.8hPa | 0V | 00:00:00 | 00:00:00 | 00:00:00 | |
| PU1XMG-16 | 2026-08-30 12:53:06 | -22.67791 | -42.83258 | 84° | 26km/h | 28344m | -29.6m/s | -45.0°C | 0.8% | 15.3hPa | 0V | 00:00:00 | 00:00:00 | 00:00:00 | |
| PU1XMG-16 | 2026-08-30 12:52:41 | -22.67773 | -42.83399 | 114° | 26km/h | 28258m | 6.2m/s | -46.2°C | 0.8% | 15.4hPa | 0V | 00:00:00 | 00:00:00 | 00:00:00 | |
| PU1XMG-16 | 2026-08-30 12:52:36 | -22.67763 | -42.83430 | 93° | 18km/h | 28225m | 5.0m/s | -46.6°C | 0.9% | 15.5hPa | 0V | 00:00:00 | 00:00:00 | 00:00:00 | |
| PU1XMG-16 | 2026-08-30 12:52:30 | -22.67762 | -42.83457 | 87° | 18km/h | 28187m | 5.4m/s | -46.7°C | 0.9% | 15.6hPa | 0V | 00:00:00 | 00:00:00 | 00:00:00 | |
| PU1XMG-16 | 2026-08-30 12:52:22 | -22.67764 | -42.83501 | 74° | 22km/h | 28145m | 5.3m/s | -46.7°C | 0.9% | 15.7hPa | 0V | 00:00:00 | 00:00:00 | 00:00:00 | |
| PU1XMG-16 | 2026-08-30 12:52:16 | -22.67762 | -42.83520 | 109° | 11km/h | 28101m | 7.4m/s | -46.8°C | 0.8% | 15.8hPa | 0V | 00:00:00 | 00:00:00 | 00:00:00 | |
| PU1XMG-16 | 2026-08-30 12:52:10 | -22.67761 | -42.83553 | 76° | 29km/h | 28070m | 4.6m/s | -47.2°C | 0.9% | 15.9hPa | 0V | 00:00:00 | 00:00:00 | 00:00:00 | |
| PU1XMG-16 | 2026-08-30 12:52:04 | -22.67756 | -42.83578 | 178° | 7km/h | 28026m | 5.4m/s | -47.6°C | 0.9% | 16.0hPa | 0V | 00:00:00 | 00:00:00 | 00:00:00 | |
| PU1XMG-16 | 2026-08-30 12:51:56 | -22.67746 | -42.83617 | 76° | 26km/h | 27976m | 5.5m/s | -47.6°C | 0.9% | 16.1hPa | 0V | 00:00:00 | 00:00:00 | 00:00:00 | |
| PU1XMG-16 | 2026-08-30 12:51:33 | -22.67770 | -42.83742 | 94° | 18km/h | 27831m | 6.8m/s | -48.2°C | 0.9% | 16.5hPa | 0V | 00:00:00 | 00:00:00 | 00:00:00 | |
| PU1XMG-16 | 2026-08-30 12:51:28 | -22.67768 | -42.83764 | 89° | 22km/h | 27798m | 5.6m/s | -48.7°C | 1.0% | 16.6hPa | 0V | 00:00:00 | 00:00:00 | 00:00:00 | |
| PU1XMG-16 | 2026-08-30 12:51:22 | -22.67762 | -42.83812 | 99° | 33km/h | 27758m | 4.9m/s | -49.0°C | 1.0% | 16.6hPa | 0V | 00:00:00 | 00:00:00 | 00:00:00 | |
| PU1XMG-16 | 2026-08-30 12:51:16 | -22.67748 | -42.83849 | 107° | 16km/h | 27719m | 5.7m/s | -49.2°C | 1.0% | 16.8hPa | 0V | 00:00:00 | 00:00:00 | 00:00:00 | |
| PU1XMG-16 | 2026-08-30 12:51:10 | -22.67730 | -42.83871 | 130° | 22km/h | 27678m | 6.4m/s | -49.4°C | 1.0% | 16.9hPa | 0V | 00:00:00 | 00:00:00 | 00:00:00 | |
| PU1XMG-16 | 2026-08-30 12:51:03 | -22.67696 | -42.83902 | 145° | 20km/h | 27630m | 6.1m/s | -49.8°C | 1.1% | 17.0hPa | 0V | 00:00:00 | 00:00:00 | 00:00:00 | |
| PU1XMG-16 | 2026-08-30 12:50:57 | -22.67665 | -42.83912 | 166° | 18km/h | 27587m | 7.0m/s | -49.9°C | 1.1% | 17.1hPa | 0V | 00:00:00 | 00:00:00 | 00:00:00 | |
| PU1XMG-16 | 2026-08-30 12:50:52 | -22.67639 | -42.83919 | 167° | 22km/h | 27553m | 7.3m/s | -49.8°C | 1.1% | 17.2hPa | 0V | 00:00:00 | 00:00:00 | 00:00:00 | |
| PU1XMG-16 | 2026-08-30 12:50:47 | -22.67616 | -42.83927 | 157° | 20km/h | 27516m | 5.3m/s | -49.7°C | 1.0% | 17.3hPa | 0V | 00:00:00 | 00:00:00 | 00:00:00 | |
| PU1XMG-16 | 2026-08-30 12:50:24 | -22.67538 | -42.84019 | 84° | 20km/h | 27350m | 7.0m/s | -50.1°C | 1.1% | 17.8hPa | 0V | 00:00:00 | 00:00:00 | 00:00:00 | |
| PU1XMG-16 | 2026-08-30 12:50:17 | -22.67533 | -42.84044 | 93° | 16km/h | 27307m | 6.8m/s | -50.3°C | 1.1% | 17.9hPa | 0V | 00:00:00 | 00:00:00 | 00:00:00 | |
| PU1XMG-16 | 2026-08-30 12:50:12 | -22.67527 | -42.84070 | 111° | 24km/h | 27265m | 8.4m/s | -50.6°C | 1.1% | 18.0hPa | 0V | 00:00:00 | 00:00:00 | 00:00:00 | |
| PU1XMG-16 | 2026-08-30 12:50:05 | -22.67508 | -42.84097 | 163° | 18km/h | 27221m | 7.4m/s | -50.8°C | 1.1% | 18.1hPa | 0V | 00:00:00 | 00:00:00 | 00:00:00 | |
| PU1XMG-16 | 2026-08-30 12:50:01 | -22.67487 | -42.84106 | 165° | 20km/h | 27186m | 7.0m/s | -50.7°C | 1.0% | 18.2hPa | 0V | 00:00:00 | 00:00:00 | 00:00:00 | |
| PU1XMG-16 | 2026-08-30 12:49:49 | -22.67456 | -42.84146 | 116° | 15km/h | 27105m | 7.9m/s | -50.7°C | 1.1% | 18.5hPa | 0V | 00:00:00 | 00:00:00 | 00:00:00 | |
| PU1XMG-16 | 2026-08-30 12:49:44 | -22.67452 | -42.84167 | 93° | 16km/h | 27063m | 8.0m/s | -50.8°C | 1.0% | 18.6hPa | 0V | 00:00:00 | 00:00:00 | 00:00:00 | |
| PU1XMG-16 | 2026-08-30 12:49:38 | -22.67450 | -42.84196 | 86° | 26km/h | 27026m | 5.1m/s | -51.0°C | 1.1% | 18.7hPa | 0V | 00:00:00 | 00:00:00 | 00:00:00 | |
| PU1XMG-16 | 2026-08-30 12:49:33 | -22.67440 | -42.84226 | 128° | 22km/h | 26991m | 8.7m/s | -51.1°C | 1.1% | 18.8hPa | 0V | 00:00:00 | 00:00:00 | 00:00:00 | |
| PU1XMG-16 | 2026-08-30 12:49:26 | -22.67416 | -42.84232 | 90° | 4km/h | 26934m | 5.9m/s | -51.2°C | 1.1% | 19.0hPa | 0V | 00:00:00 | 00:00:00 | 00:00:00 | |
| PU1XMG-16 | 2026-08-30 12:49:04 | -22.67383 | -42.84319 | 134° | 27km/h | 26780m | 6.0m/s | -51.7°C | 1.2% | 19.4hPa | 0V | 00:00:00 | 00:00:00 | 00:00:00 | |
| PU1XMG-16 | 2026-08-30 12:48:54 | -22.67362 | -42.84362 | 99° | 20km/h | 26718m | 5.9m/s | -51.9°C | 1.2% | 19.6hPa | 0V | 00:00:00 | 00:00:00 | 00:00:00 | |
| PU1XMG-16 | 2026-08-30 12:48:49 | -22.67345 | -42.84392 | 132° | 27km/h | 26679m | 6.0m/s | -51.8°C | 1.2% | 19.8hPa | 0V | 00:00:00 | 00:00:00 | 00:00:00 | |
| PU1XMG-16 | 2026-08-30 12:48:44 | -22.67318 | -42.84416 | 134° | 27km/h | 26646m | 7.9m/s | -51.9°C | 1.2% | 19.8hPa | 0V | 00:00:00 | 00:00:00 | 00:00:00 | |
| PU1XMG-16 | 2026-08-30 12:48:39 | -22.67296 | -42.84441 | 134° | 22km/h | 26613m | 6.8m/s | -52.1°C | 1.2% | 20.0hPa | 0V | 00:00:00 | 00:00:00 | 00:00:00 | |
| PU1XMG-16 | 2026-08-30 12:48:32 | -22.67275 | -42.84465 | 149° | 22km/h | 26574m | 5.6m/s | -52.4°C | 1.2% | 20.1hPa | 0V | 00:00:00 | 00:00:00 | 00:00:00 | |
| PU1XMG-16 | 2026-08-30 12:48:27 | -22.67248 | -42.84482 | 170° | 18km/h | 26536m | 5.4m/s | -52.6°C | 1.2% | 20.2hPa | 0V | 00:00:00 | 00:00:00 | 00:00:00 | |
| PU1XMG-16 | 2026-08-30 12:47:09 | -22.66854 | -42.84523 | 172° | 20km/h | 26043m | 5.1m/s | -52.0°C | 1.1% | 21.8hPa | 0V | 00:00:00 | 00:00:00 | 00:00:00 | |
| PU1XMG-16 | 2026-08-30 12:47:03 | -22.66804 | -42.84519 | 187° | 33km/h | 25998m | 6.0m/s | -52.1°C | 1.2% | 22.0hPa | 0V | 00:00:00 | 00:00:00 | 00:00:00 | |
| PU1XMG-16 | 2026-08-30 12:46:57 | -22.66760 | -42.84508 | 192° | 26km/h | 25956m | 6.3m/s | -52.1°C | 1.2% | 22.1hPa | 0V | 00:00:00 | 00:00:00 | 00:00:00 | |
| PU1XMG-16 | 2026-08-30 12:46:36 | -22.66640 | -42.84480 | 180° | 18km/h | 25810m | 9.0m/s | -52.6°C | 1.2% | 22.6hPa | 0V | 00:00:00 | 00:00:00 | 00:00:00 | |
| PU1XMG-16 | 2026-08-30 12:46:26 | -22.66608 | -42.84473 | 162° | 18km/h | 25749m | 7.3m/s | -52.3°C | 1.2% | 22.9hPa | 0V | 00:00:00 | 00:00:00 | 00:00:00 | |
| PU1XMG-16 | 2026-08-30 12:46:22 | -22.66589 | -42.84486 | 121° | 13km/h | 25715m | 5.1m/s | -52.1°C | 1.2% | 22.9hPa | 0V | 00:00:00 | 00:00:00 | 00:00:00 | |
| PU1XMG-16 | 2026-08-30 12:46:16 | -22.66583 | -42.84493 | 104° | 9km/h | 25681m | 7.1m/s | -51.9°C | 1.1% | 23.1hPa | 0V | 00:00:00 | 00:00:00 | 00:00:00 | |
| PU1XMG-16 | 2026-08-30 12:46:11 | -22.66574 | -42.84509 | 135° | 18km/h | 25641m | 8.3m/s | -51.9°C | 1.1% | 23.3hPa | 0V | 00:00:00 | 00:00:00 | 00:00:00 | |
| PU1XMG-16 | 2026-08-30 12:46:05 | -22.66558 | -42.84527 | 128° | 16km/h | 25607m | 5.3m/s | -51.9°C | 1.1% | 23.4hPa | 0V | 00:00:00 | 00:00:00 | 00:00:00 | |
| PU1XMG-16 | 2026-08-30 12:46:00 | -22.66546 | -42.84556 | 121° | 18km/h | 25566m | 6.5m/s | -52.3°C | 1.2% | 23.5hPa | 0V | 00:00:00 | 00:00:00 | 00:00:00 | |
| PU1XMG-16 | 2026-08-30 12:45:54 | -22.66537 | -42.84581 | 124° | 22km/h | 25531m | 4.7m/s | -52.4°C | 1.2% | 23.7hPa | 0V | 00:00:00 | 00:00:00 | 00:00:00 | |
| PU1XMG-16 | 2026-08-30 12:45:47 | -22.66507 | -42.84630 | 123° | 35km/h | 25481m | 8.3m/s | -52.4°C | 1.2% | 23.8hPa | 0V | 00:00:00 | 00:00:00 | 00:00:00 | |
| PU1XMG-16 | 2026-08-30 12:45:41 | -22.66485 | -42.84675 | 108° | 27km/h | 25438m | 5.9m/s | -52.3°C | 1.2% | 24.0hPa | 0V | 00:00:00 | 00:00:00 | 00:00:00 | |
| PU1XMG-16 | 2026-08-30 12:45:36 | -22.66472 | -42.84708 | 109° | 27km/h | 25400m | 6.2m/s | -52.3°C | 1.2% | 24.1hPa | 0V | 00:00:00 | 00:00:00 | 00:00:00 | |
| PU1XMG-16 | 2026-08-30 12:45:12 | -22.66381 | -42.84845 | 133° | 26km/h | 25247m | 7.1m/s | -52.9°C | 1.2% | 24.7hPa | 0V | 00:00:00 | 00:00:00 | 00:00:00 | |
| PU1XMG-16 | 2026-08-30 12:45:07 | -22.66365 | -42.84876 | 107° | 29km/h | 25214m | 7.4m/s | -53.0°C | 1.2% | 24.9hPa | 0V | 00:00:00 | 00:00:00 | 00:00:00 | |
| PU1XMG-16 | 2026-08-30 12:45:02 | -22.66353 | -42.84913 | 130° | 24km/h | 25175m | 6.2m/s | -53.3°C | 1.2% | 25.0hPa | 0V | 00:00:00 | 00:00:00 | 00:00:00 | |
| PU1XMG-16 | 2026-08-30 12:44:54 | -22.66316 | -42.84949 | 131° | 24km/h | 25123m | 7.7m/s | -53.5°C | 1.2% | 25.2hPa | 0V | 00:00:00 | 00:00:00 | 00:00:00 | |
| PU1XMG-16 | 2026-08-30 12:44:33 | -22.66232 | -42.85025 | 135° | 18km/h | 24992m | 6.5m/s | -53.6°C | 1.3% | 25.7hPa | 0V | 00:00:00 | 00:00:00 | 00:00:00 | |
| PU1XMG-16 | 2026-08-30 12:44:24 | -22.66209 | -42.85064 | 109° | 20km/h | 24935m | 5.4m/s | -53.8°C | 1.2% | 26.0hPa | 0V | 00:00:00 | 00:00:00 | 00:00:00 | |
| PU1XMG-16 | 2026-08-30 12:44:19 | -22.66197 | -42.85094 | 125° | 18km/h | 24908m | 7.0m/s | -53.8°C | 1.2% | 26.1hPa | 0V | 00:00:00 | 00:00:00 | 00:00:00 | |
| PU1XMG-16 | 2026-08-30 12:44:11 | -22.66160 | -42.85122 | 142° | 29km/h | 24867m | 5.6m/s | -54.5°C | 1.3% | 26.3hPa | 0V | 00:00:00 | 00:00:00 | 00:00:00 | |
| PU1XMG-16 | 2026-08-30 12:44:07 | -22.66132 | -42.85147 | 146° | 24km/h | 24838m | 7.2m/s | -54.9°C | 1.3% | 26.4hPa | 0V | 00:00:00 | 00:00:00 | 00:00:00 | |
| PU1XMG-16 | 2026-08-30 12:44:01 | -22.66095 | -42.85159 | 168° | 24km/h | 24802m | 6.0m/s | -55.0°C | 1.3% | 26.6hPa | 0V | 00:00:00 | 00:00:00 | 00:00:00 | |
| PU1XMG-16 | 2026-08-30 12:43:54 | -22.66058 | -42.85176 | 147° | 16km/h | 24762m | 5.0m/s | -55.2°C | 1.4% | 26.7hPa | 0V | 00:00:00 | 00:00:00 | 00:00:00 | |
| PU1XMG-16 | 2026-08-30 12:43:48 | -22.66030 | -42.85184 | 189° | 20km/h | 24728m | 5.1m/s | -55.3°C | 1.3% | 26.9hPa | 0V | 00:00:00 | 00:00:00 | 00:00:00 | |
| PU1XMG-16 | 2026-08-30 12:42:41 | -22.65757 | -42.85149 | 169° | 7km/h | 24322m | 7.1m/s | -56.7°C | 1.4% | 28.7hPa | 0V | 00:00:00 | 00:00:00 | 00:00:00 | |
| PU1XMG-16 | 2026-08-30 12:42:32 | -22.65731 | -42.85133 | 215° | 18km/h | 24272m | 6.4m/s | -57.0°C | 1.5% | 28.9hPa | 0V | 00:00:00 | 00:00:00 | 00:00:00 | |
| PU1XMG-16 | 2026-08-30 12:42:27 | -22.65714 | -42.85119 | 254° | 11km/h | 24235m | 5.0m/s | -57.0°C | 1.5% | 29.0hPa | 0V | 00:00:00 | 00:00:00 | 00:00:00 | |
| PU1XMG-16 | 2026-08-30 12:42:21 | -22.65699 | -42.85106 | 221° | 15km/h | 24197m | 6.1m/s | -57.0°C | 1.5% | 29.2hPa | 0V | 00:00:00 | 00:00:00 | 00:00:00 | |
| PU1XMG-16 | 2026-08-30 12:42:16 | -22.65680 | -42.85084 | 243° | 26km/h | 24165m | 8.1m/s | -56.9°C | 1.5% | 29.4hPa | 0V | 00:00:00 | 00:00:00 | 00:00:00 | |
| PU1XMG-16 | 2026-08-30 12:42:07 | -22.65656 | -42.85018 | 246° | 31km/h | 24107m | 6.1m/s | -56.8°C | 1.4% | 29.7hPa | 0V | 00:00:00 | 00:00:00 | 00:00:00 | |
| PU1XMG-16 | 2026-08-30 12:42:00 | -22.65634 | -42.84977 | 251° | 33km/h | 24070m | 6.5m/s | -56.9°C | 1.5% | 29.8hPa | 0V | 00:00:00 | 00:00:00 | 00:00:00 | |
| PU1XMG-16 | 2026-08-30 12:41:56 | -22.65624 | -42.84929 | 265° | 38km/h | 24038m | 6.0m/s | -56.7°C | 1.5% | 30.0hPa | 0V | 00:00:00 | 00:00:00 | 00:00:00 | |
| PU1XMG-16 | 2026-08-30 12:41:49 | -22.65610 | -42.84880 | 257° | 22km/h | 23998m | 7.7m/s | -56.7°C | 1.5% | 30.2hPa | 0V | 00:00:00 | 00:00:00 | 00:00:00 | |
| PU1XMG-16 | 2026-08-30 12:41:44 | -22.65605 | -42.84842 | 276° | 26km/h | 23955m | 7.8m/s | -56.5°C | 1.5% | 30.4hPa | 0V | 00:00:00 | 00:00:00 | 00:00:00 | |
| PU1XMG-16 | 2026-08-30 12:41:37 | -22.65607 | -42.84791 | 272° | 20km/h | 23906m | 6.9m/s | -56.4°C | 1.5% | 30.6hPa | 0V | 00:00:00 | 00:00:00 | 00:00:00 | |
| PU1XMG-16 | 2026-08-30 12:41:30 | -22.65606 | -42.84766 | 286° | 13km/h | 23864m | 7.0m/s | -56.3°C | 1.4% | 30.8hPa | 0V | 00:00:00 | 00:00:00 | 00:00:00 | |
| PU1XMG-16 | 2026-08-30 12:41:25 | -22.65607 | -42.84749 | 277° | 9km/h | 23823m | 7.4m/s | -56.3°C | 1.4% | 31.0hPa | 0V | 00:00:00 | 00:00:00 | 00:00:00 | |
| PU1XMG-16 | 2026-08-30 12:41:20 | -22.65607 | -42.84737 | 258° | 2km/h | 23788m | 5.7m/s | -56.4°C | 1.4% | 31.2hPa | 0V | 00:00:00 | 00:00:00 | 00:00:00 | |
| PU1XMG-16 | 2026-08-30 12:41:15 | -22.65607 | -42.84735 | 25° | 4km/h | 23754m | 5.4m/s | -56.9°C | 1.4% | 31.4hPa | 0V | 00:00:00 | 00:00:00 | 00:00:00 | |
| PU1XMG-16 | 2026-08-30 12:41:09 | -22.65601 | -42.84732 | 175° | 15km/h | 23718m | 5.1m/s | -57.4°C | 1.6% | 31.5hPa | 0V | 00:00:00 | 00:00:00 | 00:00:00 | |
| PU1XMG-16 | 2026-08-30 12:40:56 | -22.65536 | -42.84749 | 181° | 9km/h | 23624m | 7.7m/s | -57.7°C | 1.5% | 32.0hPa | 0V | 00:00:00 | 00:00:00 | 00:00:00 | |
| PU1XMG-16 | 2026-08-30 12:40:50 | -22.65534 | -42.84748 | 331° | 4km/h | 23590m | 6.1m/s | -57.5°C | 1.5% | 32.2hPa | 0V | 00:00:00 | 00:00:00 | 00:00:00 | |
| PU1XMG-16 | 2026-08-30 12:40:44 | -22.65532 | -42.84750 | 110° | 7km/h | 23550m | 6.4m/s | -57.5°C | 1.5% | 32.4hPa | 0V | 00:00:00 | 00:00:00 | 00:00:00 | |
| PU1XMG-16 | 2026-08-30 12:40:40 | -22.65529 | -42.84759 | 76° | 7km/h | 23516m | 5.9m/s | -57.4°C | 1.4% | 32.6hPa | 0V | 00:00:00 | 00:00:00 | 00:00:00 | |
| PU1XMG-16 | 2026-08-30 12:40:34 | -22.65530 | -42.84762 | 156° | 2km/h | 23476m | 4.8m/s | -57.9°C | 1.5% | 32.8hPa | 0V | 00:00:00 | 00:00:00 | 00:00:00 | |
| PU1XMG-16 | 2026-08-30 12:40:29 | -22.65522 | -42.84760 | 161° | 7km/h | 23442m | 5.7m/s | -58.1°C | 1.5% | 33.0hPa | 0V | 00:00:00 | 00:00:00 | 00:00:00 | |
| PU1XMG-16 | 2026-08-30 12:40:24 | -22.65513 | -42.84762 | 182° | 5km/h | 23412m | 7.4m/s | -58.3°C | 1.5% | 33.1hPa | 0V | 00:00:00 | 00:00:00 | 00:00:00 | |
| PU1XMG-16 | 2026-08-30 12:40:18 | -22.65501 | -42.84758 | 216° | 7km/h | 23373m | 5.5m/s | -58.9°C | 1.6% | 33.4hPa | 0V | 00:00:00 | 00:00:00 | 00:00:00 | |
| PU1XMG-16 | 2026-08-30 12:40:11 | -22.65491 | -42.84750 | 181° | 5km/h | 23334m | 7.0m/s | -58.9°C | 1.6% | 33.5hPa | 0V | 00:00:00 | 00:00:00 | 00:00:00 | |
| PU1XMG-16 | 2026-08-30 12:40:06 | -22.65488 | -42.84744 | 272° | 15km/h | 23296m | 6.7m/s | -58.9°C | 1.6% | 33.8hPa | 0V | 00:00:00 | 00:00:00 | 00:00:00 | |
| PU1XMG-16 | 2026-08-30 12:39:59 | -22.65501 | -42.84727 | 8° | 9km/h | 23261m | 7.1m/s | -58.9°C | 1.6% | 34.0hPa | 0V | 00:00:00 | 00:00:00 | 00:00:00 | |
| PU1XMG-16 | 2026-08-30 12:39:54 | -22.65515 | -42.84738 | 30° | 15km/h | 23230m | 7.0m/s | -59.0°C | 1.6% | 34.2hPa | 0V | 00:00:00 | 00:00:00 | 00:00:00 | |
| PU1XMG-16 | 2026-08-30 12:39:49 | -22.65534 | -42.84735 | 346° | 13km/h | 23193m | 7.7m/s | -59.1°C | 1.6% | 34.3hPa | 0V | 00:00:00 | 00:00:00 | 00:00:00 | |
| PU1XMG-16 | 2026-08-30 12:39:44 | -22.65545 | -42.84744 | 66° | 15km/h | 23162m | 6.8m/s | -59.1°C | 1.6% | 34.5hPa | 0V | 00:00:00 | 00:00:00 | 00:00:00 | |
| PU1XMG-16 | 2026-08-30 12:39:38 | -22.65552 | -42.84753 | 12° | 2km/h | 23133m | 6.6m/s | -58.9°C | 1.6% | 34.7hPa | 0V | 00:00:00 | 00:00:00 | 00:00:00 | |
| PU1XMG-16 | 2026-08-30 12:39:33 | -22.65558 | -42.84747 | 340° | 9km/h | 23097m | 7.3m/s | -58.7°C | 1.6% | 34.9hPa | 0V | 00:00:00 | 00:00:00 | 00:00:00 | |
| PU1XMG-16 | 2026-08-30 12:39:28 | -22.65574 | -42.84746 | 2° | 13km/h | 23068m | 6.2m/s | -58.6°C | 1.6% | 35.0hPa | 0V | 00:00:00 | 00:00:00 | 00:00:00 | |
| PU1XMG-16 | 2026-08-30 12:39:22 | -22.65588 | -42.84745 | 355° | 5km/h | 23032m | 6.6m/s | -58.5°C | 1.5% | 35.2hPa | 0V | 00:00:00 | 00:00:00 | 00:00:00 | |
| PU1XMG-16 | 2026-08-30 12:39:15 | -22.65603 | -42.84741 | 355° | 11km/h | 22998m | 6.4m/s | -58.6°C | 1.5% | 35.4hPa | 0V | 00:00:00 | 00:00:00 | 00:00:00 | |
| PU1XMG-16 | 2026-08-30 12:39:10 | -22.65618 | -42.84747 | 50° | 11km/h | 22964m | 4.8m/s | -58.9°C | 1.6% | 35.6hPa | 0V | 00:00:00 | 00:00:00 | 00:00:00 | |
| PU1XMG-16 | 2026-08-30 12:37:11 | -22.65508 | -42.84982 | 140° | 26km/h | 22275m | 7.4m/s | -60.1°C | 1.6% | 39.8hPa | 0V | 00:00:00 | 00:00:00 | 00:00:00 | |
| PU1XMG-16 | 2026-08-30 12:37:00 | -22.65474 | -42.85009 | 159° | 11km/h | 22208m | 4.7m/s | -60.5°C | 1.7% | 40.2hPa | 0V | 00:00:00 | 00:00:00 | 00:00:00 | |
| PU1XMG-16 | 2026-08-30 12:36:54 | -22.65457 | -42.85015 | 167° | 9km/h | 22170m | 8.2m/s | -60.7°C | 1.7% | 40.5hPa | 0V | 00:00:00 | 00:00:00 | 00:00:00 | |
| PU1XMG-16 | 2026-08-30 12:36:48 | -22.65445 | -42.85020 | 168° | 9km/h | 22128m | 6.0m/s | -61.1°C | 1.7% | 40.8hPa | 0V | 00:00:00 | 00:00:00 | 00:00:00 | |
| PU1XMG-16 | 2026-08-30 12:36:42 | -22.65440 | -42.85032 | 76° | 9km/h | 22085m | 7.0m/s | -61.3°C | 1.8% | 41.0hPa | 0V | 00:00:00 | 00:00:00 | 00:00:00 | |
| PU1XMG-16 | 2026-08-30 12:36:36 | -22.65441 | -42.85047 | 107° | 11km/h | 22051m | 8.0m/s | -61.4°C | 1.9% | 41.3hPa | 0V | 00:00:00 | 00:00:00 | 00:00:00 | |
| PU1XMG-16 | 2026-08-30 12:36:30 | -22.65430 | -42.85058 | 130° | 7km/h | 22011m | 6.0m/s | -61.2°C | 1.8% | 41.5hPa | 0V | 00:00:00 | 00:00:00 | 00:00:00 | |
| PU1XMG-16 | 2026-08-30 12:36:25 | -22.65430 | -42.85064 | 79° | 7km/h | 21978m | 5.2m/s | -61.2°C | 1.8% | 41.8hPa | 0V | 00:00:00 | 00:00:00 | 00:00:00 | |
| PU1XMG-16 | 2026-08-30 12:36:19 | -22.65420 | -42.85070 | 193° | 7km/h | 21940m | 5.7m/s | -61.5°C | 1.8% | 42.0hPa | 0V | 00:00:00 | 00:00:00 | 00:00:00 | |
| PU1XMG-16 | 2026-08-30 12:36:12 | -22.65405 | -42.85058 | 175° | 9km/h | 21888m | 6.8m/s | -61.4°C | 1.9% | 42.4hPa | 0V | 00:00:00 | 00:00:00 | 00:00:00 | |
| PU1XMG-16 | 2026-08-30 12:36:05 | -22.65390 | -42.85059 | 213° | 7km/h | 21849m | 7.3m/s | -61.3°C | 1.8% | 42.6hPa | 0V | 00:00:00 | 00:00:00 | 00:00:00 | |
| PU1XMG-16 | 2026-08-30 12:35:59 | -22.65381 | -42.85052 | 152° | 5km/h | 21811m | 5.8m/s | -61.1°C | 1.8% | 42.9hPa | 0V | 00:00:00 | 00:00:00 | 00:00:00 | |
| PU1XMG-16 | 2026-08-30 12:35:54 | -22.65370 | -42.85064 | 120° | 18km/h | 21781m | 7.4m/s | -61.3°C | 1.8% | 43.1hPa | 0V | 00:00:00 | 00:00:00 | 00:00:00 | |
| PU1XMG-16 | 2026-08-30 12:35:49 | -22.65361 | -42.85084 | 133° | 11km/h | 21748m | 7.3m/s | -61.4°C | 1.9% | 43.3hPa | 0V | 00:00:00 | 00:00:00 | 00:00:00 | |
| PU1XMG-16 | 2026-08-30 12:35:42 | -22.65345 | -42.85089 | 150° | 13km/h | 21704m | 4.5m/s | -61.0°C | 1.8% | 43.7hPa | 0V | 00:00:00 | 00:00:00 | 00:00:00 | |
| PU1XMG-16 | 2026-08-30 12:35:36 | -22.65327 | -42.85101 | 150° | 15km/h | 21667m | 7.2m/s | -61.0°C | 1.8% | 43.9hPa | 0V | 00:00:00 | 00:00:00 | 00:00:00 | |
| PU1XMG-16 | 2026-08-30 12:35:31 | -22.65308 | -42.85111 | 139° | 15km/h | 21637m | 4.8m/s | -60.9°C | 1.8% | 44.1hPa | 0V | 00:00:00 | 00:00:00 | 00:00:00 | |
| PU1XMG-16 | 2026-08-30 12:35:26 | -22.65295 | -42.85127 | 126° | 9km/h | 21601m | 6.4m/s | -61.0°C | 1.8% | 44.4hPa | 0V | 00:00:00 | 00:00:00 | 00:00:00 | |
| PU1XMG-16 | 2026-08-30 12:35:20 | -22.65285 | -42.85132 | 161° | 13km/h | 21570m | 6.3m/s | -61.0°C | 1.8% | 44.6hPa | 0V | 00:00:00 | 00:00:00 | 00:00:00 | |
| PU1XMG-16 | 2026-08-30 12:35:15 | -22.65262 | -42.85144 | 153° | 18km/h | 21535m | 6.2m/s | -60.9°C | 1.8% | 44.9hPa | 0V | 00:00:00 | 00:00:00 | 00:00:00 | |
| PU1XMG-16 | 2026-08-30 12:35:10 | -22.65249 | -42.85154 | 163° | 11km/h | 21504m | 4.4m/s | -60.8°C | 1.8% | 45.1hPa | 0V | 00:00:00 | 00:00:00 | 00:00:00 | |
| PU1XMG-16 | 2026-08-30 12:35:03 | -22.65234 | -42.85163 | 160° | 18km/h | 21471m | 5.1m/s | -60.9°C | 1.9% | 45.3hPa | 0V | 00:00:00 | 00:00:00 | 00:00:00 | |
| PU1XMG-16 | 2026-08-30 12:34:57 | -22.65209 | -42.85180 | 144° | 16km/h | 21437m | 6.0m/s | -60.8°C | 1.8% | 45.6hPa | 0V | 00:00:00 | 00:00:00 | 00:00:00 | |
| PU1XMG-16 | 2026-08-30 12:34:52 | -22.65190 | -42.85193 | 162° | 13km/h | 21403m | 5.9m/s | -61.0°C | 1.8% | 45.8hPa | 0V | 00:00:00 | 00:00:00 | 00:00:00 | |
| PU1XMG-16 | 2026-08-30 12:34:46 | -22.65176 | -42.85199 | 171° | 9km/h | 21370m | 6.8m/s | -61.1°C | 1.8% | 46.1hPa | 0V | 00:00:00 | 00:00:00 | 00:00:00 | |
| PU1XMG-16 | 2026-08-30 12:34:40 | -22.65165 | -42.85200 | 167° | 7km/h | 21343m | 6.6m/s | -61.3°C | 1.8% | 46.3hPa | 0V | 00:00:00 | 00:00:00 | 00:00:00 | |
| PU1XMG-16 | 2026-08-30 12:34:34 | -22.65154 | -42.85205 | 138° | 9km/h | 21309m | 5.2m/s | -61.7°C | 1.9% | 46.6hPa | 0V | 00:00:00 | 00:00:00 | 00:00:00 | |
| PU1XMG-16 | 2026-08-30 12:34:25 | -22.65141 | -42.85222 | 120° | 7km/h | 21259m | 6.1m/s | -62.2°C | 1.9% | 46.9hPa | 0V | 00:00:00 | 00:00:00 | 00:00:00 | |
| PU1XMG-16 | 2026-08-30 12:34:18 | -22.65120 | -42.85218 | 187° | 15km/h | 21224m | 3.6m/s | -62.6°C | 1.9% | 47.2hPa | 0V | 00:00:00 | 00:00:00 | 00:00:00 | |
| PU1XMG-16 | 2026-08-30 12:34:13 | -22.65106 | -42.85223 | 135° | 15km/h | 21198m | 3.5m/s | -62.7°C | 2.0% | 47.4hPa | 0V | 00:00:00 | 00:00:00 | 00:00:00 | |
| PU1XMG-16 | 2026-08-30 12:34:07 | -22.65074 | -42.85227 | 188° | 33km/h | 21168m | 4.8m/s | -62.5°C | 2.0% | 47.6hPa | 0V | 00:00:00 | 00:00:00 | 00:00:00 | |
| PU1XMG-16 | 2026-08-30 12:33:46 | -22.64942 | -42.85190 | 200° | 22km/h | 21061m | 6.3m/s | -62.2°C | 1.9% | 48.5hPa | 0V | 00:00:00 | 00:00:00 | 00:00:00 | |
| PU1XMG-16 | 2026-08-30 12:33:42 | -22.64916 | -42.85178 | 214° | 24km/h | 21035m | 5.7m/s | -62.2°C | 2.0% | 48.7hPa | 0V | 00:00:00 | 00:00:00 | 00:00:00 | |
| PU1XMG-16 | 2026-08-30 12:33:36 | -22.64886 | -42.85154 | 218° | 22km/h | 21000m | 6.8m/s | -62.2°C | 2.0% | 49.0hPa | 0V | 00:00:00 | 00:00:00 | 00:00:00 | |
| PU1XMG-16 | 2026-08-30 12:33:30 | -22.64867 | -42.85137 | 212° | 18km/h | 20972m | 5.2m/s | -62.3°C | 2.0% | 49.2hPa | 0V | 00:00:00 | 00:00:00 | 00:00:00 | |
| PU1XMG-16 | 2026-08-30 12:33:25 | -22.64845 | -42.85120 | 213° | 27km/h | 20943m | 4.5m/s | -62.2°C | 1.9% | 49.4hPa | 0V | 00:00:00 | 00:00:00 | 00:00:00 | |
| PU1XMG-16 | 2026-08-30 12:33:19 | -22.64817 | -42.85084 | 239° | 29km/h | 20909m | 5.7m/s | -62.2°C | 1.9% | 49.7hPa | 0V | 00:00:00 | 00:00:00 | 00:00:00 | |
| PU1XMG-16 | 2026-08-30 12:33:14 | -22.64798 | -42.85049 | 235° | 24km/h | 20878m | 6.4m/s | -62.4°C | 2.0% | 49.9hPa | 0V | 00:00:00 | 00:00:00 | 00:00:00 | |
| PU1XMG-16 | 2026-08-30 12:32:49 | -22.64784 | -42.84921 | 289° | 15km/h | 20738m | 7.0m/s | -62.2°C | 2.0% | 51.1hPa | 0V | 00:00:00 | 00:00:00 | 00:00:00 | |
| PU1XMG-16 | 2026-08-30 12:32:42 | -22.64795 | -42.84899 | 297° | 13km/h | 20697m | 6.1m/s | -62.0°C | 2.1% | 51.4hPa | 0V | 00:00:00 | 00:00:00 | 00:00:00 | |
| PU1XMG-16 | 2026-08-30 12:32:37 | -22.64808 | -42.84884 | 337° | 13km/h | 20660m | 5.5m/s | -61.7°C | 1.9% | 51.7hPa | 0V | 00:00:00 | 00:00:00 | 00:00:00 | |
| PU1XMG-16 | 2026-08-30 12:32:32 | -22.64816 | -42.84878 | 303° | 5km/h | 20632m | 6.3m/s | -61.5°C | 1.9% | 52.0hPa | 0V | 00:00:00 | 00:00:00 | 00:00:00 | |
| PU1XMG-16 | 2026-08-30 12:32:25 | -22.64821 | -42.84859 | 284° | 16km/h | 20595m | 7.1m/s | -61.5°C | 1.9% | 52.3hPa | 0V | 00:00:00 | 00:00:00 | 00:00:00 | |
| PU1XMG-16 | 2026-08-30 12:32:20 | -22.64825 | -42.84833 | 288° | 11km/h | 20558m | 6.2m/s | -61.9°C | 2.0% | 52.6hPa | 0V | 00:00:00 | 00:00:00 | 00:00:00 | |
| PU1XMG-16 | 2026-08-30 12:32:14 | -22.64825 | -42.84823 | 323° | 4km/h | 20528m | 6.6m/s | -61.8°C | 2.0% | 52.9hPa | 0V | 00:00:00 | 00:00:00 | 00:00:00 | |
| PU1XMG-16 | 2026-08-30 12:32:10 | -22.64834 | -42.84819 | 336° | 11km/h | 20498m | 7.3m/s | -61.8°C | 2.0% | 53.1hPa | 0V | 00:00:00 | 00:00:00 | 00:00:00 | |
| PU1XMG-16 | 2026-08-30 12:32:03 | -22.64848 | -42.84801 | 303° | 18km/h | 20462m | 5.1m/s | -62.0°C | 2.0% | 53.4hPa | 0V | 00:00:00 | 00:00:00 | 00:00:00 | |
| PU1XMG-16 | 2026-08-30 12:31:59 | -22.64864 | -42.84778 | 321° | 24km/h | 20429m | 5.1m/s | -62.4°C | 2.0% | 53.7hPa | 0V | 00:00:00 | 00:00:00 | 00:00:00 | |
| PU1XMG-16 | 2026-08-30 12:31:52 | -22.64891 | -42.84757 | 317° | 16km/h | 20392m | 6.6m/s | -62.4°C | 2.0% | 54.1hPa | 0V | 00:00:00 | 00:00:00 | 00:00:00 | |
| PU1XMG-16 | 2026-08-30 12:31:47 | -22.64900 | -42.84745 | 300° | 9km/h | 20361m | 7.6m/s | -62.8°C | 2.0% | 54.3hPa | 0V | 00:00:00 | 00:00:00 | 00:00:00 | |
| PU1XMG-16 | 2026-08-30 12:31:41 | -22.64911 | -42.84745 | 30° | 13km/h | 20322m | 5.3m/s | -63.3°C | 2.2% | 54.7hPa | 0V | 00:00:00 | 00:00:00 | 00:00:00 | |
| PU1XMG-16 | 2026-08-30 12:31:36 | -22.64927 | -42.84756 | 17° | 9km/h | 20290m | 5.6m/s | -63.2°C | 2.2% | 54.9hPa | 0V | 00:00:00 | 00:00:00 | 00:00:00 | |
| PU1XMG-16 | 2026-08-30 12:31:30 | -22.64940 | -42.84756 | 355° | 5km/h | 20253m | 4.9m/s | -63.1°C | 2.1% | 55.3hPa | 0V | 00:00:00 | 00:00:00 | 00:00:00 | |
| PU1XMG-16 | 2026-08-30 12:31:25 | -22.64948 | -42.84760 | 345° | 5km/h | 20217m | 7.0m/s | -63.1°C | 2.1% | 55.6hPa | 0V | 00:00:00 | 00:00:00 | 00:00:00 | |
| PU1XMG-16 | 2026-08-30 12:31:20 | -22.64954 | -42.84751 | 293° | 9km/h | 20187m | 5.7m/s | -63.1°C | 2.1% | 55.9hPa | 0V | 00:00:00 | 00:00:00 | 00:00:00 | |
| PU1XMG-16 | 2026-08-30 12:31:13 | -22.64957 | -42.84744 | 287° | 2km/h | 20149m | 6.1m/s | -63.1°C | 2.2% | 56.2hPa | 0V | 00:00:00 | 00:00:00 | 00:00:00 | |
| PU1XMG-16 | 2026-08-30 12:31:07 | -22.64953 | -42.84723 | 270° | 20km/h | 20114m | 5.5m/s | -62.9°C | 2.2% | 56.5hPa | 0V | 00:00:00 | 00:00:00 | 00:00:00 | |
| PU1XMG-16 | 2026-08-30 12:31:01 | -22.64952 | -42.84695 | 286° | 15km/h | 20078m | 6.2m/s | -62.8°C | 2.1% | 56.9hPa | 0V | 00:00:00 | 00:00:00 | 00:00:00 | |
| PU1XMG-16 | 2026-08-30 12:30:56 | -22.64961 | -42.84672 | 308° | 18km/h | 20042m | 6.6m/s | -62.7°C | 2.1% | 57.2hPa | 0V | 00:00:00 | 00:00:00 | 00:00:00 | |
| PU1XMG-16 | 2026-08-30 12:30:45 | -22.64988 | -42.84635 | 307° | 24km/h | 19985m | 6.5m/s | -63.0°C | 2.2% | 57.8hPa | 0V | 00:00:00 | 00:00:00 | 00:00:00 | |
| PU1XMG-16 | 2026-08-30 12:30:39 | -22.65019 | -42.84606 | 337° | 29km/h | 19948m | 4.6m/s | -63.0°C | 2.1% | 58.1hPa | 0V | 00:00:00 | 00:00:00 | 00:00:00 | |
| PU1XMG-16 | 2026-08-30 12:30:34 | -22.65047 | -42.84596 | 350° | 22km/h | 19918m | 5.8m/s | -63.1°C | 2.2% | 58.4hPa | 0V | 00:00:00 | 00:00:00 | 00:00:00 | |
| PU1XMG-16 | 2026-08-30 12:30:28 | -22.65079 | -42.84587 | 350° | 24km/h | 19882m | 4.0m/s | -62.8°C | 2.2% | 58.7hPa | 0V | 00:00:00 | 00:00:00 | 00:00:00 | |
| PU1XMG-16 | 2026-08-30 12:30:23 | -22.65113 | -42.84579 | 349° | 22km/h | 19848m | 5.6m/s | -62.8°C | 2.3% | 59.1hPa | 0V | 00:00:00 | 00:00:00 | 00:00:00 | |
| PU1XMG-16 | 2026-08-30 12:30:17 | -22.65140 | -42.84572 | 350° | 18km/h | 19813m | 7.9m/s | -62.6°C | 2.2% | 59.4hPa | 0V | 00:00:00 | 00:00:00 | 00:00:00 | |
| PU1XMG-16 | 2026-08-30 12:30:03 | -22.65193 | -42.84589 | 46° | 15km/h | 19731m | 6.5m/s | -62.2°C | 2.1% | 60.2hPa | 0V | 00:00:00 | 00:00:00 | 00:00:00 | |
| PU1XMG-16 | 2026-08-30 12:29:58 | -22.65219 | -42.84607 | 38° | 24km/h | 19694m | 6.1m/s | -62.0°C | 2.1% | 60.5hPa | 0V | 00:00:00 | 00:00:00 | 00:00:00 | |
| PU1XMG-16 | 2026-08-30 12:27:53 | -22.65539 | -42.85539 | 102° | 37km/h | 19020m | 5.8m/s | -64.5°C | 2.7% | 67.7hPa | 0V | 00:00:00 | 00:00:00 | 00:00:00 | |
| PU1XMG-16 | 2026-08-30 12:27:38 | -22.65508 | -42.85665 | 93° | 26km/h | 18959m | 6.9m/s | -64.3°C | 2.9% | 68.7hPa | 0V | 00:00:00 | 00:00:00 | 00:00:00 | |
| PU1XMG-16 | 2026-08-30 12:27:33 | -22.65503 | -42.85710 | 119° | 22km/h | 18938m | 6.7m/s | -64.2°C | 2.9% | 69.0hPa | 0V | 00:00:00 | 00:00:00 | 00:00:00 | |
| PU1XMG-16 | 2026-08-30 12:27:18 | -22.65487 | -42.85789 | 91° | 18km/h | 18809m | 6.2m/s | -63.8°C | 2.9% | 69.9hPa | 0V | 00:00:00 | 00:00:00 | 00:00:00 | |
| PU1XMG-16 | 2026-08-30 12:27:11 | -22.65486 | -42.85828 | 76° | 27km/h | 18770m | 4.1m/s | -63.7°C | 2.8% | 70.4hPa | 0V | 00:00:00 | 00:00:00 | 00:00:00 | |
| PU1XMG-16 | 2026-08-30 12:27:05 | -22.65496 | -42.85875 | 82° | 24km/h | 18733m | 6.9m/s | -64.2°C | 2.9% | 70.8hPa | 0V | 00:00:00 | 00:00:00 | 00:00:00 | |
| PU1XMG-16 | 2026-08-30 12:26:57 | -22.65526 | -42.85929 | 55° | 37km/h | 18687m | 6.3m/s | -64.4°C | 3.0% | 71.4hPa | 0V | 00:00:00 | 00:00:00 | 00:00:00 | |
| PU1XMG-16 | 2026-08-30 12:26:50 | -22.65554 | -42.85975 | 48° | 29km/h | 18654m | 4.8m/s | -64.5°C | 3.2% | 71.7hPa | 0V | 00:00:00 | 00:00:00 | 00:00:00 | |
| PU1XMG-16 | 2026-08-30 12:26:45 | -22.65592 | -42.86015 | 43° | 40km/h | 18623m | 4.2m/s | -64.4°C | 3.2% | 72.1hPa | 0V | 00:00:00 | 00:00:00 | 00:00:00 | |
| PU1XMG-16 | 2026-08-30 12:26:38 | -22.65632 | -42.86059 | 46° | 37km/h | 18591m | 7.4m/s | -64.4°C | 3.2% | 72.5hPa | 0V | 00:00:00 | 00:00:00 | 00:00:00 | |
| PU1XMG-16 | 2026-08-30 12:26:33 | -22.65664 | -42.86094 | 54° | 37km/h | 18561m | 6.5m/s | -64.5°C | 3.3% | 72.9hPa | 0V | 00:00:00 | 00:00:00 | 00:00:00 | |
| PU1XMG-16 | 2026-08-30 12:26:28 | -22.65687 | -42.86134 | 60° | 31km/h | 18535m | 6.0m/s | -64.5°C | 3.3% | 73.2hPa | 0V | 00:00:00 | 00:00:00 | 00:00:00 | |
| PU1XMG-16 | 2026-08-30 12:26:23 | -22.65715 | -42.86180 | 59° | 37km/h | 18500m | 4.6m/s | -64.4°C | 3.4% | 73.6hPa | 0V | 00:00:00 | 00:00:00 | 00:00:00 | |
| PU1XMG-16 | 2026-08-30 12:26:16 | -22.65746 | -42.86234 | 62° | 40km/h | 18469m | 5.0m/s | -64.4°C | 3.5% | 74.0hPa | 0V | 00:00:00 | 00:00:00 | 00:00:00 | |
| PU1XMG-16 | 2026-08-30 12:26:10 | -22.65777 | -42.86286 | 56° | 40km/h | 18433m | 4.7m/s | -64.2°C | 3.5% | 74.4hPa | 0V | 00:00:00 | 00:00:00 | 00:00:00 | |
| PU1XMG-16 | 2026-08-30 12:26:06 | -22.65805 | -42.86340 | 64° | 49km/h | 18405m | 3.5m/s | -64.1°C | 3.6% | 74.8hPa | 0V | 00:00:00 | 00:00:00 | 00:00:00 | |
| PU1XMG-16 | 2026-08-30 12:26:00 | -22.65828 | -42.86397 | 65° | 38km/h | 18375m | 5.3m/s | -64.1°C | 3.7% | 75.1hPa | 0V | 00:00:00 | 00:00:00 | 00:00:00 | |
| PU1XMG-16 | 2026-08-30 12:25:54 | -22.65853 | -42.86449 | 64° | 37km/h | 18340m | 5.2m/s | -64.5°C | 3.9% | 75.6hPa | 0V | 00:00:00 | 00:00:00 | 00:00:00 | |
| PU1XMG-16 | 2026-08-30 12:25:49 | -22.65865 | -42.86500 | 85° | 40km/h | 18310m | 7.3m/s | -64.3°C | 4.0% | 75.9hPa | 0V | 00:00:00 | 00:00:00 | 00:00:00 | |
| PU1XMG-16 | 2026-08-30 12:25:44 | -22.65869 | -42.86553 | 85° | 38km/h | 18283m | 5.6m/s | -64.2°C | 4.0% | 76.3hPa | 0V | 00:00:00 | 00:00:00 | 00:00:00 | |
| PU1XMG-16 | 2026-08-30 12:25:39 | -22.65873 | -42.86603 | 84° | 35km/h | 18255m | 4.0m/s | -64.2°C | 4.1% | 76.6hPa | 0V | 00:00:00 | 00:00:00 | 00:00:00 | |
| PU1XMG-16 | 2026-08-30 12:25:35 | -22.65875 | -42.86652 | 94° | 40km/h | 18227m | 7.1m/s | -64.2°C | 4.2% | 77.0hPa | 0V | 00:00:00 | 00:00:00 | 00:00:00 | |
| PU1XMG-16 | 2026-08-30 12:25:28 | -22.65870 | -42.86725 | 95° | 44km/h | 18192m | 4.8m/s | -64.3°C | 4.5% | 77.4hPa | 0V | 00:00:00 | 00:00:00 | 00:00:00 | |
| PU1XMG-16 | 2026-08-30 12:25:23 | -22.65868 | -42.86780 | 96° | 35km/h | 18163m | 4.8m/s | -64.6°C | 4.6% | 77.7hPa | 0V | 00:00:00 | 00:00:00 | 00:00:00 | |
| PU1XMG-16 | 2026-08-30 12:25:18 | -22.65862 | -42.86832 | 99° | 46km/h | 18135m | 6.6m/s | -64.6°C | 4.9% | 78.1hPa | 0V | 00:00:00 | 00:00:00 | 00:00:00 | |
| PU1XMG-16 | 2026-08-30 12:25:13 | -22.65849 | -42.86917 | 101° | 51km/h | 18102m | 5.9m/s | -64.4°C | 5.0% | 78.5hPa | 0V | 00:00:00 | 00:00:00 | 00:00:00 | |
| PU1XMG-16 | 2026-08-30 12:25:07 | -22.65832 | -42.86989 | 103° | 38km/h | 18068m | 4.2m/s | -65.0°C | 5.1% | 79.0hPa | 0V | 00:00:00 | 00:00:00 | 00:00:00 | |
| PU1XMG-16 | 2026-08-30 12:25:01 | -22.65826 | -42.87046 | 94° | 46km/h | 18040m | 6.1m/s | -65.2°C | 5.4% | 79.3hPa | 0V | 00:00:00 | 00:00:00 | 00:00:00 | |
| PU1XMG-16 | 2026-08-30 12:24:56 | -22.65817 | -42.87109 | 104° | 47km/h | 18012m | 6.9m/s | -65.7°C | 5.7% | 79.7hPa | 0V | 00:00:00 | 00:00:00 | 00:00:00 | |
| PU1XMG-16 | 2026-08-30 12:24:51 | -22.65796 | -42.87176 | 116° | 38km/h | 17977m | 6.2m/s | -66.4°C | 6.3% | 80.1hPa | 0V | 00:00:00 | 00:00:00 | 00:00:00 | |
| PU1XMG-16 | 2026-08-30 12:24:46 | -22.65778 | -42.87221 | 107° | 40km/h | 17952m | 4.1m/s | -66.8°C | 7.0% | 80.5hPa | 0V | 00:00:00 | 00:00:00 | 00:00:00 | |
| PU1XMG-16 | 2026-08-30 12:24:39 | -22.65769 | -42.87278 | 96° | 31km/h | 17919m | 6.5m/s | -66.8°C | 6.9% | 80.9hPa | 0V | 00:00:00 | 00:00:00 | 00:00:00 | |
| PU1XMG-16 | 2026-08-30 12:24:35 | -22.65767 | -42.87322 | 88° | 33km/h | 17892m | 5.0m/s | -66.9°C | 7.3% | 81.3hPa | 0V | 00:00:00 | 00:00:00 | 00:00:00 | |
| PU1XMG-16 | 2026-08-30 12:24:29 | -22.65768 | -42.87371 | 87° | 38km/h | 17866m | 4.1m/s | -66.7°C | 7.5% | 81.7hPa | 0V | 00:00:00 | 00:00:00 | 00:00:00 | |
| PU1XMG-16 | 2026-08-30 12:24:24 | -22.65765 | -42.87440 | 91° | 44km/h | 17837m | 3.9m/s | -67.6°C | 7.8% | 82.0hPa | 0V | 00:00:00 | 00:00:00 | 00:00:00 | |
| PU1XMG-16 | 2026-08-30 12:24:17 | -22.65768 | -42.87511 | 83° | 47km/h | 17806m | 4.2m/s | -67.6°C | 8.4% | 82.4hPa | 0V | 00:00:00 | 00:00:00 | 00:00:00 | |
| PU1XMG-16 | 2026-08-30 12:24:12 | -22.65775 | -42.87581 | 84° | 53km/h | 17779m | 4.4m/s | -67.9°C | 8.7% | 82.8hPa | 0V | 00:00:00 | 00:00:00 | 00:00:00 | |
| PU1XMG-16 | 2026-08-30 12:24:06 | -22.65786 | -42.87668 | 82° | 58km/h | 17746m | 5.3m/s | -68.5°C | 9.2% | 83.3hPa | 0V | 00:00:00 | 00:00:00 | 00:00:00 | |
| PU1XMG-16 | 2026-08-30 12:24:00 | -22.65803 | -42.87772 | 83° | 66km/h | 17714m | 6.1m/s | -68.4°C | 9.4% | 83.7hPa | 0V | 00:00:00 | 00:00:00 | 00:00:00 | |
| PU1XMG-16 | 2026-08-30 12:23:55 | -22.65815 | -42.87881 | 83° | 68km/h | 17682m | 4.4m/s | -68.6°C | 9.9% | 84.2hPa | 0V | 00:00:00 | 00:00:00 | 00:00:00 | |
| PU1XMG-16 | 2026-08-30 12:23:43 | -22.65824 | -42.88058 | 96° | 60km/h | 17623m | 6.0m/s | -70.2°C | 11.3% | 85.0hPa | 0V | 00:00:00 | 00:00:00 | 00:00:00 | |
| PU1XMG-16 | 2026-08-30 12:23:33 | -22.65791 | -42.88232 | 112° | 60km/h | 17568m | 6.0m/s | -70.7°C | 12.0% | 85.8hPa | 0V | 00:00:00 | 00:00:00 | 00:00:00 | |
| PU1XMG-16 | 2026-08-30 12:23:28 | -22.65761 | -42.88314 | 116° | 73km/h | 17541m | 5.3m/s | -71.2°C | 12.5% | 86.2hPa | 0V | 00:00:00 | 00:00:00 | 00:00:00 | |
| PU1XMG-16 | 2026-08-30 12:23:21 | -22.65705 | -42.88440 | 117° | 62km/h | 17505m | 5.5m/s | -71.1°C | 12.4% | 86.8hPa | 0V | 00:00:00 | 00:00:00 | 00:00:00 | |
| PU1XMG-16 | 2026-08-30 12:23:15 | -22.65662 | -42.88530 | 119° | 66km/h | 17472m | 5.7m/s | -71.2°C | 12.6% | 87.2hPa | 0V | 00:00:00 | 00:00:00 | 00:00:00 | |
| PU1XMG-16 | 2026-08-30 12:23:10 | -22.65620 | -42.88613 | 120° | 71km/h | 17446m | 6.5m/s | -72.2°C | 13.1% | 87.6hPa | 0V | 00:00:00 | 00:00:00 | 00:00:00 | |
| PU1XMG-16 | 2026-08-30 12:23:04 | -22.65575 | -42.88706 | 116° | 60km/h | 17412m | 4.0m/s | -73.1°C | 14.8% | 88.2hPa | 0V | 00:00:00 | 00:00:00 | 00:00:00 | |
| PU1XMG-16 | 2026-08-30 12:22:58 | -22.65536 | -42.88795 | 122° | 64km/h | 17381m | 4.1m/s | -73.1°C | 15.5% | 88.7hPa | 0V | 00:00:00 | 00:00:00 | 00:00:00 | |
| PU1XMG-16 | 2026-08-30 12:22:53 | -22.65484 | -42.88883 | 125° | 58km/h | 17348m | 6.7m/s | -73.2°C | 15.1% | 89.1hPa | 0V | 00:00:00 | 00:00:00 | 00:00:00 | |
| PU1XMG-16 | 2026-08-30 12:22:47 | -22.65441 | -42.88962 | 120° | 58km/h | 17313m | 5.1m/s | -73.4°C | 15.5% | 89.6hPa | 0V | 00:00:00 | 00:00:00 | 00:00:00 | |
| PU1XMG-16 | 2026-08-30 12:22:41 | -22.65393 | -42.89030 | 133° | 58km/h | 17286m | 7.4m/s | -73.5°C | 16.1% | 90.0hPa | 0V | 00:00:00 | 00:00:00 | 00:00:00 | |
| PU1XMG-16 | 2026-08-30 12:22:35 | -22.65345 | -42.89089 | 131° | 47km/h | 17244m | 6.5m/s | -74.2°C | 16.6% | 90.6hPa | 0V | 00:00:00 | 00:00:00 | 00:00:00 | |
| PU1XMG-16 | 2026-08-30 12:22:30 | -22.65299 | -42.89144 | 138° | 51km/h | 17214m | 6.3m/s | -74.3°C | 17.6% | 91.1hPa | 0V | 00:00:00 | 00:00:00 | 00:00:00 | |
| PU1XMG-16 | 2026-08-30 12:22:24 | -22.65231 | -42.89175 | 172° | 44km/h | 17173m | 5.7m/s | -74.0°C | 17.0% | 91.7hPa | 0V | 00:00:00 | 00:00:00 | 00:00:00 | |
| PU1XMG-16 | 2026-08-30 12:22:19 | -22.65180 | -42.89196 | 145° | 42km/h | 17143m | 6.5m/s | -73.8°C | 16.5% | 92.1hPa | 0V | 00:00:00 | 00:00:00 | 00:00:00 | |
| PU1XMG-16 | 2026-08-30 12:22:11 | -22.65097 | -42.89234 | 184° | 53km/h | 17089m | 2.2m/s | -73.7°C | 16.8% | 92.8hPa | 0V | 00:00:00 | 00:00:00 | 00:00:00 | |
| PU1XMG-16 | 2026-08-30 12:21:46 | -22.64959 | -42.89355 | 125° | 26km/h | 16906m | 6.5m/s | -74.8°C | 18.7% | 96.1hPa | 0V | 00:00:00 | 00:00:00 | 00:00:00 | |
| PU1XMG-16 | 2026-08-30 12:21:34 | -22.64917 | -42.89423 | 125° | 27km/h | 16835m | 3.8m/s | -74.4°C | 18.2% | 97.3hPa | 0V | 00:00:00 | 00:00:00 | 00:00:00 | |
| PU1XMG-16 | 2026-08-30 12:21:28 | -22.64892 | -42.89463 | 119° | 33km/h | 16803m | 5.1m/s | -74.1°C | 17.9% | 97.8hPa | 0V | 00:00:00 | 00:00:00 | 00:00:00 | |
| PU1XMG-16 | 2026-08-30 12:21:23 | -22.64873 | -42.89498 | 129° | 31km/h | 16777m | 4.2m/s | -73.9°C | 17.3% | 98.3hPa | 0V | 00:00:00 | 00:00:00 | 00:00:00 | |
| PU1XMG-16 | 2026-08-30 12:21:17 | -22.64841 | -42.89534 | 139° | 31km/h | 16743m | 6.6m/s | -73.9°C | 17.3% | 98.9hPa | 0V | 00:00:00 | 00:00:00 | 00:00:00 | |
| PU1XMG-16 | 2026-08-30 12:21:12 | -22.64813 | -42.89565 | 131° | 31km/h | 16716m | 6.4m/s | -73.9°C | 17.3% | 99.3hPa | 0V | 00:00:00 | 00:00:00 | 00:00:00 | |
| PU1XMG-16 | 2026-08-30 12:21:06 | -22.64783 | -42.89600 | 136° | 26km/h | 16682m | 4.1m/s | -73.8°C | 17.3% | 99.9hPa | 0V | 00:00:00 | 00:00:00 | 00:00:00 | |
| PU1XMG-16 | 2026-08-30 12:21:00 | -22.64752 | -42.89625 | 151° | 24km/h | 16649m | 5.4m/s | -74.0°C | 17.3% | 100.4hPa | 0V | 00:00:00 | 00:00:00 | 00:00:00 | |
| PU1XMG-16 | 2026-08-30 12:20:54 | -22.64725 | -42.89654 | 120° | 29km/h | 16612m | 4.1m/s | -73.8°C | 17.4% | 101.1hPa | 0V | 00:00:00 | 00:00:00 | 00:00:00 | |
| PU1XMG-16 | 2026-08-30 12:20:26 | -22.64627 | -42.89865 | 113° | 46km/h | 16465m | 4.6m/s | -74.2°C | 17.5% | 103.6hPa | 0V | 00:00:00 | 00:00:00 | 00:00:00 | |
| PU1XMG-16 | 2026-08-30 12:20:20 | -22.64605 | -42.89930 | 113° | 38km/h | 16432m | 4.5m/s | -74.0°C | 17.7% | 104.2hPa | 0V | 00:00:00 | 00:00:00 | 00:00:00 | |
| PU1XMG-16 | 2026-08-30 12:20:14 | -22.64584 | -42.89977 | 125° | 46km/h | 16406m | 4.7m/s | -73.8°C | 17.4% | 104.7hPa | 0V | 00:00:00 | 00:00:00 | 00:00:00 | |
| PU1XMG-16 | 2026-08-30 12:20:09 | -22.64552 | -42.90031 | 119° | 46km/h | 16380m | 3.6m/s | -73.6°C | 16.7% | 105.1hPa | 0V | 00:00:00 | 00:00:00 | 00:00:00 | |
| PU1XMG-16 | 2026-08-30 12:20:04 | -22.64534 | -42.90099 | 105° | 49km/h | 16350m | 4.7m/s | -73.3°C | 16.8% | 105.7hPa | 0V | 00:00:00 | 00:00:00 | 00:00:00 | |
| PU1XMG-16 | 2026-08-30 12:19:58 | -22.64514 | -42.90162 | 119° | 47km/h | 16324m | 3.1m/s | -73.0°C | 17.0% | 106.2hPa | 0V | 00:00:00 | 00:00:00 | 00:00:00 | |
| PU1XMG-16 | 2026-08-30 12:19:47 | -22.64466 | -42.90297 | 112° | 49km/h | 16265m | 5.3m/s | -72.5°C | 16.6% | 107.2hPa | 0V | 00:00:00 | 00:00:00 | 00:00:00 | |
| PU1XMG-16 | 2026-08-30 12:19:42 | -22.64442 | -42.90356 | 112° | 47km/h | 16237m | 3.9m/s | -72.3°C | 16.3% | 107.8hPa | 0V | 00:00:00 | 00:00:00 | 00:00:00 | |
| PU1XMG-16 | 2026-08-30 12:19:37 | -22.64423 | -42.90419 | 109° | 49km/h | 16210m | 5.9m/s | -72.0°C | 16.5% | 108.2hPa | 0V | 00:00:00 | 00:00:00 | 00:00:00 | |
| PU1XMG-16 | 2026-08-30 12:19:31 | -22.64389 | -42.90491 | 124° | 47km/h | 16178m | 4.4m/s | -71.8°C | 16.8% | 108.8hPa | 0V | 00:00:00 | 00:00:00 | 00:00:00 | |
| PU1XMG-16 | 2026-08-30 12:15:52 | -22.64657 | -42.92628 | 66° | 55km/h | 14869m | 4.6m/s | -65.2°C | 9.5% | 135.4hPa | 0V | 00:00:00 | 00:00:00 | 00:00:00 | |
| PU1XMG-16 | 2026-08-30 12:15:47 | -22.64698 | -42.92707 | 60° | 57km/h | 14836m | 7.4m/s | -65.1°C | 9.6% | 136.1hPa | 0V | 00:00:00 | 00:00:00 | 00:00:00 | |
| PU1XMG-16 | 2026-08-30 12:15:41 | -22.64730 | -42.92777 | 67° | 55km/h | 14809m | 5.5m/s | -64.9°C | 9.7% | 136.8hPa | 0V | 00:00:00 | 00:00:00 | 00:00:00 | |
| PU1XMG-16 | 2026-08-30 12:15:37 | -22.64765 | -42.92859 | 66° | 57km/h | 14776m | 6.8m/s | -65.0°C | 9.7% | 137.5hPa | 0V | 00:00:00 | 00:00:00 | 00:00:00 | |
| PU1XMG-16 | 2026-08-30 12:15:27 | -22.64819 | -42.92973 | 65° | 58km/h | 14733m | 4.4m/s | -64.9°C | 9.4% | 138.5hPa | 0V | 00:00:00 | 00:00:00 | 00:00:00 | |
| PU1XMG-16 | 2026-08-30 12:15:22 | -22.64853 | -42.93063 | 69° | 57km/h | 14700m | 4.7m/s | -64.7°C | 9.4% | 139.2hPa | 0V | 00:00:00 | 00:00:00 | 00:00:00 | |
| PU1XMG-16 | 2026-08-30 12:14:51 | -22.65050 | -42.93476 | 70° | 64km/h | 14529m | 4.9m/s | -64.0°C | 9.6% | 143.2hPa | 0V | 00:00:00 | 00:00:00 | 00:00:00 | |
| PU1XMG-16 | 2026-08-30 12:14:45 | -22.65099 | -42.93582 | 62° | 53km/h | 14491m | 4.0m/s | -63.8°C | 9.3% | 144.0hPa | 0V | 00:00:00 | 00:00:00 | 00:00:00 | |
| PU1XMG-16 | 2026-08-30 12:14:40 | -22.65130 | -42.93649 | 67° | 57km/h | 14464m | 7.0m/s | -63.6°C | 9.6% | 144.7hPa | 0V | 00:00:00 | 00:00:00 | 00:00:00 | |
| PU1XMG-16 | 2026-08-30 12:14:34 | -22.65166 | -42.93723 | 61° | 64km/h | 14436m | 4.4m/s | -63.3°C | 9.5% | 145.3hPa | 0V | 00:00:00 | 00:00:00 | 00:00:00 | |
| PU1XMG-16 | 2026-08-30 12:14:29 | -22.65215 | -42.93807 | 58° | 58km/h | 14402m | 7.4m/s | -63.1°C | 9.2% | 146.2hPa | 0V | 00:00:00 | 00:00:00 | 00:00:00 | |
| PU1XMG-16 | 2026-08-30 12:14:23 | -22.65260 | -42.93887 | 59° | 60km/h | 14369m | 5.8m/s | -63.2°C | 9.4% | 146.9hPa | 0V | 00:00:00 | 00:00:00 | 00:00:00 | |
| PU1XMG-16 | 2026-08-30 12:14:17 | -22.65310 | -42.93976 | 61° | 66km/h | 14336m | 4.1m/s | -63.0°C | 9.9% | 147.7hPa | 0V | 00:00:00 | 00:00:00 | 00:00:00 | |
| PU1XMG-16 | 2026-08-30 12:13:27 | -22.65831 | -42.94855 | 59° | 88km/h | 14067m | 5.7m/s | -61.7°C | 9.4% | 154.3hPa | 0V | 00:00:00 | 00:00:00 | 00:00:00 | |
| PU1XMG-16 | 2026-08-30 12:13:19 | -22.65929 | -42.95014 | 56° | 95km/h | 14025m | 5.9m/s | -61.4°C | 9.3% | 155.3hPa | 0V | 00:00:00 | 00:00:00 | 00:00:00 | |
| PU1XMG-16 | 2026-08-30 12:13:14 | -22.66010 | -42.95144 | 59° | 91km/h | 13995m | 5.1m/s | -61.4°C | 9.4% | 156.2hPa | 0V | 00:00:00 | 00:00:00 | 00:00:00 | |
| PU1XMG-16 | 2026-08-30 12:13:08 | -22.66080 | -42.95270 | 59° | 91km/h | 13961m | 4.6m/s | -61.2°C | 9.1% | 157.0hPa | 0V | 00:00:00 | 00:00:00 | 00:00:00 | |
| PU1XMG-16 | 2026-08-30 12:13:02 | -22.66142 | -42.95380 | 60° | 95km/h | 13934m | 6.2m/s | -61.2°C | 9.3% | 157.6hPa | 0V | 00:00:00 | 00:00:00 | 00:00:00 | |
| PU1XMG-16 | 2026-08-30 12:12:50 | -22.66292 | -42.95649 | 59° | 97km/h | 13870m | 4.2m/s | -60.9°C | 9.5% | 159.3hPa | 0V | 00:00:00 | 00:00:00 | 00:00:00 | |
| PU1XMG-16 | 2026-08-30 12:12:44 | -22.66388 | -42.95816 | 59° | 102km/h | 13833m | 6.3m/s | -60.7°C | 9.1% | 160.1hPa | 0V | 00:00:00 | 00:00:00 | 00:00:00 | |
| PU1XMG-16 | 2026-08-30 12:12:36 | -22.66471 | -42.95975 | 63° | 95km/h | 13798m | 6.3m/s | -60.4°C | 8.8% | 161.1hPa | 0V | 00:00:00 | 00:00:00 | 00:00:00 | |
| PU1XMG-16 | 2026-08-30 12:12:30 | -22.66551 | -42.96118 | 59° | 102km/h | 13766m | 5.6m/s | -60.2°C | 8.7% | 161.9hPa | 0V | 00:00:00 | 00:00:00 | 00:00:00 | |
| PU1XMG-16 | 2026-08-30 12:12:25 | -22.66611 | -42.96231 | 63° | 91km/h | 13740m | 6.0m/s | -60.0°C | 8.6% | 162.6hPa | 0V | 00:00:00 | 00:00:00 | 00:00:00 | |
| PU1XMG-16 | 2026-08-30 12:12:19 | -22.66691 | -42.96390 | 61° | 99km/h | 13707m | 3.0m/s | -59.6°C | 8.6% | 163.5hPa | 0V | 00:00:00 | 00:00:00 | 00:00:00 | |
| PU1XMG-16 | 2026-08-30 12:12:06 | -22.66837 | -42.96667 | 63° | 100km/h | 13646m | 4.5m/s | -59.2°C | 8.0% | 165.1hPa | 0V | 00:00:00 | 00:00:00 | 00:00:00 | |
| PU1XMG-16 | 2026-08-30 12:11:48 | -22.67036 | -42.97080 | 63° | 95km/h | 13553m | 4.2m/s | -58.5°C | 7.8% | 167.6hPa | 0V | 00:00:00 | 00:00:00 | 00:00:00 | |
| PU1XMG-16 | 2026-08-30 12:11:43 | -22.67090 | -42.97192 | 63° | 91km/h | 13527m | 4.4m/s | -58.4°C | 7.6% | 168.3hPa | 0V | 00:00:00 | 00:00:00 | 00:00:00 | |
| PU1XMG-16 | 2026-08-30 12:11:38 | -22.67141 | -42.97305 | 67° | 93km/h | 13501m | 4.6m/s | -58.1°C | 7.6% | 168.9hPa | 0V | 00:00:00 | 00:00:00 | 00:00:00 | |
| PU1XMG-16 | 2026-08-30 12:11:31 | -22.67214 | -42.97460 | 62° | 88km/h | 13467m | 3.9m/s | -57.9°C | 7.7% | 169.9hPa | 0V | 00:00:00 | 00:00:00 | 00:00:00 | |
| PU1XMG-16 | 2026-08-30 12:11:25 | -22.67274 | -42.97591 | 66° | 93km/h | 13438m | 6.5m/s | -57.7°C | 7.7% | 170.6hPa | 0V | 00:00:00 | 00:00:00 | 00:00:00 | |
| PU1XMG-16 | 2026-08-30 12:11:17 | -22.67360 | -42.97770 | 62° | 91km/h | 13397m | 4.7m/s | -57.5°C | 7.4% | 171.7hPa | 0V | 00:00:00 | 00:00:00 | 00:00:00 | |
| PU1XMG-16 | 2026-08-30 12:11:07 | -22.67462 | -42.97982 | 66° | 86km/h | 13347m | 4.7m/s | -57.1°C | 7.6% | 173.1hPa | 0V | 00:00:00 | 00:00:00 | 00:00:00 | |
| PU1XMG-16 | 2026-08-30 12:10:57 | -22.67580 | -42.98226 | 63° | 95km/h | 13295m | 4.0m/s | -57.0°C | 7.5% | 174.5hPa | 0V | 00:00:00 | 00:00:00 | 00:00:00 | |
| PU1XMG-16 | 2026-08-30 12:10:09 | -22.68053 | -42.99257 | 66° | 91km/h | 13070m | 5.9m/s | -55.5°C | 6.9% | 180.8hPa | 0V | 00:00:00 | 00:00:00 | 00:00:00 | |
| PU1XMG-16 | 2026-08-30 12:09:57 | -22.68176 | -42.99538 | 64° | 89km/h | 13007m | 6.2m/s | -55.2°C | 7.0% | 182.5hPa | 0V | 00:00:00 | 00:00:00 | 00:00:00 | |
| PU1XMG-16 | 2026-08-30 12:09:51 | -22.68222 | -42.99645 | 67° | 82km/h | 12983m | 3.2m/s | -55.0°C | 7.0% | 183.2hPa | 0V | 00:00:00 | 00:00:00 | 00:00:00 | |
| PU1XMG-16 | 2026-08-30 12:09:44 | -22.68282 | -42.99790 | 64° | 86km/h | 12949m | 5.5m/s | -54.9°C | 7.1% | 184.2hPa | 0V | 00:00:00 | 00:00:00 | 00:00:00 | |
| PU1XMG-16 | 2026-08-30 12:09:36 | -22.68356 | -42.99956 | 67° | 84km/h | 12912m | 3.6m/s | -54.9°C | 7.8% | 185.3hPa | 0V | 00:00:00 | 00:00:00 | 00:00:00 | |
| PU1XMG-16 | 2026-08-30 12:09:29 | -22.68429 | -43.00116 | 65° | 80km/h | 12871m | 5.9m/s | -54.7°C | 7.9% | 186.5hPa | 0V | 00:00:00 | 00:00:00 | 00:00:00 | |
| PU1XMG-16 | 2026-08-30 12:09:22 | -22.68485 | -43.00232 | 61° | 82km/h | 12842m | 5.7m/s | -54.7°C | 8.1% | 187.3hPa | 0V | 00:00:00 | 00:00:00 | 00:00:00 | |
| PU1XMG-16 | 2026-08-30 12:09:17 | -22.68541 | -43.00331 | 58° | 84km/h | 12818m | 5.3m/s | -54.5°C | 8.2% | 188.1hPa | 0V | 00:00:00 | 00:00:00 | 00:00:00 | |
| PU1XMG-16 | 2026-08-30 12:09:11 | -22.68603 | -43.00442 | 62° | 73km/h | 12787m | 4.2m/s | -54.3°C | 8.1% | 189.0hPa | 0V | 00:00:00 | 00:00:00 | 00:00:00 | |
| PU1XMG-16 | 2026-08-30 12:09:06 | -22.68664 | -43.00549 | 58° | 80km/h | 12757m | 6.7m/s | -54.1°C | 8.1% | 189.8hPa | 0V | 00:00:00 | 00:00:00 | 00:00:00 | |
| PU1XMG-16 | 2026-08-30 12:09:00 | -22.68719 | -43.00642 | 58° | 78km/h | 12733m | 3.7m/s | -53.9°C | 8.1% | 190.6hPa | 0V | 00:00:00 | 00:00:00 | 00:00:00 | |
| PU1XMG-16 | 2026-08-30 12:08:54 | -22.68782 | -43.00750 | 59° | 78km/h | 12703m | 3.9m/s | -53.9°C | 8.1% | 191.5hPa | 0V | 00:00:00 | 00:00:00 | 00:00:00 | |
| PU1XMG-16 | 2026-08-30 12:08:49 | -22.68835 | -43.00838 | 59° | 75km/h | 12680m | 4.1m/s | -53.8°C | 8.1% | 192.2hPa | 0V | 00:00:00 | 00:00:00 | 00:00:00 | |
| PU1XMG-16 | 2026-08-30 12:08:43 | -22.68899 | -43.00941 | 57° | 80km/h | 12650m | 4.0m/s | -53.7°C | 8.2% | 193.0hPa | 0V | 00:00:00 | 00:00:00 | 00:00:00 | |
| PU1XMG-16 | 2026-08-30 12:08:38 | -22.68970 | -43.01051 | 55° | 78km/h | 12621m | 5.3m/s | -53.4°C | 8.5% | 193.9hPa | 0V | 00:00:00 | 00:00:00 | 00:00:00 | |
| PU1XMG-16 | 2026-08-30 12:08:32 | -22.69030 | -43.01138 | 57° | 80km/h | 12596m | 4.3m/s | -53.4°C | 8.5% | 194.6hPa | 0V | 00:00:00 | 00:00:00 | 00:00:00 | |
| PU1XMG-16 | 2026-08-30 12:08:27 | -22.69089 | -43.01229 | 54° | 82km/h | 12572m | 5.9m/s | -53.2°C | 8.5% | 195.4hPa | 0V | 00:00:00 | 00:00:00 | 00:00:00 | |
| PU1XMG-16 | 2026-08-30 12:08:21 | -22.69162 | -43.01327 | 53° | 77km/h | 12543m | 6.3m/s | -53.0°C | 8.4% | 196.3hPa | 0V | 00:00:00 | 00:00:00 | 00:00:00 | |
| PU1XMG-16 | 2026-08-30 12:08:16 | -22.69224 | -43.01416 | 56° | 84km/h | 12517m | 4.1m/s | -52.8°C | 8.4% | 197.1hPa | 0V | 00:00:00 | 00:00:00 | 00:00:00 | |
| PU1XMG-16 | 2026-08-30 12:08:10 | -22.69301 | -43.01525 | 52° | 82km/h | 12487m | 5.3m/s | -52.7°C | 8.5% | 198.0hPa | 0V | 00:00:00 | 00:00:00 | 00:00:00 | |
| PU1XMG-16 | 2026-08-30 12:08:05 | -22.69364 | -43.01611 | 53° | 82km/h | 12462m | 4.1m/s | -52.6°C | 8.5% | 198.7hPa | 0V | 00:00:00 | 00:00:00 | 00:00:00 | |
| PU1XMG-16 | 2026-08-30 12:07:59 | -22.69441 | -43.01717 | 51° | 82km/h | 12430m | 5.5m/s | -52.4°C | 8.8% | 199.7hPa | 0V | 00:00:00 | 00:00:00 | 00:00:00 | |
| PU1XMG-16 | 2026-08-30 12:07:53 | -22.69522 | -43.01821 | 51° | 82km/h | 12400m | 3.9m/s | -52.2°C | 9.1% | 200.6hPa | 0V | 00:00:00 | 00:00:00 | 00:00:00 | |
| PU1XMG-16 | 2026-08-30 12:07:47 | -22.69600 | -43.01918 | 49° | 75km/h | 12371m | 4.1m/s | -52.1°C | 9.3% | 201.5hPa | 0V | 00:00:00 | 00:00:00 | 00:00:00 | |
| PU1XMG-16 | 2026-08-30 12:07:41 | -22.69683 | -43.02014 | 48° | 86km/h | 12341m | 6.2m/s | -51.8°C | 9.7% | 202.5hPa | 0V | 00:00:00 | 00:00:00 | 00:00:00 | |
| PU1XMG-16 | 2026-08-30 12:07:36 | -22.69769 | -43.02117 | 48° | 82km/h | 12310m | 6.5m/s | -51.7°C | 10.4% | 203.5hPa | 0V | 00:00:00 | 00:00:00 | 00:00:00 | |
| PU1XMG-16 | 2026-08-30 12:07:29 | -22.69856 | -43.02213 | 46° | 82km/h | 12280m | 5.3m/s | -51.4°C | 12.2% | 204.4hPa | 0V | 00:00:00 | 00:00:00 | 00:00:00 | |
| PU1XMG-16 | 2026-08-30 12:07:21 | -22.69977 | -43.02341 | 46° | 86km/h | 12240m | 4.7m/s | -51.5°C | 14.7% | 205.7hPa | 0V | 00:00:00 | 00:00:00 | 00:00:00 | |
| PU1XMG-16 | 2026-08-30 12:07:15 | -22.70073 | -43.02444 | 47° | 88km/h | 12210m | 4.4m/s | -51.5°C | 12.2% | 206.7hPa | 0V | 00:00:00 | 00:00:00 | 00:00:00 | |
| PU1XMG-16 | 2026-08-30 12:07:09 | -22.70163 | -43.02547 | 47° | 84km/h | 12179m | 3.9m/s | -51.5°C | 10.3% | 207.6hPa | 0V | 00:00:00 | 00:00:00 | 00:00:00 | |
| PU1XMG-16 | 2026-08-30 12:07:04 | -22.70240 | -43.02629 | 45° | 88km/h | 12155m | 6.9m/s | -51.4°C | 10.2% | 208.4hPa | 0V | 00:00:00 | 00:00:00 | 00:00:00 | |
| PU1XMG-16 | 2026-08-30 12:06:59 | -22.70318 | -43.02713 | 47° | 82km/h | 12129m | 5.2m/s | -51.2°C | 11.1% | 209.2hPa | 0V | 00:00:00 | 00:00:00 | 00:00:00 | |
| PU1XMG-16 | 2026-08-30 12:06:53 | -22.70397 | -43.02810 | 51° | 78km/h | 12097m | 5.4m/s | -51.1°C | 12.3% | 210.2hPa | 0V | 00:00:00 | 00:00:00 | 00:00:00 | |
| PU1XMG-16 | 2026-08-30 12:06:48 | -22.70463 | -43.02890 | 50° | 78km/h | 12070m | 4.2m/s | -51.0°C | 12.7% | 211.1hPa | 0V | 00:00:00 | 00:00:00 | 00:00:00 | |
| PU1XMG-16 | 2026-08-30 12:06:43 | -22.70539 | -43.02986 | 50° | 78km/h | 12039m | 5.0m/s | -50.7°C | 14.4% | 212.1hPa | 0V | 00:00:00 | 00:00:00 | 00:00:00 | |
| PU1XMG-16 | 2026-08-30 12:06:31 | -22.70682 | -43.03191 | 56° | 82km/h | 11977m | 7.0m/s | -50.3°C | 16.8% | 214.1hPa | 0V | 00:00:00 | 00:00:00 | 00:00:00 | |
| PU1XMG-16 | 2026-08-30 12:06:25 | -22.70741 | -43.03286 | 56° | 82km/h | 11952m | 4.6m/s | -50.3°C | 21.0% | 215.0hPa | 0V | 00:00:00 | 00:00:00 | 00:00:00 | |
| PU1XMG-16 | 2026-08-30 12:06:20 | -22.70795 | -43.03375 | 57° | 78km/h | 11928m | 4.3m/s | -50.1°C | 18.4% | 215.8hPa | 0V | 00:00:00 | 00:00:00 | 00:00:00 | |
| PU1XMG-16 | 2026-08-30 12:06:14 | -22.70868 | -43.03492 | 57° | 89km/h | 11895m | 4.6m/s | -49.8°C | 16.4% | 216.8hPa | 0V | 00:00:00 | 00:00:00 | 00:00:00 | |
| PU1XMG-16 | 2026-08-30 12:06:10 | -22.70931 | -43.03587 | 56° | 80km/h | 11868m | 6.7m/s | -49.7°C | 21.1% | 217.7hPa | 0V | 00:00:00 | 00:00:00 | 00:00:00 | |
| PU1XMG-16 | 2026-08-30 12:06:03 | -22.70999 | -43.03699 | 58° | 84km/h | 11840m | 3.6m/s | -49.9°C | 36.1% | 218.6hPa | 0V | 00:00:00 | 00:00:00 | 00:00:00 | |
| PU1XMG-16 | 2026-08-30 12:05:57 | -22.71073 | -43.03818 | 57° | 89km/h | 11810m | 3.7m/s | -51.1°C | 42.0% | 219.7hPa | 0V | 00:00:00 | 00:00:00 | 00:00:00 | |
| PU1XMG-16 | 2026-08-30 12:05:48 | -22.71199 | -43.04018 | 55° | 86km/h | 11759m | 5.8m/s | -51.3°C | 35.9% | 221.3hPa | 0V | 00:00:00 | 00:00:00 | 00:00:00 | |
| PU1XMG-16 | 2026-08-30 12:05:19 | -22.71479 | -43.04501 | 62° | 68km/h | 11621m | 3.4m/s | -51.0°C | 42.9% | 226.1hPa | 0V | 00:00:00 | 00:00:00 | 00:00:00 | |
| PU1XMG-16 | 2026-08-30 12:05:13 | -22.71534 | -43.04595 | 59° | 66km/h | 11588m | 6.6m/s | -50.7°C | 42.4% | 227.2hPa | 0V | 00:00:00 | 00:00:00 | 00:00:00 | |
| PU1XMG-16 | 2026-08-30 12:05:08 | -22.71573 | -43.04671 | 62° | 62km/h | 11564m | 6.3m/s | -50.4°C | 40.4% | 228.1hPa | 0V | 00:00:00 | 00:00:00 | 00:00:00 | |
| PU1XMG-16 | 2026-08-30 12:05:03 | -22.71627 | -43.04767 | 58° | 71km/h | 11532m | 3.4m/s | -50.1°C | 39.3% | 229.2hPa | 0V | 00:00:00 | 00:00:00 | 00:00:00 | |
| PU1XMG-16 | 2026-08-30 12:04:57 | -22.71672 | -43.04851 | 63° | 69km/h | 11507m | 5.6m/s | -49.9°C | 38.4% | 230.1hPa | 0V | 00:00:00 | 00:00:00 | 00:00:00 | |
| PU1XMG-16 | 2026-08-30 12:04:51 | -22.71719 | -43.04945 | 59° | 66km/h | 11475m | 4.4m/s | -49.6°C | 37.3% | 231.2hPa | 0V | 00:00:00 | 00:00:00 | 00:00:00 | |
| PU1XMG-16 | 2026-08-30 12:04:45 | -22.71773 | -43.05042 | 65° | 69km/h | 11446m | 5.6m/s | -49.3°C | 36.9% | 232.2hPa | 0V | 00:00:00 | 00:00:00 | 00:00:00 | |
| PU1XMG-16 | 2026-08-30 12:04:40 | -22.71812 | -43.05123 | 63° | 62km/h | 11420m | 5.0m/s | -49.0°C | 35.3% | 233.0hPa | 0V | 00:00:00 | 00:00:00 | 00:00:00 | |
| PU1XMG-16 | 2026-08-30 12:04:34 | -22.71864 | -43.05219 | 62° | 71km/h | 11392m | 4.0m/s | -48.8°C | 34.4% | 234.2hPa | 0V | 00:00:00 | 00:00:00 | 00:00:00 | |
| PU1XMG-16 | 2026-08-30 12:04:30 | -22.71901 | -43.05304 | 67° | 68km/h | 11366m | 5.2m/s | -48.5°C | 33.8% | 235.1hPa | 0V | 00:00:00 | 00:00:00 | 00:00:00 | |
| PU1XMG-16 | 2026-08-30 12:04:23 | -22.71945 | -43.05400 | 62° | 62km/h | 11338m | 2.1m/s | -48.2°C | 33.6% | 236.1hPa | 0V | 00:00:00 | 00:00:00 | 00:00:00 | |
| PU1XMG-16 | 2026-08-30 12:04:19 | -22.71988 | -43.05481 | 62° | 73km/h | 11315m | 3.7m/s | -48.0°C | 31.9% | 236.9hPa | 0V | 00:00:00 | 00:00:00 | 00:00:00 | |
| PU1XMG-16 | 2026-08-30 12:04:12 | -22.72039 | -43.05584 | 61° | 62km/h | 11289m | 4.3m/s | -47.8°C | 31.1% | 237.9hPa | 0V | 00:00:00 | 00:00:00 | 00:00:00 | |
| PU1XMG-16 | 2026-08-30 12:04:07 | -22.72080 | -43.05658 | 60° | 69km/h | 11267m | 4.9m/s | -47.5°C | 30.3% | 238.7hPa | 0V | 00:00:00 | 00:00:00 | 00:00:00 | |
| PU1XMG-16 | 2026-08-30 12:04:01 | -22.72130 | -43.05759 | 65° | 66km/h | 11238m | 4.8m/s | -47.3°C | 30.4% | 239.7hPa | 0V | 00:00:00 | 00:00:00 | 00:00:00 | |
| PU1XMG-16 | 2026-08-30 12:03:56 | -22.72176 | -43.05851 | 63° | 66km/h | 11207m | 6.3m/s | -47.0°C | 29.1% | 240.7hPa | 0V | 00:00:00 | 00:00:00 | 00:00:00 | |
| PU1XMG-16 | 2026-08-30 12:03:50 | -22.72219 | -43.05936 | 62° | 68km/h | 11182m | 5.7m/s | -46.7°C | 28.5% | 241.7hPa | 0V | 00:00:00 | 00:00:00 | 00:00:00 | |
| PU1XMG-16 | 2026-08-30 12:03:43 | -22.72273 | -43.06046 | 62° | 71km/h | 11150m | 3.8m/s | -46.4°C | 27.5% | 242.9hPa | 0V | 00:00:00 | 00:00:00 | 00:00:00 | |
| PU1XMG-16 | 2026-08-30 12:03:37 | -22.72329 | -43.06149 | 59° | 75km/h | 11117m | 5.8m/s | -46.1°C | 26.8% | 244.1hPa | 0V | 00:00:00 | 00:00:00 | 00:00:00 | |
| PU1XMG-16 | 2026-08-30 12:03:30 | -22.72391 | -43.06261 | 63° | 62km/h | 11080m | 5.4m/s | -45.7°C | 25.9% | 245.4hPa | 0V | 00:00:00 | 00:00:00 | 00:00:00 | |
| PU1XMG-16 | 2026-08-30 12:03:26 | -22.72430 | -43.06333 | 61° | 64km/h | 11055m | 5.1m/s | -45.5°C | 25.5% | 246.4hPa | 0V | 00:00:00 | 00:00:00 | 00:00:00 | |
| PU1XMG-16 | 2026-08-30 12:03:20 | -22.72481 | -43.06428 | 64° | 71km/h | 11023m | 6.8m/s | -45.2°C | 24.9% | 247.6hPa | 0V | 00:00:00 | 00:00:00 | 00:00:00 | |
| PU1XMG-16 | 2026-08-30 12:03:14 | -22.72523 | -43.06504 | 60° | 58km/h | 10995m | 7.6m/s | -44.9°C | 23.9% | 248.6hPa | 0V | 00:00:00 | 00:00:00 | 00:00:00 | |
| PU1XMG-16 | 2026-08-30 12:03:08 | -22.72569 | -43.06597 | 66° | 69km/h | 10965m | 6.6m/s | -44.6°C | 23.0% | 249.8hPa | 0V | 00:00:00 | 00:00:00 | 00:00:00 | |
| PU1XMG-16 | 2026-08-30 12:03:03 | -22.72610 | -43.06682 | 58° | 69km/h | 10941m | 4.1m/s | -44.3°C | 22.6% | 250.6hPa | 0V | 00:00:00 | 00:00:00 | 00:00:00 | |
| PU1XMG-16 | 2026-08-30 12:02:57 | -22.72660 | -43.06773 | 67° | 66km/h | 10912m | 4.6m/s | -44.1°C | 22.1% | 251.7hPa | 0V | 00:00:00 | 00:00:00 | 00:00:00 | |
| PU1XMG-16 | 2026-08-30 12:02:46 | -22.72749 | -43.06945 | 64° | 60km/h | 10850m | 6.6m/s | -43.5°C | 21.1% | 253.8hPa | 0V | 00:00:00 | 00:00:00 | 00:00:00 | |
| PU1XMG-16 | 2026-08-30 12:02:40 | -22.72797 | -43.07034 | 61° | 69km/h | 10816m | 6.8m/s | -43.2°C | 20.0% | 255.3hPa | 0V | 00:00:00 | 00:00:00 | 00:00:00 | |
| PU1XMG-16 | 2026-08-30 12:02:34 | -22.72845 | -43.07129 | 68° | 62km/h | 10782m | 6.1m/s | -42.8°C | 19.7% | 256.5hPa | 0V | 00:00:00 | 00:00:00 | 00:00:00 | |
| PU1XMG-16 | 2026-08-30 12:02:29 | -22.72888 | -43.07217 | 63° | 60km/h | 10751m | 4.1m/s | -42.5°C | 19.4% | 257.8hPa | 0V | 00:00:00 | 00:00:00 | 00:00:00 | |
| PU1XMG-16 | 2026-08-30 12:02:23 | -22.72924 | -43.07295 | 67° | 66km/h | 10727m | 4.9m/s | -42.3°C | 18.8% | 258.7hPa | 0V | 00:00:00 | 00:00:00 | 00:00:00 | |
| PU1XMG-16 | 2026-08-30 12:02:17 | -22.72969 | -43.07394 | 63° | 66km/h | 10696m | 4.2m/s | -42.0°C | 18.5% | 259.9hPa | 0V | 00:00:00 | 00:00:00 | 00:00:00 | |
| PU1XMG-16 | 2026-08-30 12:02:11 | -22.73015 | -43.07483 | 60° | 60km/h | 10665m | 6.7m/s | -41.7°C | 18.0% | 261.1hPa | 0V | 00:00:00 | 00:00:00 | 00:00:00 | |
| PU1XMG-16 | 2026-08-30 12:02:05 | -22.73062 | -43.07574 | 63° | 66km/h | 10636m | 6.0m/s | -41.4°C | 17.5% | 262.1hPa | 0V | 00:00:00 | 00:00:00 | 00:00:00 | |
| PU1XMG-16 | 2026-08-30 12:02:00 | -22.73104 | -43.07651 | 62° | 66km/h | 10610m | 4.0m/s | -41.1°C | 17.2% | 263.2hPa | 0V | 00:00:00 | 00:00:00 | 00:00:00 | |
| PU1XMG-16 | 2026-08-30 12:01:55 | -22.73140 | -43.07727 | 64° | 64km/h | 10585m | 5.5m/s | -40.9°C | 16.6% | 264.1hPa | 0V | 00:00:00 | 00:00:00 | 00:00:00 | |
| PU1XMG-16 | 2026-08-30 12:01:47 | -22.73206 | -43.07850 | 63° | 64km/h | 10545m | 5.2m/s | -40.6°C | 16.4% | 265.6hPa | 0V | 00:00:00 | 00:00:00 | 00:00:00 | |
| PU1XMG-16 | 2026-08-30 12:01:42 | -22.73248 | -43.07946 | 65° | 64km/h | 10517m | 6.5m/s | -40.3°C | 15.8% | 266.8hPa | 0V | 00:00:00 | 00:00:00 | 00:00:00 | |
| PU1XMG-16 | 2026-08-30 12:01:35 | -22.73301 | -43.08032 | 56° | 64km/h | 10485m | 4.3m/s | -40.0°C | 15.3% | 268.1hPa | 0V | 00:00:00 | 00:00:00 | 00:00:00 | |
| PU1XMG-16 | 2026-08-30 12:01:29 | -22.73349 | -43.08129 | 65° | 68km/h | 10454m | 6.3m/s | -39.7°C | 15.1% | 269.2hPa | 0V | 00:00:00 | 00:00:00 | 00:00:00 | |
| PU1XMG-16 | 2026-08-30 12:01:25 | -22.73386 | -43.08207 | 60° | 64km/h | 10429m | 4.7m/s | -39.4°C | 14.7% | 270.3hPa | 0V | 00:00:00 | 00:00:00 | 00:00:00 | |
| PU1XMG-16 | 2026-08-30 12:01:19 | -22.73428 | -43.08283 | 61° | 64km/h | 10402m | 5.9m/s | -39.2°C | 14.4% | 271.2hPa | 0V | 00:00:00 | 00:00:00 | 00:00:00 | |
| PU1XMG-16 | 2026-08-30 12:01:14 | -22.73467 | -43.08361 | 64° | 66km/h | 10375m | 6.2m/s | -38.9°C | 14.0% | 272.3hPa | 0V | 00:00:00 | 00:00:00 | 00:00:00 | |
| PU1XMG-16 | 2026-08-30 12:01:08 | -22.73519 | -43.08455 | 59° | 66km/h | 10345m | 6.2m/s | -38.6°C | 13.8% | 273.5hPa | 0V | 00:00:00 | 00:00:00 | 00:00:00 | |
| PU1XMG-16 | 2026-08-30 12:01:02 | -22.73564 | -43.08547 | 63° | 64km/h | 10316m | 7.3m/s | -38.3°C | 13.3% | 274.6hPa | 0V | 00:00:00 | 00:00:00 | 00:00:00 | |
| PU1XMG-16 | 2026-08-30 12:00:57 | -22.73619 | -43.08639 | 58° | 68km/h | 10287m | 4.7m/s | -38.0°C | 13.1% | 275.9hPa | 0V | 00:00:00 | 00:00:00 | 00:00:00 | |
| PU1XMG-16 | 2026-08-30 12:00:50 | -22.73666 | -43.08732 | 66° | 62km/h | 10258m | 4.1m/s | -37.7°C | 12.8% | 277.1hPa | 0V | 00:00:00 | 00:00:00 | 00:00:00 | |
| PU1XMG-16 | 2026-08-30 12:00:45 | -22.73704 | -43.08806 | 58° | 64km/h | 10232m | 6.3m/s | -37.5°C | 12.6% | 278.1hPa | 0V | 00:00:00 | 00:00:00 | 00:00:00 | |
| PU1XMG-16 | 2026-08-30 12:00:40 | -22.73758 | -43.08898 | 62° | 62km/h | 10203m | 3.5m/s | -37.2°C | 12.4% | 279.2hPa | 0V | 00:00:00 | 00:00:00 | 00:00:00 | |
| PU1XMG-16 | 2026-08-30 12:00:35 | -22.73792 | -43.08970 | 60° | 60km/h | 10179m | 4.8m/s | -37.0°C | 12.1% | 280.2hPa | 0V | 00:00:00 | 00:00:00 | 00:00:00 | |
| PU1XMG-16 | 2026-08-30 12:00:29 | -22.73837 | -43.09047 | 59° | 69km/h | 10154m | 5.8m/s | -36.7°C | 11.9% | 281.4hPa | 0V | 00:00:00 | 00:00:00 | 00:00:00 | |
| PU1XMG-16 | 2026-08-30 12:00:20 | -22.73909 | -43.09187 | 59° | 68km/h | 10110m | 7.0m/s | -36.3°C | 11.6% | 283.0hPa | 0V | 00:00:00 | 00:00:00 | 00:00:00 | |
| PU1XMG-16 | 2026-08-30 12:00:17 | -22.73953 | -43.09263 | 60° | 64km/h | 10087m | 5.2m/s | -36.1°C | 11.6% | 284.1hPa | 0V | 00:00:00 | 00:00:00 | 00:00:00 | |
| PU1XMG-16 | 2026-08-30 12:00:06 | -22.74027 | -43.09397 | 59° | 68km/h | 10043m | 4.5m/s | -35.8°C | 11.4% | 285.8hPa | 0V | 00:00:00 | 00:00:00 | 00:00:00 | |
| PU1XMG-16 | 2026-08-30 12:00:00 | -22.74073 | -43.09490 | 65° | 60km/h | 10014m | 4.5m/s | -35.5°C | 11.2% | 287.0hPa | 0V | 00:00:00 | 00:00:00 | 00:00:00 | |
| PU1XMG-16 | 2026-08-30 11:59:54 | -22.74121 | -43.09581 | 61° | 68km/h | 9985m | 3.3m/s | -35.3°C | 11.4% | 288.2hPa | 0V | 00:00:00 | 00:00:00 | 00:00:00 | |
| PU1XMG-16 | 2026-08-30 11:59:49 | -22.74162 | -43.09658 | 61° | 62km/h | 9960m | 4.8m/s | -35.1°C | 11.6% | 289.2hPa | 0V | 00:00:00 | 00:00:00 | 00:00:00 | |
| PU1XMG-16 | 2026-08-30 11:59:43 | -22.74208 | -43.09754 | 64° | 69km/h | 9930m | 3.4m/s | -35.0°C | 11.4% | 290.5hPa | 0V | 00:00:00 | 00:00:00 | 00:00:00 | |
| PU1XMG-16 | 2026-08-30 11:59:38 | -22.74248 | -43.09835 | 63° | 66km/h | 9905m | 6.3m/s | -34.8°C | 11.2% | 291.4hPa | 0V | 00:00:00 | 00:00:00 | 00:00:00 | |
| PU1XMG-16 | 2026-08-30 11:59:33 | -22.74284 | -43.09912 | 65° | 62km/h | 9883m | 5.6m/s | -34.6°C | 11.2% | 292.4hPa | 0V | 00:00:00 | 00:00:00 | 00:00:00 | |
| PU1XMG-16 | 2026-08-30 11:59:28 | -22.74319 | -43.09991 | 67° | 64km/h | 9860m | 5.7m/s | -34.4°C | 11.0% | 293.4hPa | 0V | 00:00:00 | 00:00:00 | 00:00:00 | |
| PU1XMG-16 | 2026-08-30 11:59:23 | -22.74360 | -43.10087 | 64° | 64km/h | 9831m | 4.3m/s | -34.1°C | 10.9% | 294.6hPa | 0V | 00:00:00 | 00:00:00 | 00:00:00 | |
| PU1XMG-16 | 2026-08-30 11:59:17 | -22.74397 | -43.10165 | 64° | 66km/h | 9807m | 4.7m/s | -33.9°C | 10.7% | 295.6hPa | 0V | 00:00:00 | 00:00:00 | 00:00:00 | |
| PU1XMG-16 | 2026-08-30 11:59:12 | -22.74435 | -43.10247 | 66° | 66km/h | 9784m | 5.2m/s | -33.7°C | 10.6% | 296.6hPa | 0V | 00:00:00 | 00:00:00 | 00:00:00 | |
| PU1XMG-16 | 2026-08-30 11:59:06 | -22.74477 | -43.10345 | 62° | 66km/h | 9755m | 6.6m/s | -33.4°C | 10.3% | 297.8hPa | 0V | 00:00:00 | 00:00:00 | 00:00:00 | |
| PU1XMG-16 | 2026-08-30 11:59:01 | -22.74518 | -43.10419 | 62° | 64km/h | 9730m | 4.1m/s | -33.2°C | 10.2% | 298.9hPa | 0V | 00:00:00 | 00:00:00 | 00:00:00 | |
| PU1XMG-16 | 2026-08-30 11:58:56 | -22.74556 | -43.10500 | 63° | 68km/h | 9707m | 4.5m/s | -32.9°C | 10.1% | 299.8hPa | 0V | 00:00:00 | 00:00:00 | 00:00:00 | |
| PU1XMG-16 | 2026-08-30 11:58:50 | -22.74600 | -43.10595 | 65° | 60km/h | 9677m | 4.5m/s | -32.7°C | 9.9% | 301.0hPa | 0V | 00:00:00 | 00:00:00 | 00:00:00 | |
| PU1XMG-16 | 2026-08-30 11:58:44 | -22.74645 | -43.10686 | 60° | 68km/h | 9648m | 4.6m/s | -32.4°C | 9.7% | 302.3hPa | 0V | 00:00:00 | 00:00:00 | 00:00:00 | |
| PU1XMG-16 | 2026-08-30 11:58:38 | -22.74693 | -43.10781 | 63° | 62km/h | 9619m | 6.2m/s | -32.2°C | 9.7% | 303.5hPa | 0V | 00:00:00 | 00:00:00 | 00:00:00 | |
| PU1XMG-16 | 2026-08-30 11:58:33 | -22.74729 | -43.10853 | 64° | 58km/h | 9594m | 5.9m/s | -32.0°C | 9.6% | 304.6hPa | 0V | 00:00:00 | 00:00:00 | 00:00:00 | |
| PU1XMG-16 | 2026-08-30 11:58:24 | -22.74803 | -43.10988 | 60° | 64km/h | 9550m | 5.2m/s | -31.5°C | 9.3% | 306.5hPa | 0V | 00:00:00 | 00:00:00 | 00:00:00 | |
| PU1XMG-16 | 2026-08-30 11:58:18 | -22.74850 | -43.11076 | 60° | 62km/h | 9520m | 4.5m/s | -31.3°C | 9.2% | 307.9hPa | 0V | 00:00:00 | 00:00:00 | 00:00:00 | |
| PU1XMG-16 | 2026-08-30 11:58:12 | -22.74901 | -43.11164 | 59° | 62km/h | 9491m | 6.1m/s | -31.0°C | 9.1% | 309.1hPa | 0V | 00:00:00 | 00:00:00 | 00:00:00 | |
| PU1XMG-16 | 2026-08-30 11:58:07 | -22.74940 | -43.11236 | 61° | 62km/h | 9467m | 5.6m/s | -30.8°C | 9.1% | 310.2hPa | 0V | 00:00:00 | 00:00:00 | 00:00:00 | |
| PU1XMG-16 | 2026-08-30 11:57:55 | -22.75039 | -43.11400 | 60° | 64km/h | 9408m | 4.7m/s | -30.3°C | 8.8% | 312.7hPa | 0V | 00:00:00 | 00:00:00 | 00:00:00 | |
| PU1XMG-16 | 2026-08-30 11:57:44 | -22.75138 | -43.11569 | 58° | 60km/h | 9349m | 5.7m/s | -29.8°C | 8.5% | 315.4hPa | 0V | 00:00:00 | 00:00:00 | 00:00:00 | |
| PU1XMG-16 | 2026-08-30 11:57:17 | -22.75354 | -43.11923 | 58° | 60km/h | 9221m | 4.6m/s | -28.6°C | 7.7% | 321.0hPa | 0V | 00:00:00 | 00:00:00 | 00:00:00 | |
| PU1XMG-16 | 2026-08-30 11:57:00 | -22.75485 | -43.12159 | 60° | 60km/h | 9134m | 5.1m/s | -27.8°C | 7.4% | 324.9hPa | 0V | 00:00:00 | 00:00:00 | 00:00:00 | |
| PU1XMG-16 | 2026-08-30 11:56:54 | -22.75534 | -43.12240 | 57° | 58km/h | 9104m | 4.8m/s | -27.5°C | 7.2% | 326.2hPa | 0V | 00:00:00 | 00:00:00 | 00:00:00 | |
| PU1XMG-16 | 2026-08-30 11:56:50 | -22.75571 | -43.12306 | 62° | 57km/h | 9080m | 7.0m/s | -27.3°C | 7.1% | 327.3hPa | 0V | 00:00:00 | 00:00:00 | 00:00:00 | |
| PU1XMG-16 | 2026-08-30 11:56:43 | -22.75613 | -43.12393 | 62° | 60km/h | 9050m | 5.9m/s | -27.1°C | 6.9% | 328.7hPa | 0V | 00:00:00 | 00:00:00 | 00:00:00 | |
| PU1XMG-16 | 2026-08-30 11:56:38 | -22.75649 | -43.12460 | 60° | 55km/h | 9026m | 5.8m/s | -26.8°C | 6.8% | 329.8hPa | 0V | 00:00:00 | 00:00:00 | 00:00:00 | |
| PU1XMG-16 | 2026-08-30 11:56:32 | -22.75692 | -43.12539 | 63° | 57km/h | 8995m | 5.7m/s | -26.6°C | 6.8% | 331.1hPa | 0V | 00:00:00 | 00:00:00 | 00:00:00 | |
| PU1XMG-16 | 2026-08-30 11:56:27 | -22.75728 | -43.12611 | 62° | 62km/h | 8972m | 3.5m/s | -26.3°C | 6.7% | 332.3hPa | 0V | 00:00:00 | 00:00:00 | 00:00:00 | |
| PU1XMG-16 | 2026-08-30 11:56:22 | -22.75766 | -43.12685 | 63° | 60km/h | 8948m | 5.5m/s | -26.1°C | 6.6% | 333.4hPa | 0V | 00:00:00 | 00:00:00 | 00:00:00 | |
| PU1XMG-16 | 2026-08-30 11:56:16 | -22.75806 | -43.12766 | 63° | 53km/h | 8918m | 5.9m/s | -25.9°C | 6.5% | 334.7hPa | 0V | 00:00:00 | 00:00:00 | 00:00:00 | |
| PU1XMG-16 | 2026-08-30 11:56:12 | -22.75843 | -43.12834 | 60° | 62km/h | 8894m | 3.7m/s | -25.7°C | 6.4% | 336.0hPa | 0V | 00:00:00 | 00:00:00 | 00:00:00 | |
| PU1XMG-16 | 2026-08-30 11:56:05 | -22.75889 | -43.12918 | 61° | 55km/h | 8864m | 4.0m/s | -25.5°C | 6.3% | 337.3hPa | 0V | 00:00:00 | 00:00:00 | 00:00:00 | |
| PU1XMG-16 | 2026-08-30 11:56:00 | -22.75924 | -43.12980 | 59° | 51km/h | 8839m | 6.6m/s | -25.3°C | 6.3% | 338.5hPa | 0V | 00:00:00 | 00:00:00 | 00:00:00 | |
| PU1XMG-16 | 2026-08-30 11:55:55 | -22.75962 | -43.13048 | 64° | 62km/h | 8813m | 6.5m/s | -25.1°C | 6.2% | 339.8hPa | 0V | 00:00:00 | 00:00:00 | 00:00:00 | |
| PU1XMG-16 | 2026-08-30 11:55:50 | -22.75995 | -43.13127 | 58° | 58km/h | 8786m | 4.9m/s | -24.9°C | 6.1% | 340.9hPa | 0V | 00:00:00 | 00:00:00 | 00:00:00 | |
| PU1XMG-16 | 2026-08-30 11:55:44 | -22.76057 | -43.13186 | 39° | 57km/h | 8750m | 5.9m/s | -24.7°C | 6.0% | 342.6hPa | 0V | 00:00:00 | 00:00:00 | 00:00:00 | |
| PU1XMG-16 | 2026-08-30 11:55:39 | -22.76099 | -43.13241 | 58° | 53km/h | 8722m | 7.6m/s | -24.4°C | 5.9% | 343.9hPa | 0V | 00:00:00 | 00:00:00 | 00:00:00 | |
| PU1XMG-16 | 2026-08-30 11:55:34 | -22.76151 | -43.13310 | 52° | 66km/h | 8685m | 6.8m/s | -24.0°C | 5.8% | 345.6hPa | 0V | 00:00:00 | 00:00:00 | 00:00:00 | |
| PU1XMG-16 | 2026-08-30 11:55:29 | -22.76190 | -43.13357 | 33° | 44km/h | 8651m | 7.0m/s | -23.8°C | 5.7% | 347.2hPa | 0V | 00:00:00 | 00:00:00 | 00:00:00 | |
| PU1XMG-16 | 2026-08-30 11:55:23 | -22.76256 | -43.13426 | 53° | 62km/h | 8617m | 3.1m/s | -23.4°C | 5.6% | 348.9hPa | 0V | 00:00:00 | 00:00:00 | 00:00:00 | |
| PU1XMG-16 | 2026-08-30 11:55:18 | -22.76306 | -43.13475 | 39° | 49km/h | 8587m | 8.7m/s | -23.1°C | 5.4% | 350.3hPa | 0V | 00:00:00 | 00:00:00 | 00:00:00 | |
| PU1XMG-16 | 2026-08-30 11:55:14 | -22.76353 | -43.13524 | 46° | 46km/h | 8559m | 6.0m/s | -22.9°C | 5.4% | 351.6hPa | 0V | 00:00:00 | 00:00:00 | 00:00:00 | |
| PU1XMG-16 | 2026-08-30 11:55:08 | -22.76399 | -43.13562 | 38° | 46km/h | 8536m | 7.0m/s | -22.7°C | 5.2% | 352.7hPa | 0V | 00:00:00 | 00:00:00 | 00:00:00 | |
| PU1XMG-16 | 2026-08-30 11:55:02 | -22.76458 | -43.13614 | 35° | 51km/h | 8502m | 5.3m/s | -22.7°C | 4.6% | 354.3hPa | 0V | 00:00:00 | 00:00:00 | 00:00:00 | |
| PU1XMG-16 | 2026-08-30 11:54:56 | -22.76522 | -43.13662 | 36° | 51km/h | 8476m | 5.5m/s | -22.5°C | 4.5% | 355.6hPa | 0V | 00:00:00 | 00:00:00 | 00:00:00 | |
| PU1XMG-16 | 2026-08-30 11:54:51 | -22.76573 | -43.13704 | 39° | 53km/h | 8452m | 6.3m/s | -22.3°C | 4.6% | 356.7hPa | 0V | 00:00:00 | 00:00:00 | 00:00:00 | |
| PU1XMG-16 | 2026-08-30 11:54:45 | -22.76637 | -43.13759 | 40° | 53km/h | 8423m | 5.2m/s | -22.1°C | 4.5% | 358.1hPa | 0V | 00:00:00 | 00:00:00 | 00:00:00 | |
| PU1XMG-16 | 2026-08-30 11:54:40 | -22.76687 | -43.13801 | 41° | 49km/h | 8401m | 5.2m/s | -21.9°C | 4.5% | 359.2hPa | 0V | 00:00:00 | 00:00:00 | 00:00:00 | |
| PU1XMG-16 | 2026-08-30 11:54:34 | -22.76743 | -43.13856 | 40° | 51km/h | 8373m | 3.1m/s | -21.7°C | 4.5% | 360.5hPa | 0V | 00:00:00 | 00:00:00 | 00:00:00 | |
| PU1XMG-16 | 2026-08-30 11:54:29 | -22.76795 | -43.13899 | 39° | 51km/h | 8349m | 5.9m/s | -21.5°C | 4.6% | 361.7hPa | 0V | 00:00:00 | 00:00:00 | 00:00:00 | |
| PU1XMG-16 | 2026-08-30 11:54:23 | -22.76851 | -43.13953 | 47° | 49km/h | 8323m | 5.4m/s | -21.4°C | 4.6% | 363.1hPa | 0V | 00:00:00 | 00:00:00 | 00:00:00 | |
| PU1XMG-16 | 2026-08-30 11:54:18 | -22.76894 | -43.14003 | 47° | 49km/h | 8300m | 4.8m/s | -21.3°C | 4.7% | 364.3hPa | 0V | 00:00:00 | 00:00:00 | 00:00:00 | |
| PU1XMG-16 | 2026-08-30 11:54:12 | -22.76950 | -43.14057 | 41° | 49km/h | 8273m | 3.9m/s | -21.1°C | 4.6% | 365.6hPa | 0V | 00:00:00 | 00:00:00 | 00:00:00 | |
| PU1XMG-16 | 2026-08-30 11:54:07 | -22.76993 | -43.14104 | 51° | 47km/h | 8248m | 5.7m/s | -21.0°C | 4.5% | 366.7hPa | 0V | 00:00:00 | 00:00:00 | 00:00:00 | |
| PU1XMG-16 | 2026-08-30 11:54:01 | -22.77039 | -43.14161 | 50° | 46km/h | 8218m | 6.5m/s | -20.9°C | 4.5% | 368.1hPa | 0V | 00:00:00 | 00:00:00 | 00:00:00 | |
| PU1XMG-16 | 2026-08-30 11:53:56 | -22.77081 | -43.14207 | 44° | 47km/h | 8192m | 4.9m/s | -20.8°C | 4.6% | 369.4hPa | 0V | 00:00:00 | 00:00:00 | 00:00:00 | |
| PU1XMG-16 | 2026-08-30 11:53:50 | -22.77132 | -43.14263 | 48° | 47km/h | 8162m | 4.8m/s | -20.6°C | 4.6% | 370.9hPa | 0V | 00:00:00 | 00:00:00 | 00:00:00 | |
| PU1XMG-16 | 2026-08-30 11:53:45 | -22.77177 | -43.14310 | 48° | 49km/h | 8141m | 4.3m/s | -20.4°C | 4.6% | 372.2hPa | 0V | 00:00:00 | 00:00:00 | 00:00:00 | |
| PU1XMG-16 | 2026-08-30 11:53:39 | -22.77231 | -43.14375 | 49° | 55km/h | 8110m | 4.6m/s | -20.2°C | 4.6% | 373.6hPa | 0V | 00:00:00 | 00:00:00 | 00:00:00 | |
| PU1XMG-16 | 2026-08-30 11:53:33 | -22.77280 | -43.14440 | 53° | 47km/h | 8082m | 5.5m/s | -20.0°C | 4.8% | 375.1hPa | 0V | 00:00:00 | 00:00:00 | 00:00:00 | |
| PU1XMG-16 | 2026-08-30 11:53:28 | -22.77316 | -43.14490 | 58° | 47km/h | 8058m | 4.2m/s | -19.9°C | 4.9% | 376.4hPa | 0V | 00:00:00 | 00:00:00 | 00:00:00 | |
| PU1XMG-16 | 2026-08-30 11:53:23 | -22.77357 | -43.14553 | 55° | 46km/h | 8028m | 6.1m/s | -19.7°C | 4.8% | 377.8hPa | 0V | 00:00:00 | 00:00:00 | 00:00:00 | |
| PU1XMG-16 | 2026-08-30 11:53:16 | -22.77395 | -43.14619 | 62° | 49km/h | 7996m | 5.7m/s | -19.4°C | 4.7% | 379.5hPa | 0V | 00:00:00 | 00:00:00 | 00:00:00 | |
| PU1XMG-16 | 2026-08-30 11:53:10 | -22.77436 | -43.14693 | 61° | 55km/h | 7966m | 5.4m/s | -19.2°C | 4.7% | 380.9hPa | 0V | 00:00:00 | 00:00:00 | 00:00:00 | |
| PU1XMG-16 | 2026-08-30 11:53:04 | -22.77478 | -43.14767 | 58° | 53km/h | 7937m | 3.8m/s | -18.9°C | 4.8% | 382.4hPa | 0V | 00:00:00 | 00:00:00 | 00:00:00 | |
| PU1XMG-16 | 2026-08-30 11:52:58 | -22.77521 | -43.14839 | 63° | 51km/h | 7906m | 2.4m/s | -18.7°C | 4.7% | 383.9hPa | 0V | 00:00:00 | 00:00:00 | 00:00:00 | |
| PU1XMG-16 | 2026-08-30 11:52:54 | -22.77549 | -43.14899 | 61° | 49km/h | 7885m | 4.9m/s | -18.5°C | 4.7% | 385.1hPa | 0V | 00:00:00 | 00:00:00 | 00:00:00 | |
| PU1XMG-16 | 2026-08-30 11:52:47 | -22.77589 | -43.14973 | 60° | 51km/h | 7853m | 3.1m/s | -18.2°C | 4.6% | 386.8hPa | 0V | 00:00:00 | 00:00:00 | 00:00:00 | |
| PU1XMG-16 | 2026-08-30 11:52:41 | -22.77627 | -43.15045 | 60° | 49km/h | 7822m | 4.1m/s | -18.0°C | 4.7% | 388.2hPa | 0V | 00:00:00 | 00:00:00 | 00:00:00 | |
| PU1XMG-16 | 2026-08-30 11:52:36 | -22.77664 | -43.15107 | 58° | 60km/h | 7797m | 6.2m/s | -17.9°C | 4.8% | 389.6hPa | 0V | 00:00:00 | 00:00:00 | 00:00:00 | |
| PU1XMG-16 | 2026-08-30 11:52:30 | -22.77708 | -43.15186 | 59° | 51km/h | 7767m | 7.2m/s | -17.9°C | 5.0% | 391.3hPa | 0V | 00:00:00 | 00:00:00 | 00:00:00 | |
| PU1XMG-16 | 2026-08-30 11:52:24 | -22.77745 | -43.15262 | 63° | 55km/h | 7731m | 3.5m/s | -17.9°C | 5.3% | 393.1hPa | 0V | 00:00:00 | 00:00:00 | 00:00:00 | |
| PU1XMG-16 | 2026-08-30 11:52:19 | -22.77776 | -43.15325 | 64° | 51km/h | 7708m | 3.7m/s | -17.8°C | 5.6% | 394.3hPa | 0V | 00:00:00 | 00:00:00 | 00:00:00 | |
| PU1XMG-16 | 2026-08-30 11:52:14 | -22.77806 | -43.15390 | 60° | 57km/h | 7686m | 5.7m/s | -17.8°C | 5.7% | 395.6hPa | 0V | 00:00:00 | 00:00:00 | 00:00:00 | |
| PU1XMG-16 | 2026-08-30 11:52:08 | -22.77856 | -43.15465 | 48° | 57km/h | 7659m | 3.5m/s | -17.7°C | 5.5% | 396.9hPa | 0V | 00:00:00 | 00:00:00 | 00:00:00 | |
| PU1XMG-16 | 2026-08-30 11:52:03 | -22.77899 | -43.15546 | 66° | 62km/h | 7622m | 8.4m/s | -17.5°C | 5.1% | 398.9hPa | 0V | 00:00:00 | 00:00:00 | 00:00:00 | |
| PU1XMG-16 | 2026-08-30 11:51:57 | -22.77935 | -43.15619 | 60° | 57km/h | 7593m | 3.9m/s | -17.3°C | 5.1% | 400.5hPa | 0V | 00:00:00 | 00:00:00 | 00:00:00 | |
| PU1XMG-16 | 2026-08-30 11:51:52 | -22.77971 | -43.15682 | 57° | 62km/h | 7570m | 4.1m/s | -17.1°C | 4.9% | 401.8hPa | 0V | 00:00:00 | 00:00:00 | 00:00:00 | |
| PU1XMG-16 | 2026-08-30 11:51:47 | -22.78015 | -43.15752 | 59° | 60km/h | 7546m | 5.0m/s | -17.0°C | 4.8% | 403.1hPa | 0V | 00:00:00 | 00:00:00 | 00:00:00 | |
| PU1XMG-16 | 2026-08-30 11:51:41 | -22.78058 | -43.15835 | 63° | 57km/h | 7519m | 4.0m/s | -16.7°C | 4.7% | 404.7hPa | 0V | 00:00:00 | 00:00:00 | 00:00:00 | |
| PU1XMG-16 | 2026-08-30 11:51:36 | -22.78102 | -43.15924 | 59° | 66km/h | 7485m | 6.4m/s | -16.5°C | 4.6% | 406.3hPa | 0V | 00:00:00 | 00:00:00 | 00:00:00 | |
| PU1XMG-16 | 2026-08-30 11:51:30 | -22.78145 | -43.15992 | 59° | 58km/h | 7458m | 4.6m/s | -16.3°C | 4.5% | 407.7hPa | 0V | 00:00:00 | 00:00:00 | 00:00:00 | |
| PU1XMG-16 | 2026-08-30 11:51:25 | -22.78182 | -43.16082 | 65° | 64km/h | 7428m | 3.0m/s | -16.1°C | 4.4% | 409.2hPa | 0V | 00:00:00 | 00:00:00 | 00:00:00 | |
| PU1XMG-16 | 2026-08-30 11:51:19 | -22.78221 | -43.16152 | 61° | 58km/h | 7398m | 3.1m/s | -15.9°C | 4.3% | 410.9hPa | 0V | 00:00:00 | 00:00:00 | 00:00:00 | |
| PU1XMG-16 | 2026-08-30 11:51:14 | -22.78267 | -43.16232 | 61° | 53km/h | 7368m | 5.6m/s | -15.8°C | 4.4% | 412.5hPa | 0V | 00:00:00 | 00:00:00 | 00:00:00 | |
| PU1XMG-16 | 2026-08-30 11:51:07 | -22.78313 | -43.16315 | 60° | 64km/h | 7341m | 5.5m/s | -15.6°C | 4.5% | 414.0hPa | 0V | 00:00:00 | 00:00:00 | 00:00:00 | |
| PU1XMG-16 | 2026-08-30 11:51:02 | -22.78354 | -43.16386 | 58° | 64km/h | 7317m | 7.6m/s | -15.5°C | 4.5% | 415.4hPa | 0V | 00:00:00 | 00:00:00 | 00:00:00 | |
| PU1XMG-16 | 2026-08-30 11:50:56 | -22.78405 | -43.16466 | 53° | 58km/h | 7286m | 5.7m/s | -15.3°C | 4.4% | 417.1hPa | 0V | 00:00:00 | 00:00:00 | 00:00:00 | |
| PU1XMG-16 | 2026-08-30 11:50:51 | -22.78451 | -43.16530 | 54° | 60km/h | 7263m | 5.5m/s | -15.2°C | 4.6% | 418.4hPa | 0V | 00:00:00 | 00:00:00 | 00:00:00 | |
| PU1XMG-16 | 2026-08-30 11:50:45 | -22.78506 | -43.16612 | 53° | 60km/h | 7237m | 4.9m/s | -15.1°C | 5.4% | 419.8hPa | 0V | 00:00:00 | 00:00:00 | 00:00:00 | |
| PU1XMG-16 | 2026-08-30 11:50:39 | -22.78563 | -43.16691 | 50° | 62km/h | 7208m | 7.1m/s | -14.8°C | 5.4% | 421.4hPa | 0V | 00:00:00 | 00:00:00 | 00:00:00 | |
| PU1XMG-16 | 2026-08-30 11:50:34 | -22.78616 | -43.16762 | 54° | 71km/h | 7182m | 3.7m/s | -14.6°C | 5.4% | 423.0hPa | 0V | 00:00:00 | 00:00:00 | 00:00:00 | |
| PU1XMG-16 | 2026-08-30 11:50:29 | -22.78669 | -43.16835 | 52° | 66km/h | 7158m | 5.8m/s | -14.4°C | 5.1% | 424.1hPa | 0V | 00:00:00 | 00:00:00 | 00:00:00 | |
| PU1XMG-16 | 2026-08-30 11:50:23 | -22.78737 | -43.16916 | 49° | 69km/h | 7132m | 5.3m/s | -14.2°C | 4.6% | 425.7hPa | 0V | 00:00:00 | 00:00:00 | 00:00:00 | |
| PU1XMG-16 | 2026-08-30 11:50:17 | -22.78803 | -43.17002 | 52° | 64km/h | 7103m | 5.9m/s | -13.9°C | 4.5% | 427.4hPa | 0V | 00:00:00 | 00:00:00 | 00:00:00 | |
| PU1XMG-16 | 2026-08-30 11:50:11 | -22.78862 | -43.17078 | 49° | 57km/h | 7073m | 5.6m/s | -13.6°C | 4.2% | 428.9hPa | 0V | 00:00:00 | 00:00:00 | 00:00:00 | |
| PU1XMG-16 | 2026-08-30 11:50:06 | -22.78912 | -43.17141 | 53° | 64km/h | 7050m | 6.1m/s | -13.4°C | 3.9% | 430.2hPa | 0V | 00:00:00 | 00:00:00 | 00:00:00 | |
| PU1XMG-16 | 2026-08-30 11:50:01 | -22.78964 | -43.17211 | 49° | 58km/h | 7025m | 3.9m/s | -13.2°C | 3.8% | 431.6hPa | 0V | 00:00:00 | 00:00:00 | 00:00:00 | |
| PU1XMG-16 | 2026-08-30 11:49:55 | -22.79035 | -43.17288 | 54° | 73km/h | 7002m | 6.6m/s | -13.1°C | 3.5% | 433.0hPa | 0V | 00:00:00 | 00:00:00 | 00:00:00 | |
| PU1XMG-16 | 2026-08-30 11:49:49 | -22.79090 | -43.17382 | 60° | 62km/h | 6957m | 6.3m/s | -12.8°C | 3.6% | 435.6hPa | 0V | 00:00:00 | 00:00:00 | 00:00:00 | |
| PU1XMG-16 | 2026-08-30 11:49:45 | -22.79140 | -43.17456 | 51° | 71km/h | 6928m | 5.3m/s | -12.6°C | 3.8% | 437.1hPa | 0V | 00:00:00 | 00:00:00 | 00:00:00 | |
| PU1XMG-16 | 2026-08-30 11:49:39 | -22.79189 | -43.17531 | 59° | 64km/h | 6899m | 4.8m/s | -12.4°C | 3.8% | 438.8hPa | 0V | 00:00:00 | 00:00:00 | 00:00:00 | |
| PU1XMG-16 | 2026-08-30 11:49:34 | -22.79234 | -43.17600 | 58° | 62km/h | 6868m | 4.1m/s | -12.1°C | 4.0% | 440.6hPa | 0V | 00:00:00 | 00:00:00 | 00:00:00 | |
| PU1XMG-16 | 2026-08-30 11:49:28 | -22.79286 | -43.17680 | 55° | 55km/h | 6838m | 4.3m/s | -11.9°C | 4.3% | 442.5hPa | 0V | 00:00:00 | 00:00:00 | 00:00:00 | |
| PU1XMG-16 | 2026-08-30 11:49:22 | -22.79335 | -43.17758 | 56° | 60km/h | 6811m | 5.0m/s | -11.7°C | 4.6% | 444.0hPa | 0V | 00:00:00 | 00:00:00 | 00:00:00 | |
| PU1XMG-16 | 2026-08-30 11:49:16 | -22.79393 | -43.17839 | 48° | 66km/h | 6783m | 5.8m/s | -11.5°C | 5.1% | 445.6hPa | 0V | 00:00:00 | 00:00:00 | 00:00:00 | |
| PU1XMG-16 | 2026-08-30 11:49:10 | -22.79451 | -43.17908 | 55° | 57km/h | 6744m | 10.4m/s | -11.3°C | 5.8% | 447.7hPa | 0V | 00:00:00 | 00:00:00 | 00:00:00 | |
| PU1XMG-16 | 2026-08-30 11:49:05 | -22.79489 | -43.17967 | 64° | 42km/h | 6706m | 5.5m/s | -11.0°C | 5.7% | 450.1hPa | 0V | 00:00:00 | 00:00:00 | 00:00:00 | |
| PU1XMG-16 | 2026-08-30 11:49:00 | -22.79516 | -43.18010 | 51° | 46km/h | 6680m | 4.6m/s | -10.9°C | 5.7% | 451.7hPa | 0V | 00:00:00 | 00:00:00 | 00:00:00 | |
| PU1XMG-16 | 2026-08-30 11:48:55 | -22.79572 | -43.18065 | 30° | 53km/h | 6647m | 6.7m/s | -11.2°C | 15.4% | 453.6hPa | 0V | 00:00:00 | 00:00:00 | 00:00:00 | |
| PU1XMG-16 | 2026-08-30 11:48:48 | -22.79632 | -43.18114 | 50° | 51km/h | 6615m | 9.4m/s | -11.2°C | 22.1% | 455.6hPa | 0V | 00:00:00 | 00:00:00 | 00:00:00 | |
| PU1XMG-16 | 2026-08-30 11:48:38 | -22.79719 | -43.18206 | 39° | 49km/h | 6555m | 5.4m/s | -10.8°C | 18.9% | 459.1hPa | 0V | 00:00:00 | 00:00:00 | 00:00:00 | |
| PU1XMG-16 | 2026-08-30 11:48:33 | -22.79760 | -43.18242 | 51° | 42km/h | 6525m | 7.1m/s | -10.6°C | 18.4% | 460.7hPa | 0V | 00:00:00 | 00:00:00 | 00:00:00 | |
| PU1XMG-16 | 2026-08-30 11:48:27 | -22.79787 | -43.18300 | 67° | 37km/h | 6495m | 4.0m/s | -10.3°C | 14.1% | 462.6hPa | 0V | 00:00:00 | 00:00:00 | 00:00:00 | |
| PU1XMG-16 | 2026-08-30 11:48:22 | -22.79810 | -43.18348 | 60° | 37km/h | 6468m | 7.4m/s | -10.0°C | 11.9% | 464.2hPa | 0V | 00:00:00 | 00:00:00 | 00:00:00 | |
| PU1XMG-16 | 2026-08-30 11:48:17 | -22.79834 | -43.18388 | 57° | 35km/h | 6444m | 3.5m/s | -9.8°C | 11.5% | 465.7hPa | 0V | 00:00:00 | 00:00:00 | 00:00:00 | |
| PU1XMG-16 | 2026-08-30 11:48:11 | -22.79867 | -43.18439 | 44° | 31km/h | 6411m | 5.3m/s | -9.5°C | 10.7% | 467.7hPa | 0V | 00:00:00 | 00:00:00 | 00:00:00 | |
| PU1XMG-16 | 2026-08-30 11:48:05 | -22.79903 | -43.18484 | 58° | 44km/h | 6378m | 5.2m/s | -9.3°C | 10.1% | 469.7hPa | 0V | 00:00:00 | 00:00:00 | 00:00:00 | |
| PU1XMG-16 | 2026-08-30 11:48:00 | -22.79923 | -43.18536 | 79° | 42km/h | 6354m | 5.9m/s | -9.2°C | 10.5% | 471.0hPa | 0V | 00:00:00 | 00:00:00 | 00:00:00 | |
| PU1XMG-16 | 2026-08-30 11:47:56 | -22.79944 | -43.18579 | 48° | 31km/h | 6327m | 6.8m/s | -9.0°C | 9.4% | 472.6hPa | 0V | 00:00:00 | 00:00:00 | 00:00:00 | |
| PU1XMG-16 | 2026-08-30 11:47:49 | -22.79975 | -43.18621 | 46° | 33km/h | 6293m | 4.4m/s | -8.7°C | 11.0% | 474.9hPa | 0V | 00:00:00 | 00:00:00 | 00:00:00 | |
| PU1XMG-16 | 2026-08-30 11:47:43 | -22.80020 | -43.18664 | 48° | 40km/h | 6265m | 4.3m/s | -8.5°C | 11.5% | 476.5hPa | 0V | 00:00:00 | 00:00:00 | 00:00:00 | |
| PU1XMG-16 | 2026-08-30 11:47:32 | -22.80084 | -43.18745 | 42° | 35km/h | 6208m | 5.1m/s | -8.0°C | 9.4% | 480.1hPa | 0V | 00:00:00 | 00:00:00 | 00:00:00 | |
| PU1XMG-16 | 2026-08-30 11:47:27 | -22.80122 | -43.18782 | 46° | 40km/h | 6184m | 5.5m/s | -7.8°C | 8.1% | 481.4hPa | 0V | 00:00:00 | 00:00:00 | 00:00:00 | |
| PU1XMG-16 | 2026-08-30 11:47:21 | -22.80166 | -43.18827 | 45° | 38km/h | 6151m | 7.2m/s | -7.5°C | 6.1% | 483.3hPa | 0V | 00:00:00 | 00:00:00 | 00:00:00 | |
| PU1XMG-16 | 2026-08-30 11:47:17 | -22.80208 | -43.18866 | 40° | 47km/h | 6123m | 6.2m/s | -7.3°C | 4.3% | 485.1hPa | 0V | 00:00:00 | 00:00:00 | 00:00:00 | |
| PU1XMG-16 | 2026-08-30 11:47:12 | -22.80254 | -43.18907 | 50° | 46km/h | 6096m | 7.2m/s | -7.2°C | 4.4% | 486.7hPa | 0V | 00:00:00 | 00:00:00 | 00:00:00 | |
| PU1XMG-16 | 2026-08-30 11:47:06 | -22.80288 | -43.18954 | 57° | 38km/h | 6067m | 5.0m/s | -7.0°C | 6.3% | 488.7hPa | 0V | 00:00:00 | 00:00:00 | 00:00:00 | |
| PU1XMG-16 | 2026-08-30 11:47:00 | -22.80334 | -43.18989 | 24° | 40km/h | 6041m | 3.4m/s | -7.0°C | 13.4% | 490.5hPa | 0V | 00:00:00 | 00:00:00 | 00:00:00 | |
| PU1XMG-16 | 2026-08-30 11:46:54 | -22.80371 | -43.19036 | 73° | 40km/h | 6002m | 6.5m/s | -7.2°C | 18.1% | 492.9hPa | 0V | 00:00:00 | 00:00:00 | 00:00:00 | |
| PU1XMG-16 | 2026-08-30 11:46:48 | -22.80398 | -43.19077 | 46° | 29km/h | 5966m | 7.7m/s | -7.3°C | 18.9% | 495.2hPa | 0V | 00:00:00 | 00:00:00 | 00:00:00 | |
| PU1XMG-16 | 2026-08-30 11:46:42 | -22.80425 | -43.19114 | 62° | 42km/h | 5921m | 6.0m/s | -7.1°C | 20.2% | 498.1hPa | 0V | 00:00:00 | 00:00:00 | 00:00:00 | |
| PU1XMG-16 | 2026-08-30 11:46:37 | -22.80454 | -43.19171 | 59° | 44km/h | 5896m | 4.5m/s | -6.9°C | 22.0% | 499.6hPa | 0V | 00:00:00 | 00:00:00 | 00:00:00 | |
| PU1XMG-16 | 2026-08-30 11:46:31 | -22.80487 | -43.19230 | 63° | 47km/h | 5855m | 5.7m/s | -6.7°C | 24.5% | 502.2hPa | 0V | 00:00:00 | 00:00:00 | 00:00:00 | |
| PU1XMG-16 | 2026-08-30 11:46:26 | -22.80502 | -43.19278 | 83° | 33km/h | 5827m | 7.0m/s | -6.5°C | 22.9% | 504.0hPa | 0V | 00:00:00 | 00:00:00 | 00:00:00 | |
| PU1XMG-16 | 2026-08-30 11:46:21 | -22.80511 | -43.19321 | 62° | 31km/h | 5802m | 6.0m/s | -6.2°C | 22.2% | 505.7hPa | 0V | 00:00:00 | 00:00:00 | 00:00:00 | |
| PU1XMG-16 | 2026-08-30 11:46:16 | -22.80532 | -43.19355 | 54° | 33km/h | 5769m | 2.9m/s | -5.9°C | 18.6% | 507.9hPa | 0V | 00:00:00 | 00:00:00 | 00:00:00 | |
| PU1XMG-16 | 2026-08-30 11:46:11 | -22.80556 | -43.19405 | 70° | 40km/h | 5743m | 3.8m/s | -5.8°C | 14.2% | 509.6hPa | 0V | 00:00:00 | 00:00:00 | 00:00:00 | |
| PU1XMG-16 | 2026-08-30 11:46:05 | -22.80564 | -43.19450 | 73° | 27km/h | 5717m | 6.8m/s | -5.9°C | 21.0% | 511.1hPa | 0V | 00:00:00 | 00:00:00 | 00:00:00 | |
| PU1XMG-16 | 2026-08-30 11:46:00 | -22.80578 | -43.19495 | 85° | 35km/h | 5685m | 8.2m/s | -5.8°C | 27.3% | 513.0hPa | 0V | 00:00:00 | 00:00:00 | 00:00:00 | |
| PU1XMG-16 | 2026-08-30 11:45:55 | -22.80580 | -43.19529 | 79° | 27km/h | 5657m | 6.0m/s | -5.7°C | 30.7% | 514.9hPa | 0V | 00:00:00 | 00:00:00 | 00:00:00 | |
| PU1XMG-16 | 2026-08-30 11:45:49 | -22.80604 | -43.19583 | 59° | 33km/h | 5623m | 5.3m/s | -5.4°C | 32.8% | 517.4hPa | 0V | 00:00:00 | 00:00:00 | 00:00:00 | |
| PU1XMG-16 | 2026-08-30 11:45:44 | -22.80605 | -43.19628 | 107° | 37km/h | 5587m | 5.6m/s | -5.1°C | 34.7% | 519.9hPa | 0V | 00:00:00 | 00:00:00 | 00:00:00 | |
| PU1XMG-16 | 2026-08-30 11:45:39 | -22.80595 | -43.19673 | 89° | 26km/h | 5562m | 6.8m/s | -5.0°C | 31.5% | 521.3hPa | 0V | 00:00:00 | 00:00:00 | 00:00:00 | |
| PU1XMG-16 | 2026-08-30 11:45:33 | -22.80598 | -43.19715 | 91° | 37km/h | 5520m | 5.5m/s | -5.0°C | 43.4% | 524.1hPa | 0V | 00:00:00 | 00:00:00 | 00:00:00 | |
| PU1XMG-16 | 2026-08-30 11:45:28 | -22.80597 | -43.19750 | 83° | 16km/h | 5495m | 4.5m/s | -5.0°C | 48.1% | 525.8hPa | 0V | 00:00:00 | 00:00:00 | 00:00:00 | |
| PU1XMG-16 | 2026-08-30 11:45:23 | -22.80610 | -43.19789 | 71° | 44km/h | 5471m | 5.8m/s | -4.8°C | 48.5% | 527.5hPa | 0V | 00:00:00 | 00:00:00 | 00:00:00 | |
| PU1XMG-16 | 2026-08-30 11:45:17 | -22.80610 | -43.19842 | 91° | 27km/h | 5432m | 6.0m/s | -4.5°C | 44.5% | 530.1hPa | 0V | 00:00:00 | 00:00:00 | 00:00:00 | |
| PU1XMG-16 | 2026-08-30 11:45:12 | -22.80620 | -43.19877 | 75° | 37km/h | 5399m | 3.8m/s | -4.1°C | 21.5% | 532.3hPa | 0V | 00:00:00 | 00:00:00 | 00:00:00 | |
| PU1XMG-16 | 2026-08-30 11:45:07 | -22.80635 | -43.19930 | 84° | 33km/h | 5376m | 4.5m/s | -3.8°C | 16.3% | 534.1hPa | 0V | 00:00:00 | 00:00:00 | 00:00:00 | |
| PU1XMG-16 | 2026-08-30 11:45:02 | -22.80646 | -43.19966 | 55° | 26km/h | 5339m | 4.3m/s | -3.5°C | 13.7% | 536.3hPa | 0V | 00:00:00 | 00:00:00 | 00:00:00 | |
| PU1XMG-16 | 2026-08-30 11:44:55 | -22.80655 | -43.20013 | 101° | 37km/h | 5303m | 7.2m/s | -3.3°C | 13.9% | 538.7hPa | 0V | 00:00:00 | 00:00:00 | 00:00:00 | |
| PU1XMG-16 | 2026-08-30 11:44:49 | -22.80656 | -43.20083 | 86° | 40km/h | 5264m | 4.4m/s | -3.6°C | 18.6% | 541.4hPa | 0V | 00:00:00 | 00:00:00 | 00:00:00 | |
| PU1XMG-16 | 2026-08-30 11:44:40 | -22.80650 | -43.20159 | 85° | 26km/h | 5206m | 5.0m/s | -3.5°C | 19.9% | 545.3hPa | 0V | 00:00:00 | 00:00:00 | 00:00:00 | |
| PU1XMG-16 | 2026-08-30 11:44:34 | -22.80648 | -43.20200 | 97° | 22km/h | 5169m | 6.6m/s | -3.4°C | 26.2% | 547.7hPa | 0V | 00:00:00 | 00:00:00 | 00:00:00 | |
| PU1XMG-16 | 2026-08-30 11:44:28 | -22.80655 | -43.20235 | 83° | 26km/h | 5135m | 5.6m/s | -3.4°C | 36.2% | 550.0hPa | 0V | 00:00:00 | 00:00:00 | 00:00:00 | |
| PU1XMG-16 | 2026-08-30 11:44:22 | -22.80661 | -43.20276 | 111° | 15km/h | 5099m | 5.6m/s | -3.2°C | 39.0% | 552.7hPa | 0V | 00:00:00 | 00:00:00 | 00:00:00 | |
| PU1XMG-16 | 2026-08-30 11:44:16 | -22.80662 | -43.20298 | 61° | 16km/h | 5062m | 8.7m/s | -2.9°C | 41.5% | 555.2hPa | 0V | 00:00:00 | 00:00:00 | 00:00:00 | |
| PU1XMG-16 | 2026-08-30 11:44:11 | -22.80678 | -43.20318 | 50° | 16km/h | 5028m | 5.1m/s | -2.7°C | 47.3% | 557.6hPa | 0V | 00:00:00 | 00:00:00 | 00:00:00 | |
| PU1XMG-16 | 2026-08-30 11:44:05 | -22.80701 | -43.20335 | 41° | 26km/h | 4998m | 3.0m/s | -2.6°C | 54.4% | 559.7hPa | 0V | 00:00:00 | 00:00:00 | 00:00:00 | |
| PU1XMG-16 | 2026-08-30 11:44:00 | -22.80715 | -43.20373 | 86° | 33km/h | 4971m | 6.5m/s | -2.4°C | 59.0% | 561.7hPa | 0V | 00:00:00 | 00:00:00 | 00:00:00 | |
| PU1XMG-16 | 2026-08-30 11:43:54 | -22.80719 | -43.20406 | 77° | 13km/h | 4934m | 9.1m/s | -2.1°C | 58.6% | 564.0hPa | 0V | 00:00:00 | 00:00:00 | 00:00:00 | |
| PU1XMG-16 | 2026-08-30 11:43:49 | -22.80725 | -43.20423 | 49° | 15km/h | 4904m | 6.8m/s | -2.1°C | 67.4% | 566.1hPa | 0V | 00:00:00 | 00:00:00 | 00:00:00 | |
| PU1XMG-16 | 2026-08-30 11:43:43 | -22.80743 | -43.20443 | 43° | 29km/h | 4861m | 7.9m/s | -2.1°C | 71.1% | 569.2hPa | 0V | 00:00:00 | 00:00:00 | 00:00:00 | |
| PU1XMG-16 | 2026-08-30 11:43:34 | -22.80786 | -43.20515 | 85° | 27km/h | 4812m | 6.2m/s | -2.0°C | 71.6% | 573.1hPa | 0V | 00:00:00 | 00:00:00 | 00:00:00 | |
| PU1XMG-16 | 2026-08-30 11:43:29 | -22.80791 | -43.20536 | 68° | 9km/h | 4775m | 4.9m/s | -1.9°C | 74.1% | 575.8hPa | 0V | 00:00:00 | 00:00:00 | 00:00:00 | |
| PU1XMG-16 | 2026-08-30 11:43:22 | -22.80808 | -43.20556 | 79° | 24km/h | 4738m | 9.1m/s | -1.8°C | 73.1% | 578.3hPa | 0V | 00:00:00 | 00:00:00 | 00:00:00 | |
| PU1XMG-16 | 2026-08-30 11:43:16 | -22.80800 | -43.20590 | 90° | 16km/h | 4697m | 6.2m/s | -1.5°C | 73.3% | 581.3hPa | 0V | 00:00:00 | 00:00:00 | 00:00:00 | |
| PU1XMG-16 | 2026-08-30 11:43:11 | -22.80800 | -43.20605 | 98° | 13km/h | 4665m | 3.3m/s | -1.3°C | 74.2% | 583.5hPa | 0V | 00:00:00 | 00:00:00 | 00:00:00 | |
| PU1XMG-16 | 2026-08-30 11:43:00 | -22.80795 | -43.20666 | 53° | 22km/h | 4604m | 8.4m/s | -0.8°C | 74.2% | 588.0hPa | 0V | 00:00:00 | 00:00:00 | 00:00:00 | |
| PU1XMG-16 | 2026-08-30 11:42:54 | -22.80813 | -43.20690 | 49° | 13km/h | 4563m | 8.2m/s | -0.6°C | 73.7% | 591.1hPa | 0V | 00:00:00 | 00:00:00 | 00:00:00 | |
| PU1XMG-16 | 2026-08-30 11:42:48 | -22.80819 | -43.20704 | 116° | 15km/h | 4524m | 8.1m/s | -0.5°C | 74.9% | 593.9hPa | 0V | 00:00:00 | 00:00:00 | 00:00:00 | |
| PU1XMG-16 | 2026-08-30 11:42:42 | -22.80812 | -43.20737 | 73° | 26km/h | 4488m | 5.4m/s | -0.3°C | 79.1% | 596.6hPa | 0V | 00:00:00 | 00:00:00 | 00:00:00 | |
| PU1XMG-16 | 2026-08-30 11:42:36 | -22.80813 | -43.20766 | 102° | 27km/h | 4448m | 6.2m/s | -0.1°C | 83.0% | 599.6hPa | 0V | 00:00:00 | 00:00:00 | 00:00:00 | |
| PU1XMG-16 | 2026-08-30 11:42:30 | -22.80794 | -43.20818 | 113° | 37km/h | 4412m | 6.3m/s | 0.1°C | 85.0% | 602.4hPa | 0V | 00:00:00 | 00:00:00 | 00:00:00 | |
| PU1XMG-16 | 2026-08-30 11:42:26 | -22.80788 | -43.20852 | 72° | 20km/h | 4385m | 6.4m/s | 0.3°C | 83.8% | 604.4hPa | 0V | 00:00:00 | 00:00:00 | 00:00:00 | |
| PU1XMG-16 | 2026-08-30 11:42:20 | -22.80791 | -43.20881 | 121° | 24km/h | 4349m | 6.2m/s | 0.7°C | 82.4% | 607.2hPa | 0V | 00:00:00 | 00:00:00 | 00:00:00 | |
| PU1XMG-16 | 2026-08-30 11:42:14 | -22.80779 | -43.20913 | 80° | 20km/h | 4311m | 6.0m/s | 1.0°C | 70.2% | 610.0hPa | 0V | 00:00:00 | 00:00:00 | 00:00:00 | |
| PU1XMG-16 | 2026-08-30 11:42:09 | -22.80783 | -43.20937 | 97° | 18km/h | 4276m | 4.7m/s | 1.2°C | 68.4% | 612.7hPa | 0V | 00:00:00 | 00:00:00 | 00:00:00 | |
| PU1XMG-16 | 2026-08-30 11:42:03 | -22.80784 | -43.20982 | 102° | 26km/h | 4237m | 10.2m/s | 1.4°C | 73.3% | 615.5hPa | 0V | 00:00:00 | 00:00:00 | 00:00:00 | |
| PU1XMG-16 | 2026-08-30 11:41:58 | -22.80778 | -43.21013 | 73° | 18km/h | 4200m | 9.0m/s | 1.5°C | 79.0% | 618.4hPa | 0V | 00:00:00 | 00:00:00 | 00:00:00 | |
| PU1XMG-16 | 2026-08-30 11:41:52 | -22.80799 | -43.21062 | 82° | 42km/h | 4163m | 7.4m/s | 1.8°C | 77.5% | 621.2hPa | 0V | 00:00:00 | 00:00:00 | 00:00:00 | |
| PU1XMG-16 | 2026-08-30 11:41:47 | -22.80799 | -43.21113 | 92° | 40km/h | 4128m | 10.4m/s | 2.1°C | 75.1% | 623.9hPa | 0V | 00:00:00 | 00:00:00 | 00:00:00 | |
| PU1XMG-16 | 2026-08-30 11:41:41 | -22.80812 | -43.21174 | 85° | 33km/h | 4083m | 6.3m/s | 2.4°C | 74.8% | 627.4hPa | 0V | 00:00:00 | 00:00:00 | 00:00:00 | |
| PU1XMG-16 | 2026-08-30 11:41:36 | -22.80819 | -43.21236 | 83° | 53km/h | 4046m | 6.5m/s | 2.7°C | 73.6% | 630.1hPa | 0V | 00:00:00 | 00:00:00 | 00:00:00 | |
| PU1XMG-16 | 2026-08-30 11:41:30 | -22.80839 | -43.21312 | 60° | 46km/h | 4009m | 5.7m/s | 3.0°C | 69.7% | 633.0hPa | 0V | 00:00:00 | 00:00:00 | 00:00:00 | |
| PU1XMG-16 | 2026-08-30 11:41:25 | -22.80856 | -43.21365 | 80° | 42km/h | 3977m | 6.1m/s | 3.3°C | 67.8% | 635.5hPa | 0V | 00:00:00 | 00:00:00 | 00:00:00 | |
| PU1XMG-16 | 2026-08-30 11:41:19 | -22.80871 | -43.21412 | 80° | 26km/h | 3933m | 8.0m/s | 3.7°C | 64.5% | 639.0hPa | 0V | 00:00:00 | 00:00:00 | 00:00:00 | |
| PU1XMG-16 | 2026-08-30 11:41:14 | -22.80875 | -43.21464 | 86° | 47km/h | 3897m | 7.4m/s | 4.0°C | 62.4% | 642.0hPa | 0V | 00:00:00 | 00:00:00 | 00:00:00 | |
| PU1XMG-16 | 2026-08-30 11:41:09 | -22.80872 | -43.21515 | 109° | 31km/h | 3862m | 6.3m/s | 4.3°C | 63.2% | 644.7hPa | 0V | 00:00:00 | 00:00:00 | 00:00:00 | |
| PU1XMG-16 | 2026-08-30 11:41:03 | -22.80870 | -43.21565 | 72° | 26km/h | 3822m | 7.9m/s | 4.6°C | 65.0% | 647.9hPa | 0V | 00:00:00 | 00:00:00 | 00:00:00 | |
| PU1XMG-16 | 2026-08-30 11:40:58 | -22.80879 | -43.21607 | 80° | 42km/h | 3790m | 7.7m/s | 4.9°C | 62.4% | 650.4hPa | 0V | 00:00:00 | 00:00:00 | 00:00:00 | |
| PU1XMG-16 | 2026-08-30 11:40:53 | -22.80891 | -43.21653 | 79° | 27km/h | 3758m | 9.0m/s | 5.1°C | 61.3% | 652.7hPa | 0V | 00:00:00 | 00:00:00 | 00:00:00 | |
| PU1XMG-16 | 2026-08-30 11:40:47 | -22.80886 | -43.21712 | 97° | 26km/h | 3716m | 5.6m/s | 5.5°C | 60.2% | 656.1hPa | 0V | 00:00:00 | 00:00:00 | 00:00:00 | |
| PU1XMG-16 | 2026-08-30 11:40:41 | -22.80904 | -43.21749 | 72° | 31km/h | 3675m | 7.0m/s | 5.8°C | 57.5% | 659.4hPa | 0V | 00:00:00 | 00:00:00 | 00:00:00 | |
| PU1XMG-16 | 2026-08-30 11:40:35 | -22.80905 | -43.21803 | 86° | 33km/h | 3640m | 4.9m/s | 6.2°C | 58.3% | 662.6hPa | 0V | 00:00:00 | 00:00:00 | 00:00:00 | |
| PU1XMG-16 | 2026-08-30 11:40:29 | -22.80911 | -43.21861 | 79° | 29km/h | 3598m | 6.2m/s | 6.5°C | 56.9% | 665.8hPa | 0V | 00:00:00 | 00:00:00 | 00:00:00 | |
| PU1XMG-16 | 2026-08-30 11:40:23 | -22.80920 | -43.21900 | 83° | 27km/h | 3554m | 6.5m/s | 6.7°C | 58.0% | 669.3hPa | 0V | 00:00:00 | 00:00:00 | 00:00:00 | |
| PU1XMG-16 | 2026-08-30 11:40:14 | -22.80923 | -43.21972 | 87° | 40km/h | 3488m | 8.1m/s | 6.9°C | 68.9% | 674.6hPa | 0V | 00:00:00 | 00:00:00 | 00:00:00 | |
| PU1XMG-16 | 2026-08-30 11:40:09 | -22.80931 | -43.22013 | 61° | 27km/h | 3454m | 7.1m/s | 7.2°C | 69.2% | 677.5hPa | 0V | 00:00:00 | 00:00:00 | 00:00:00 | |
| PU1XMG-16 | 2026-08-30 11:40:03 | -22.80949 | -43.22043 | 57° | 20km/h | 3413m | 5.3m/s | 7.4°C | 72.2% | 680.8hPa | 0V | 00:00:00 | 00:00:00 | 00:00:00 | |
| PU1XMG-16 | 2026-08-30 11:39:58 | -22.80953 | -43.22078 | 79° | 33km/h | 3378m | 5.6m/s | 7.7°C | 72.0% | 683.6hPa | 0V | 00:00:00 | 00:00:00 | 00:00:00 | |
| PU1XMG-16 | 2026-08-30 11:39:53 | -22.80971 | -43.22111 | 62° | 22km/h | 3345m | 7.8m/s | 7.7°C | 84.4% | 686.3hPa | 0V | 00:00:00 | 00:00:00 | 00:00:00 | |
| PU1XMG-16 | 2026-08-30 11:39:47 | -22.80989 | -43.22153 | 75° | 31km/h | 3304m | 9.8m/s | 8.0°C | 87.1% | 689.7hPa | 0V | 00:00:00 | 00:00:00 | 00:00:00 | |
| PU1XMG-16 | 2026-08-30 11:39:39 | -22.81013 | -43.22215 | 56° | 29km/h | 3252m | 5.7m/s | 8.4°C | 89.8% | 694.1hPa | 0V | 00:00:00 | 00:00:00 | 00:00:00 | |
| PU1XMG-16 | 2026-08-30 11:39:34 | -22.81023 | -43.22245 | 91° | 31km/h | 3219m | 5.7m/s | 8.6°C | 90.5% | 696.9hPa | 0V | 00:00:00 | 00:00:00 | 00:00:00 | |
| PU1XMG-16 | 2026-08-30 11:39:28 | -22.81031 | -43.22282 | 75° | 11km/h | 3183m | 6.2m/s | 8.8°C | 93.3% | 700.0hPa | 0V | 00:00:00 | 00:00:00 | 00:00:00 | |
| PU1XMG-16 | 2026-08-30 11:39:22 | -22.81046 | -43.22309 | 48° | 18km/h | 3143m | 6.5m/s | 9.1°C | 97.3% | 703.4hPa | 0V | 00:00:00 | 00:00:00 | 00:00:00 | |
| PU1XMG-16 | 2026-08-30 11:39:17 | -22.81058 | -43.22332 | 81° | 18km/h | 3108m | 6.1m/s | 9.5°C | 95.8% | 706.5hPa | 0V | 00:00:00 | 00:00:00 | 00:00:00 | |
| PU1XMG-16 | 2026-08-30 11:39:11 | -22.81060 | -43.22366 | 67° | 15km/h | 3067m | 8.8m/s | 9.8°C | 93.3% | 709.9hPa | 0V | 00:00:00 | 00:00:00 | 00:00:00 | |
| PU1XMG-16 | 2026-08-30 11:39:06 | -22.81080 | -43.22393 | 59° | 27km/h | 3035m | 7.4m/s | 10.1°C | 90.1% | 712.6hPa | 0V | 00:00:00 | 00:00:00 | 00:00:00 | |
| PU1XMG-16 | 2026-08-30 11:38:49 | -22.81104 | -43.22465 | 49° | 18km/h | 2931m | 7.0m/s | 11.0°C | 87.5% | 721.4hPa | 0V | 00:00:00 | 00:00:00 | 00:00:00 | |
| PU1XMG-16 | 2026-08-30 11:38:43 | -22.81131 | -43.22501 | 69° | 24km/h | 2894m | 7.7m/s | 11.4°C | 86.2% | 724.5hPa | 0V | 00:00:00 | 00:00:00 | 00:00:00 | |
| PU1XMG-16 | 2026-08-30 11:38:38 | -22.81136 | -43.22514 | 24° | 7km/h | 2862m | 4.3m/s | 11.6°C | 85.1% | 727.3hPa | 0V | 00:00:00 | 00:00:00 | 00:00:00 | |
| PU1XMG-16 | 2026-08-30 11:38:33 | -22.81145 | -43.22531 | 64° | 22km/h | 2831m | 5.4m/s | 12.0°C | 83.5% | 730.3hPa | 0V | 00:00:00 | 00:00:00 | 00:00:00 | |
| PU1XMG-16 | 2026-08-30 11:38:27 | -22.81156 | -43.22560 | 75° | 20km/h | 2792m | 6.8m/s | 12.3°C | 82.0% | 733.5hPa | 0V | 00:00:00 | 00:00:00 | 00:00:00 | |
| PU1XMG-16 | 2026-08-30 11:38:23 | -22.81156 | -43.22580 | 58° | 13km/h | 2759m | 8.0m/s | 12.6°C | 80.8% | 736.3hPa | 0V | 00:00:00 | 00:00:00 | 00:00:00 | |
| PU1XMG-16 | 2026-08-30 11:38:16 | -22.81167 | -43.22608 | 67° | 16km/h | 2722m | 6.3m/s | 13.0°C | 79.6% | 739.7hPa | 0V | 00:00:00 | 00:00:00 | 00:00:00 | |
| PU1XMG-16 | 2026-08-30 11:38:10 | -22.81165 | -43.22634 | 93° | 16km/h | 2684m | 6.3m/s | 13.4°C | 77.8% | 743.1hPa | 0V | 00:00:00 | 00:00:00 | 00:00:00 | |
| PU1XMG-16 | 2026-08-30 11:38:05 | -22.81162 | -43.22657 | 95° | 18km/h | 2652m | 8.1m/s | 13.6°C | 76.8% | 745.8hPa | 0V | 00:00:00 | 00:00:00 | 00:00:00 | |
| PU1XMG-16 | 2026-08-30 11:37:59 | -22.81167 | -43.22685 | 54° | 18km/h | 2610m | 4.9m/s | 14.0°C | 75.6% | 749.4hPa | 0V | 00:00:00 | 00:00:00 | 00:00:00 | |
| PU1XMG-16 | 2026-08-30 11:37:54 | -22.81177 | -43.22701 | 63° | 15km/h | 2580m | 10.0m/s | 14.2°C | 74.6% | 752.2hPa | 0V | 00:00:00 | 00:00:00 | 00:00:00 | |
| PU1XMG-16 | 2026-08-30 11:37:48 | -22.81172 | -43.22734 | 109° | 24km/h | 2534m | 5.9m/s | 14.6°C | 73.3% | 756.1hPa | 0V | 00:00:00 | 00:00:00 | 00:00:00 | |
| PU1XMG-16 | 2026-08-30 11:37:43 | -22.81170 | -43.22751 | 59° | 11km/h | 2505m | 5.1m/s | 14.9°C | 72.6% | 758.8hPa | 0V | 00:00:00 | 00:00:00 | 00:00:00 | |
| PU1XMG-16 | 2026-08-30 11:37:37 | -22.81169 | -43.22777 | 90° | 16km/h | 2469m | 7.2m/s | 15.2°C | 71.5% | 762.0hPa | 0V | 00:00:00 | 00:00:00 | 00:00:00 | |
| PU1XMG-16 | 2026-08-30 11:37:31 | -22.81171 | -43.22809 | 80° | 22km/h | 2431m | 7.0m/s | 15.6°C | 70.2% | 765.3hPa | 0V | 00:00:00 | 00:00:00 | 00:00:00 | |
| PU1XMG-16 | 2026-08-30 11:37:25 | -22.81175 | -43.22830 | 27° | 11km/h | 2394m | 6.8m/s | 15.9°C | 69.0% | 768.6hPa | 0V | 00:00:00 | 00:00:00 | 00:00:00 | |
| PU1XMG-16 | 2026-08-30 11:37:20 | -22.81177 | -43.22845 | 90° | 20km/h | 2365m | 7.5m/s | 16.2°C | 68.4% | 771.1hPa | 0V | 00:00:00 | 00:00:00 | 00:00:00 | |
| PU1XMG-16 | 2026-08-30 11:37:14 | -22.81167 | -43.22884 | 125° | 24km/h | 2328m | 4.9m/s | 16.5°C | 67.3% | 774.6hPa | 0V | 00:00:00 | 00:00:00 | 00:00:00 | |
| PU1XMG-16 | 2026-08-30 11:37:08 | -22.81154 | -43.22911 | 81° | 11km/h | 2296m | 6.8m/s | 16.9°C | 66.2% | 777.8hPa | 0V | 00:00:00 | 00:00:00 | 00:00:00 | |
| PU1XMG-16 | 2026-08-30 11:37:03 | -22.81153 | -43.22929 | 81° | 22km/h | 2270m | 4.9m/s | 17.1°C | 65.4% | 780.2hPa | 0V | 00:00:00 | 00:00:00 | 00:00:00 | |
| PU1XMG-16 | 2026-08-30 11:36:57 | -22.81156 | -43.22958 | 83° | 18km/h | 2234m | 7.4m/s | 17.4°C | 64.5% | 783.4hPa | 0V | 00:00:00 | 00:00:00 | 00:00:00 | |
| PU1XMG-16 | 2026-08-30 11:36:52 | -22.81161 | -43.22992 | 79° | 20km/h | 2200m | 5.9m/s | 17.7°C | 63.4% | 786.5hPa | 0V | 00:00:00 | 00:00:00 | 00:00:00 | |
| PU1XMG-16 | 2026-08-30 11:36:46 | -22.81165 | -43.23018 | 79° | 13km/h | 2163m | 7.4m/s | 18.1°C | 62.2% | 790.0hPa | 0V | 00:00:00 | 00:00:00 | 00:00:00 | |
| PU1XMG-16 | 2026-08-30 11:36:41 | -22.81163 | -43.23042 | 94° | 15km/h | 2132m | 6.7m/s | 18.2°C | 61.9% | 792.7hPa | 0V | 00:00:00 | 00:00:00 | 00:00:00 | |
| PU1XMG-16 | 2026-08-30 11:36:35 | -22.81154 | -43.23064 | 106° | 16km/h | 2096m | 7.9m/s | 18.6°C | 60.9% | 795.9hPa | 0V | 00:00:00 | 00:00:00 | 00:00:00 | |
| PU1XMG-16 | 2026-08-30 11:36:30 | -22.81153 | -43.23093 | 93° | 18km/h | 2063m | 5.6m/s | 18.8°C | 60.1% | 799.0hPa | 0V | 00:00:00 | 00:00:00 | 00:00:00 | |
| PU1XMG-16 | 2026-08-30 11:36:24 | -22.81146 | -43.23126 | 113° | 15km/h | 2026m | 6.0m/s | 19.2°C | 59.2% | 802.5hPa | 0V | 00:00:00 | 00:00:00 | 00:00:00 | |
| PU1XMG-16 | 2026-08-30 11:36:19 | -22.81136 | -43.23149 | 107° | 16km/h | 1994m | 6.6m/s | 19.4°C | 58.5% | 805.3hPa | 0V | 00:00:00 | 00:00:00 | 00:00:00 | |
| PU1XMG-16 | 2026-08-30 11:36:13 | -22.81131 | -43.23183 | 92° | 24km/h | 1956m | 8.4m/s | 19.7°C | 57.8% | 808.9hPa | 0V | 00:00:00 | 00:00:00 | 00:00:00 | |
| PU1XMG-16 | 2026-08-30 11:36:08 | -22.81118 | -43.23214 | 114° | 26km/h | 1923m | 9.0m/s | 20.0°C | 57.2% | 812.3hPa | 0V | 00:00:00 | 00:00:00 | 00:00:00 | |
| PU1XMG-16 | 2026-08-30 11:35:56 | -22.81090 | -43.23306 | 117° | 27km/h | 1841m | 4.2m/s | 20.6°C | 56.0% | 819.8hPa | 0V | 00:00:00 | 00:00:00 | 00:00:00 | |
| PU1XMG-16 | 2026-08-30 11:35:51 | -22.81078 | -43.23344 | 114° | 29km/h | 1807m | 7.6m/s | 20.9°C | 55.6% | 823.0hPa | 0V | 00:00:00 | 00:00:00 | 00:00:00 | |
| PU1XMG-16 | 2026-08-30 11:35:47 | -22.81062 | -43.23384 | 115° | 31km/h | 1774m | 8.6m/s | 21.1°C | 55.8% | 826.1hPa | 0V | 00:00:00 | 00:00:00 | 00:00:00 | |
| PU1XMG-16 | 2026-08-30 11:35:41 | -22.81042 | -43.23418 | 128° | 33km/h | 1738m | 5.2m/s | 21.2°C | 55.7% | 829.7hPa | 0V | 00:00:00 | 00:00:00 | 00:00:00 | |
| PU1XMG-16 | 2026-08-30 11:35:36 | -22.81019 | -43.23455 | 124° | 37km/h | 1706m | 5.8m/s | 21.5°C | 55.0% | 832.6hPa | 0V | 00:00:00 | 00:00:00 | 00:00:00 | |
| PU1XMG-16 | 2026-08-30 11:35:30 | -22.80995 | -43.23500 | 116° | 31km/h | 1666m | 6.1m/s | 21.8°C | 54.3% | 836.4hPa | 0V | 00:00:00 | 00:00:00 | 00:00:00 | |
| PU1XMG-16 | 2026-08-30 11:35:26 | -22.80973 | -43.23533 | 129° | 33km/h | 1636m | 7.2m/s | 21.9°C | 54.3% | 839.4hPa | 0V | 00:00:00 | 00:00:00 | 00:00:00 | |
| PU1XMG-16 | 2026-08-30 11:35:21 | -22.80954 | -43.23564 | 126° | 27km/h | 1603m | 5.3m/s | 22.1°C | 54.0% | 842.3hPa | 0V | 00:00:00 | 00:00:00 | 00:00:00 | |
| PU1XMG-16 | 2026-08-30 11:35:15 | -22.80924 | -43.23594 | 140° | 29km/h | 1569m | 6.3m/s | 22.4°C | 53.3% | 845.9hPa | 0V | 00:00:00 | 00:00:00 | 00:00:00 | |
| PU1XMG-16 | 2026-08-30 11:35:08 | -22.80893 | -43.23635 | 126° | 31km/h | 1531m | 6.6m/s | 22.5°C | 53.3% | 849.6hPa | 0V | 00:00:00 | 00:00:00 | 00:00:00 | |
| PU1XMG-16 | 2026-08-30 11:34:57 | -22.80832 | -43.23702 | 131° | 24km/h | 1459m | 6.8m/s | 22.5°C | 56.4% | 856.5hPa | 0V | 00:00:00 | 00:00:00 | 00:00:00 | |
| PU1XMG-16 | 2026-08-30 11:34:52 | -22.80806 | -43.23725 | 143° | 27km/h | 1426m | 7.7m/s | 22.6°C | 56.4% | 859.6hPa | 0V | 00:00:00 | 00:00:00 | 00:00:00 | |
| PU1XMG-16 | 2026-08-30 11:34:47 | -22.80781 | -43.23748 | 138° | 27km/h | 1396m | 7.3m/s | 22.9°C | 55.8% | 862.9hPa | 0V | 00:00:00 | 00:00:00 | 00:00:00 | |
| PU1XMG-16 | 2026-08-30 11:34:42 | -22.80751 | -43.23773 | 141° | 27km/h | 1360m | 6.1m/s | 23.0°C | 56.3% | 866.5hPa | 0V | 00:00:00 | 00:00:00 | 00:00:00 | |
| PU1XMG-16 | 2026-08-30 11:34:36 | -22.80727 | -43.23790 | 136° | 22km/h | 1331m | 6.3m/s | 23.2°C | 56.0% | 869.3hPa | 0V | 00:00:00 | 00:00:00 | 00:00:00 | |
| PU1XMG-16 | 2026-08-30 11:34:31 | -22.80700 | -43.23812 | 140° | 29km/h | 1302m | 6.4m/s | 23.0°C | 58.2% | 872.2hPa | 0V | 00:00:00 | 00:00:00 | 00:00:00 | |
| PU1XMG-16 | 2026-08-30 11:34:25 | -22.80671 | -43.23841 | 136° | 24km/h | 1267m | 9.5m/s | 22.8°C | 61.5% | 875.4hPa | 0V | 00:00:00 | 00:00:00 | 00:00:00 | |
| PU1XMG-16 | 2026-08-30 11:34:20 | -22.80648 | -43.23854 | 149° | 26km/h | 1228m | 5.3m/s | 22.9°C | 61.4% | 879.3hPa | 0V | 00:00:00 | 00:00:00 | 00:00:00 | |
| PU1XMG-16 | 2026-08-30 11:34:16 | -22.80624 | -43.23870 | 160° | 22km/h | 1195m | 7.9m/s | 23.2°C | 60.5% | 882.8hPa | 0V | 00:00:00 | 00:00:00 | 00:00:00 | |
| PU1XMG-16 | 2026-08-30 11:34:10 | -22.80595 | -43.23873 | 182° | 27km/h | 1161m | 7.3m/s | 23.2°C | 61.2% | 886.0hPa | 0V | 00:00:00 | 00:00:00 | 00:00:00 | |
| PU1XMG-16 | 2026-08-30 11:34:04 | -22.80554 | -43.23880 | 160° | 31km/h | 1124m | 6.9m/s | 23.1°C | 63.0% | 889.6hPa | 0V | 00:00:00 | 00:00:00 | 00:00:00 | |
| PU1XMG-16 | 2026-08-30 11:34:00 | -22.80523 | -43.23894 | 158° | 26km/h | 1093m | 4.5m/s | 23.0°C | 65.0% | 893.0hPa | 0V | 00:00:00 | 00:00:00 | 00:00:00 | |
| PU1XMG-16 | 2026-08-30 11:33:55 | -22.80498 | -43.23907 | 163° | 22km/h | 1059m | 4.8m/s | 23.2°C | 64.5% | 896.6hPa | 0V | 00:00:00 | 00:00:00 | 00:00:00 | |
| PU1XMG-16 | 2026-08-30 11:33:48 | -22.80477 | -43.23920 | 150° | 18km/h | 1023m | 6.3m/s | 23.2°C | 64.9% | 900.2hPa | 0V | 00:00:00 | 00:00:00 | 00:00:00 | |
| PU1XMG-16 | 2026-08-30 11:33:43 | -22.80456 | -43.23930 | 165° | 16km/h | 990m | 6.9m/s | 23.0°C | 66.6% | 903.7hPa | 0V | 00:00:00 | 00:00:00 | 00:00:00 | |
| PU1XMG-16 | 2026-08-30 11:33:36 | -22.80444 | -43.23944 | 132° | 18km/h | 952m | 7.7m/s | 22.9°C | 68.2% | 907.7hPa | 0V | 00:00:00 | 00:00:00 | 00:00:00 | |
| PU1XMG-16 | 2026-08-30 11:33:32 | -22.80426 | -43.23969 | 130° | 22km/h | 921m | 7.3m/s | 23.0°C | 68.3% | 910.9hPa | 0V | 00:00:00 | 00:00:00 | 00:00:00 | |
| PU1XMG-16 | 2026-08-30 11:33:26 | -22.80409 | -43.24001 | 132° | 18km/h | 885m | 6.4m/s | 22.9°C | 0% | 0hPa | 0V | 00:00:00 | 00:00:00 | 00:00:00 | |
| PU1XMG-16 | 2026-08-30 11:33:19 | -22.80401 | -43.24034 | 106° | 20km/h | 845m | 5.0m/s | 22.9°C | 0% | 0hPa | 0V | 00:00:00 | 00:00:00 | 00:00:00 | |
| PU1XMG-16 | 2026-08-30 11:33:13 | -22.80394 | -43.24072 | 93° | 24km/h | 807m | 5.6m/s | 23.2°C | 0% | 0hPa | 0V | 00:00:00 | 00:00:00 | 00:00:00 | |
| PU1XMG-16 | 2026-08-30 11:33:09 | -22.80390 | -43.24111 | 93° | 26km/h | 779m | 4.5m/s | 23.2°C | 0% | 0hPa | 0V | 00:00:00 | 00:00:00 | 00:00:00 | |
| PU1XMG-16 | 2026-08-30 11:32:57 | -22.80397 | -43.24201 | 73° | 27km/h | 707m | 4.2m/s | 23.6°C | 0% | 0hPa | 0V | 00:00:00 | 00:00:00 | 00:00:00 | |
| PU1XMG-16 | 2026-08-30 11:32:50 | -22.80406 | -43.24249 | 82° | 37km/h | 674m | 6.8m/s | 0°C | 0% | 0hPa | 0V | 00:00:00 | 00:00:00 | 00:00:00 | |
| PU1XMG-16 | 2026-08-30 11:32:45 | -22.80421 | -43.24306 | 80° | 42km/h | 639m | 5.8m/s | 0°C | 0% | 0hPa | 0V | 00:00:00 | 00:00:00 | 00:00:00 | |
| PU1XMG-16 | 2026-08-30 11:32:39 | -22.80433 | -43.24356 | 78° | 37km/h | 608m | 6.6m/s | 0°C | 0% | 0hPa | 0V | 00:00:00 | 00:00:00 | 00:00:00 | |
| PU1XMG-16 | 2026-08-30 11:32:29 | -22.80467 | -43.24430 | 50° | 29km/h | 553m | 3.5m/s | 0°C | 0% | 0hPa | 0V | 00:00:00 | 00:00:00 | 00:00:00 | |
| PU1XMG-16 | 2026-08-30 11:32:23 | -22.80495 | -43.24467 | 58° | 29km/h | 518m | 5.4m/s | 0°C | 0% | 0hPa | 0V | 00:00:00 | 00:00:00 | 00:00:00 | |
| PU1XMG-16 | 2026-08-30 11:32:08 | -22.80566 | -43.24560 | 68° | 29km/h | 429m | 6.7m/s | 0°C | 0% | 0hPa | 0V | 00:00:00 | 00:00:00 | 00:00:00 |